Darstellungsparameter: Aktuell verwendete Einstellungen:
Skalierung der Graphiken ... ?
xyx+y,   Skalierungsfaktor:      Skalierung: Modus: x, Faktor: 1
Darstellungszeitraum ... ?
Vom - - bis: - -   Zeitraum: 20.04.2016 - 19.05.2016
Min/Max/Avg-Anzeige ... ?
Zeige MMA aktuell
Zeige MMA Monat
Zeige MMA alles
Zeige --A aktuell
Zeige --A Monat
Zeige --A alles
Keine MMA-Anzeige
MMA:
Keine MMA-Graphiken
MMA-Basis: 20.04.2016 - 19.05.2016
Quicknavigation für Darstellung... ?
Tage:      1T, 2T, 3T, 5T -1T -2T -3T -5T +1T +2T +3T +5T
Wochen: 1W, 2W, 3W -1W -2W -3W +1W +2W +3W
Monate: 1M, 3M, 6M -1M -3M -6M +1M +3M +6M
Jahre:    1J, 3J, 5J, 10J -1J -3J -5J -10J +1J +3J +5J +10J
Nutze für die Darstellung ... ?
Originaldaten oder Mittelwerte auf ...
Stundenbasis Tagesbasis Wochenbasis
Monatsbasis Jahresbasis      Datenbasis: Original-Daten
Darstellen als:
Statistik (Auto) Statistik J:M      Darstellung:
Zur Graphik,    zurück zur Übersicht aller Sensoren.
 
Tabellarische Datenbersicht: ?
 
Sensor: Nr:Datum:Temp:Feuchte:Taupunkt:
Aussen-T/F 1 20-04-2016 00:00:00 5.6 C 85 % 3.28 C
2 20-04-2016 00:05:00 5.6 C 85 % 3.28 C
3 20-04-2016 00:10:00 5.4 C 85 % 3.09 C
4 20-04-2016 00:15:00 5.4 C 85 % 3.09 C
5 20-04-2016 00:20:00 5.3 C 86 % 3.15 C
6 20-04-2016 00:25:00 5.3 C 86 % 3.15 C
7 20-04-2016 00:30:00 5.2 C 86 % 3.05 C
8 20-04-2016 00:35:00 5.2 C 87 % 3.22 C
9 20-04-2016 00:40:00 5.1 C 87 % 3.12 C
10 20-04-2016 00:45:00 5 C 87 % 3.02 C
11 20-04-2016 00:50:00 4.9 C 87 % 2.92 C
12 20-04-2016 00:55:00 4.9 C 88 % 3.08 C
13 20-04-2016 01:00:00 4.8 C 88 % 2.99 C
14 20-04-2016 01:05:00 4.7 C 88 % 2.89 C
15 20-04-2016 01:10:00 4.6 C 88 % 2.79 C
16 20-04-2016 01:15:00 4.6 C 89 % 2.95 C
17 20-04-2016 01:20:00 4.5 C 89 % 2.85 C
18 20-04-2016 01:25:00 4.6 C 90 % 3.1 C
19 20-04-2016 01:30:00 4.6 C 90 % 3.1 C
20 20-04-2016 01:35:00 4.7 C 90 % 3.2 C
21 20-04-2016 01:40:00 4.8 C 91 % 3.46 C
22 20-04-2016 01:45:00 4.9 C 90 % 3.4 C
23 20-04-2016 01:50:00 5 C 90 % 3.5 C
24 20-04-2016 01:55:00 5.1 C 90 % 3.6 C
25 20-04-2016 02:00:00 5.2 C 90 % 3.7 C
Sensor: Nr:Datum:Temp:Feuchte:Taupunkt:
Aussen-T/F 26 20-04-2016 02:05:00 5.3 C 90 % 3.8 C
27 20-04-2016 02:10:00 5.3 C 90 % 3.8 C
28 20-04-2016 02:15:00 5.4 C 90 % 3.89 C
29 20-04-2016 02:20:00 5.5 C 89 % 3.84 C
30 20-04-2016 02:25:00 5.5 C 89 % 3.84 C
31 20-04-2016 02:30:00 5.6 C 89 % 3.93 C
32 20-04-2016 02:35:00 5.6 C 88 % 3.77 C
33 20-04-2016 02:40:00 5.6 C 88 % 3.77 C
34 20-04-2016 02:45:00 5.6 C 88 % 3.77 C
35 20-04-2016 02:50:00 5.6 C 87 % 3.61 C
36 20-04-2016 02:55:00 5.5 C 86 % 3.35 C
37 20-04-2016 03:00:00 5.4 C 86 % 3.25 C
38 20-04-2016 03:05:00 5.4 C 86 % 3.25 C
39 20-04-2016 03:10:00 5.4 C 85 % 3.09 C
40 20-04-2016 03:15:00 5.5 C 85 % 3.18 C
41 20-04-2016 03:20:00 5.5 C 85 % 3.18 C
42 20-04-2016 03:25:00 5.5 C 86 % 3.35 C
43 20-04-2016 03:30:00 5.4 C 85 % 3.09 C
44 20-04-2016 03:35:00 5.4 C 86 % 3.25 C
45 20-04-2016 03:40:00 5.4 C 86 % 3.25 C
46 20-04-2016 03:45:00 5.3 C 86 % 3.15 C
47 20-04-2016 03:50:00 5.3 C 86 % 3.15 C
48 20-04-2016 03:55:00 5.2 C 86 % 3.05 C
49 20-04-2016 04:00:00 5.1 C 85 % 2.79 C
50 20-04-2016 04:05:00 4.9 C 86 % 2.76 C
Sensor: Nr:Datum:Temp:Feuchte:Taupunkt:
Aussen-T/F 51 20-04-2016 04:10:00 4.9 C 86 % 2.76 C
52 20-04-2016 04:15:00 4.8 C 87 % 2.82 C
53 20-04-2016 04:20:00 4.8 C 87 % 2.82 C
54 20-04-2016 04:25:00 4.6 C 87 % 2.63 C
55 20-04-2016 04:30:00 4.5 C 87 % 2.53 C
56 20-04-2016 04:35:00 4.4 C 87 % 2.43 C
57 20-04-2016 04:40:00 4.2 C 87 % 2.23 C
58 20-04-2016 04:45:00 4.1 C 87 % 2.14 C
59 20-04-2016 04:50:00 3.8 C 87 % 1.84 C
60 20-04-2016 04:55:00 3.7 C 88 % 1.9 C
61 20-04-2016 05:00:00 3.7 C 89 % 2.06 C
62 20-04-2016 05:05:00 3.6 C 89 % 1.96 C
63 20-04-2016 05:10:00 3.5 C 89 % 1.86 C
64 20-04-2016 05:15:00 3.4 C 89 % 1.76 C
65 20-04-2016 05:20:00 3.3 C 89 % 1.67 C
66 20-04-2016 05:25:00 3.2 C 89 % 1.57 C
67 20-04-2016 05:30:00 3.2 C 90 % 1.72 C
68 20-04-2016 05:35:00 3.1 C 90 % 1.62 C
69 20-04-2016 05:40:00 3 C 90 % 1.52 C
70 20-04-2016 05:45:00 3 C 90 % 1.52 C
71 20-04-2016 05:50:00 2.9 C 90 % 1.43 C
72 20-04-2016 05:55:00 2.8 C 90 % 1.33 C
73 20-04-2016 06:00:00 2.7 C 90 % 1.23 C
74 20-04-2016 06:05:00 2.6 C 91 % 1.28 C
75 20-04-2016 06:10:00 2.5 C 91 % 1.18 C
Sensor: Nr:Datum:Temp:Feuchte:Taupunkt:
Aussen-T/F 76 20-04-2016 06:15:00 2.5 C 91 % 1.18 C
77 20-04-2016 06:20:00 2.4 C 91 % 1.08 C
78 20-04-2016 06:25:00 2.4 C 92 % 1.24 C
79 20-04-2016 06:30:00 2.3 C 91 % 0.99 C
80 20-04-2016 06:35:00 2.2 C 92 % 1.04 C
81 20-04-2016 06:40:00 2.2 C 92 % 1.04 C
82 20-04-2016 06:45:00 2.2 C 92 % 1.04 C
83 20-04-2016 06:50:00 2.2 C 92 % 1.04 C
84 20-04-2016 06:55:00 2.1 C 92 % 0.94 C
85 20-04-2016 07:00:00 2.1 C 93 % 1.09 C
86 20-04-2016 07:05:00 2.1 C 93 % 1.09 C
87 20-04-2016 07:10:00 2.1 C 93 % 1.09 C
88 20-04-2016 07:15:00 2.1 C 93 % 1.09 C
89 20-04-2016 07:20:00 2.1 C 93 % 1.09 C
90 20-04-2016 07:25:00 2.2 C 93 % 1.19 C
91 20-04-2016 07:30:00 2.2 C 93 % 1.19 C
92 20-04-2016 07:35:00 2.2 C 93 % 1.19 C
93 20-04-2016 07:40:00 2.2 C 93 % 1.19 C
94 20-04-2016 07:45:00 2.2 C 94 % 1.34 C
95 20-04-2016 07:50:00 2.2 C 94 % 1.34 C
96 20-04-2016 07:55:00 2.3 C 94 % 1.44 C
97 20-04-2016 08:00:00 2.4 C 94 % 1.54 C
98 20-04-2016 08:05:00 2.5 C 94 % 1.63 C
99 20-04-2016 08:10:00 2.6 C 94 % 1.73 C
100 20-04-2016 08:15:00 2.7 C 94 % 1.83 C
Sensor: Nr:Datum:Temp:Feuchte:Taupunkt:
Aussen-T/F 101 20-04-2016 08:20:00 2.8 C 94 % 1.93 C
102 20-04-2016 08:25:00 2.9 C 94 % 2.03 C
103 20-04-2016 08:30:00 3.1 C 94 % 2.23 C
104 20-04-2016 08:35:00 3.1 C 94 % 2.23 C
105 20-04-2016 08:40:00 3.2 C 94 % 2.33 C
106 20-04-2016 08:45:00 3.2 C 94 % 2.33 C
107 20-04-2016 08:50:00 3.3 C 94 % 2.43 C
108 20-04-2016 08:55:00 3.4 C 94 % 2.53 C
109 20-04-2016 09:00:00 3.5 C 93 % 2.48 C
110 20-04-2016 09:05:00 3.7 C 93 % 2.68 C
111 20-04-2016 09:10:00 3.8 C 93 % 2.77 C
112 20-04-2016 09:15:00 3.9 C 93 % 2.87 C
113 20-04-2016 09:20:00 4.1 C 93 % 3.07 C
114 20-04-2016 09:25:00 4.2 C 93 % 3.17 C
115 20-04-2016 09:30:00 4.3 C 93 % 3.27 C
116 20-04-2016 09:35:00 4.6 C 93 % 3.57 C
117 20-04-2016 09:40:00 4.7 C 93 % 3.67 C
118 20-04-2016 09:45:00 4.9 C 93 % 3.87 C
119 20-04-2016 09:50:00 5.2 C 92 % 4.01 C
120 20-04-2016 09:55:00 5.5 C 91 % 4.15 C
121 20-04-2016 10:00:00 6 C 88 % 4.17 C
122 20-04-2016 10:05:00 6.3 C 85 % 3.97 C
123 20-04-2016 10:10:00 6.6 C 83 % 3.92 C
124 20-04-2016 10:15:00 7 C 82 % 4.14 C
125 20-04-2016 10:20:00 7.6 C 77 % 3.83 C
Sensor: Nr:Datum:Temp:Feuchte:Taupunkt:
Aussen-T/F 126 20-04-2016 10:25:00 7.9 C 76 % 3.94 C
127 20-04-2016 10:30:00 8.2 C 76 % 4.23 C
128 20-04-2016 10:35:00 8.4 C 74 % 4.04 C
129 20-04-2016 10:40:00 8.6 C 74 % 4.24 C
130 20-04-2016 10:45:00 8.8 C 72 % 4.04 C
131 20-04-2016 10:50:00 9.1 C 71 % 4.13 C
132 20-04-2016 10:55:00 9.2 C 71 % 4.22 C
133 20-04-2016 11:00:00 9.4 C 68 % 3.8 C
134 20-04-2016 11:05:00 9.6 C 68 % 3.99 C
135 20-04-2016 11:10:00 9.7 C 66 % 3.67 C
136 20-04-2016 11:15:00 9.8 C 66 % 3.76 C
137 20-04-2016 11:20:00 9.9 C 66 % 3.86 C
138 20-04-2016 11:25:00 10 C 65 % 3.73 C
139 20-04-2016 11:30:00 10.1 C 64 % 3.61 C
140 20-04-2016 11:35:00 10.2 C 63 % 3.48 C
141 20-04-2016 11:40:00 10.2 C 63 % 3.48 C
142 20-04-2016 11:45:00 10.3 C 64 % 3.8 C
143 20-04-2016 11:50:00 10.5 C 63 % 3.77 C
144 20-04-2016 11:55:00 10.7 C 63 % 3.95 C
145 20-04-2016 12:00:00 10.8 C 62 % 3.82 C
146 20-04-2016 12:05:00 10.8 C 62 % 3.82 C
147 20-04-2016 12:10:00 10.9 C 61 % 3.69 C
148 20-04-2016 12:15:00 11 C 61 % 3.78 C
149 20-04-2016 12:20:00 11.1 C 61 % 3.87 C
150 20-04-2016 12:25:00 11.1 C 60 % 3.64 C
Sensor: Nr:Datum:Temp:Feuchte:Taupunkt:
Aussen-T/F 151 20-04-2016 12:30:00 11.3 C 59 % 3.59 C
152 20-04-2016 12:35:00 11.6 C 58 % 3.63 C
153 20-04-2016 12:40:00 11.8 C 57 % 3.57 C
154 20-04-2016 12:45:00 11.8 C 54 % 2.81 C
155 20-04-2016 12:50:00 11.7 C 55 % 2.97 C
156 20-04-2016 12:55:00 11.8 C 55 % 3.07 C
157 20-04-2016 13:00:00 11.9 C 54 % 2.9 C
158 20-04-2016 13:05:00 12 C 53 % 2.73 C
159 20-04-2016 13:10:00 12.1 C 51 % 2.28 C
160 20-04-2016 13:15:00 12.2 C 51 % 2.37 C
161 20-04-2016 13:20:00 12.4 C 50 % 2.28 C
162 20-04-2016 13:25:00 12.6 C 51 % 2.74 C
163 20-04-2016 13:30:00 12.7 C 50 % 2.56 C
164 20-04-2016 13:35:00 12.7 C 49 % 2.27 C
165 20-04-2016 13:40:00 12.8 C 49 % 2.37 C
166 20-04-2016 13:45:00 12.9 C 50 % 2.74 C
167 20-04-2016 13:50:00 13.1 C 48 % 2.35 C
168 20-04-2016 13:55:00 13.2 C 47 % 2.15 C
169 20-04-2016 14:00:00 13.3 C 47 % 2.24 C
170 20-04-2016 14:05:00 13.4 C 45 % 1.72 C
171 20-04-2016 14:10:00 13.4 C 46 % 2.03 C
172 20-04-2016 14:15:00 13.4 C 44 % 1.41 C
173 20-04-2016 14:20:00 13.5 C 43 % 1.18 C
174 20-04-2016 14:25:00 13.8 C 41 % 0.79 C
175 20-04-2016 14:30:00 14.2 C 39 % 0.46 C
Sensor: Nr:Datum:Temp:Feuchte:Taupunkt:
Aussen-T/F 176 20-04-2016 14:35:00 14.3 C 38 % 0.19 C
177 20-04-2016 14:40:00 14.3 C 37 % -0.17 C
178 20-04-2016 14:45:00 14.5 C 37 % 0 C
179 20-04-2016 14:50:00 14.6 C 35 % -0.67 C
180 20-04-2016 14:55:00 14.7 C 35 % -0.58 C
181 20-04-2016 15:00:00 14.8 C 36 % -0.11 C
182 20-04-2016 15:05:00 15 C 35 % -0.32 C
183 20-04-2016 15:10:00 15 C 33 % -1.12 C
184 20-04-2016 15:15:00 15 C 36 % 0.07 C
185 20-04-2016 15:20:00 15.2 C 35 % -0.14 C
186 20-04-2016 15:25:00 15.4 C 35 % 0.04 C
187 20-04-2016 15:30:00 15.4 C 33 % -0.77 C
188 20-04-2016 15:35:00 15.4 C 34 % -0.36 C
189 20-04-2016 15:40:00 15.6 C 34 % -0.19 C
190 20-04-2016 15:45:00 15.6 C 34 % -0.19 C
191 20-04-2016 15:50:00 15.9 C 34 % 0.08 C
192 20-04-2016 15:55:00 16 C 31 % -1.1 C
193 20-04-2016 16:00:00 16.1 C 32 % -0.58 C
194 20-04-2016 16:05:00 16.1 C 32 % -0.58 C
195 20-04-2016 16:10:00 16.2 C 35 % 0.74 C
196 20-04-2016 16:15:00 16.4 C 35 % 0.92 C
197 20-04-2016 16:20:00 16.7 C 31 % -0.49 C
198 20-04-2016 16:25:00 17.2 C 32 % 0.38 C
199 20-04-2016 16:30:00 17.4 C 30 % -0.33 C
200 20-04-2016 16:35:00 17.4 C 29 % -0.8 C
Sensor: Nr:Datum:Temp:Feuchte:Taupunkt:
Aussen-T/F 201 20-04-2016 16:40:00 17.4 C 30 % -0.33 C
202 20-04-2016 16:45:00 17.3 C 30 % -0.42 C
203 20-04-2016 16:50:00 17.3 C 31 % 0.03 C
204 20-04-2016 16:55:00 17.4 C 30 % -0.33 C
205 20-04-2016 17:00:00 17.4 C 30 % -0.33 C
206 20-04-2016 17:05:00 17.3 C 30 % -0.42 C
207 20-04-2016 17:10:00 17.4 C 31 % 0.12 C
208 20-04-2016 17:15:00 17.3 C 30 % -0.42 C
209 20-04-2016 17:20:00 17.3 C 30 % -0.42 C
210 20-04-2016 17:25:00 17.3 C 30 % -0.42 C
211 20-04-2016 17:30:00 17.3 C 30 % -0.42 C
212 20-04-2016 17:35:00 17.4 C 28 % -1.27 C
213 20-04-2016 17:40:00 17.3 C 30 % -0.42 C
214 20-04-2016 17:45:00 17.4 C 30 % -0.33 C
215 20-04-2016 17:50:00 17.4 C 28 % -1.27 C
216 20-04-2016 17:55:00 17.4 C 28 % -1.27 C
217 20-04-2016 18:00:00 17.3 C 28 % -1.36 C
218 20-04-2016 18:05:00 17.5 C 28 % -1.19 C
219 20-04-2016 18:10:00 17.6 C 27 % -1.6 C
220 20-04-2016 18:15:00 17.3 C 31 % 0.03 C
221 20-04-2016 18:20:00 17.5 C 28 % -1.19 C
222 20-04-2016 18:25:00 17.6 C 29 % -0.62 C
223 20-04-2016 18:30:00 17.5 C 31 % 0.2 C
224 20-04-2016 18:35:00 17.4 C 29 % -0.8 C
225 20-04-2016 18:40:00 17.4 C 30 % -0.33 C
Sensor: Nr:Datum:Temp:Feuchte:Taupunkt:
Aussen-T/F 226 20-04-2016 18:45:00 17.6 C 29 % -0.62 C
227 20-04-2016 18:50:00 17.5 C 31 % 0.2 C
228 20-04-2016 18:55:00 17.7 C 31 % 0.38 C
229 20-04-2016 19:00:00 17.7 C 29 % -0.54 C
230 20-04-2016 19:05:00 17.7 C 31 % 0.38 C
231 20-04-2016 19:10:00 17.8 C 30 % 0.01 C
232 20-04-2016 19:15:00 17.8 C 29 % -0.45 C
233 20-04-2016 19:20:00 17.7 C 30 % -0.07 C
234 20-04-2016 19:25:00 17.4 C 30 % -0.33 C
235 20-04-2016 19:30:00 16.9 C 31 % -0.32 C
236 20-04-2016 19:35:00 16.7 C 30 % -0.94 C
237 20-04-2016 19:40:00 16.4 C 31 % -0.75 C
238 20-04-2016 19:45:00 16.3 C 32 % -0.4 C
239 20-04-2016 19:50:00 16.2 C 39 % 2.25 C
240 20-04-2016 19:55:00 16 C 42 % 3.11 C
241 20-04-2016 20:00:00 15.8 C 45 % 3.9 C
242 20-04-2016 20:05:00 15.4 C 45 % 3.54 C
243 20-04-2016 20:10:00 14.9 C 47 % 3.7 C
244 20-04-2016 20:15:00 14.3 C 49 % 3.74 C
245 20-04-2016 20:20:00 13.7 C 51 % 3.76 C
246 20-04-2016 20:25:00 13.1 C 53 % 3.75 C
247 20-04-2016 20:30:00 12.6 C 54 % 3.55 C
248 20-04-2016 20:35:00 12.2 C 55 % 3.44 C
249 20-04-2016 20:40:00 11.9 C 55 % 3.16 C
250 20-04-2016 20:45:00 11.7 C 55 % 2.97 C
Sensor: Nr:Datum:Temp:Feuchte:Taupunkt:
Aussen-T/F 251 20-04-2016 20:50:00 11.5 C 54 % 2.53 C
252 20-04-2016 20:55:00 11.3 C 55 % 2.6 C
253 20-04-2016 21:00:00 11.1 C 57 % 2.92 C
254 20-04-2016 21:05:00 10.9 C 58 % 2.97 C
255 20-04-2016 21:10:00 10.8 C 56 % 2.39 C
256 20-04-2016 21:15:00 10.6 C 57 % 2.45 C
257 20-04-2016 21:20:00 10.5 C 59 % 2.84 C
258 20-04-2016 21:25:00 10.3 C 59 % 2.65 C
259 20-04-2016 21:30:00 10.2 C 59 % 2.56 C
260 20-04-2016 21:35:00 10.1 C 60 % 2.7 C
261 20-04-2016 21:40:00 10 C 62 % 3.07 C
262 20-04-2016 21:45:00 9.9 C 63 % 3.2 C
263 20-04-2016 21:50:00 9.7 C 64 % 3.23 C
264 20-04-2016 21:55:00 9.5 C 63 % 2.82 C
265 20-04-2016 22:00:00 9.4 C 64 % 2.95 C
266 20-04-2016 22:05:00 9.3 C 64 % 2.85 C
267 20-04-2016 22:10:00 9.3 C 65 % 3.07 C
268 20-04-2016 22:15:00 9.2 C 65 % 2.97 C
269 20-04-2016 22:20:00 9.1 C 64 % 2.66 C
270 20-04-2016 22:25:00 9 C 66 % 3 C
271 20-04-2016 22:30:00 8.9 C 67 % 3.12 C
272 20-04-2016 22:35:00 8.8 C 69 % 3.44 C
273 20-04-2016 22:40:00 8.6 C 70 % 3.45 C
274 20-04-2016 22:45:00 8.4 C 68 % 2.85 C
275 20-04-2016 22:50:00 8.3 C 69 % 2.96 C
Sensor: Nr:Datum:Temp:Feuchte:Taupunkt:
Aussen-T/F 276 20-04-2016 22:55:00 8.2 C 70 % 3.06 C
277 20-04-2016 23:00:00 8.1 C 71 % 3.17 C
278 20-04-2016 23:05:00 7.8 C 69 % 2.48 C
279 20-04-2016 23:10:00 7.7 C 70 % 2.58 C
280 20-04-2016 23:15:00 7.4 C 70 % 2.3 C
281 20-04-2016 23:20:00 7.2 C 71 % 2.3 C
282 20-04-2016 23:25:00 7.1 C 71 % 2.21 C
283 20-04-2016 23:30:00 6.9 C 71 % 2.02 C
284 20-04-2016 23:35:00 6.8 C 72 % 2.12 C
285 20-04-2016 23:40:00 6.7 C 72 % 2.02 C
286 20-04-2016 23:45:00 6.8 C 73 % 2.31 C
287 20-04-2016 23:50:00 6.8 C 74 % 2.5 C
288 20-04-2016 23:55:00 6.8 C 75 % 2.69 C
289 21-04-2016 00:00:00 6.7 C 75 % 2.59 C
290 21-04-2016 00:05:00 6.6 C 74 % 2.31 C
291 21-04-2016 00:10:00 6.6 C 76 % 2.68 C
292 21-04-2016 00:15:00 6.4 C 75 % 2.3 C
293 21-04-2016 00:20:00 6.4 C 76 % 2.49 C
294 21-04-2016 00:25:00 6.4 C 77 % 2.67 C
295 21-04-2016 00:30:00 6.3 C 77 % 2.57 C
296 21-04-2016 00:35:00 6.2 C 75 % 2.11 C
297 21-04-2016 00:40:00 6.2 C 76 % 2.29 C
298 21-04-2016 00:45:00 6.1 C 76 % 2.2 C
299 21-04-2016 00:50:00 5.9 C 76 % 2 C
300 21-04-2016 00:55:00 5.8 C 77 % 2.09 C
Sensor: Nr:Datum:Temp:Feuchte:Taupunkt:
Aussen-T/F 301 21-04-2016 01:00:00 5.8 C 78 % 2.27 C
302 21-04-2016 01:05:00 5.8 C 78 % 2.27 C
303 21-04-2016 01:10:00 5.8 C 78 % 2.27 C
304 21-04-2016 01:15:00 5.8 C 77 % 2.09 C
305 21-04-2016 01:20:00 5.6 C 78 % 2.07 C
306 21-04-2016 01:25:00 5.4 C 78 % 1.88 C
307 21-04-2016 01:30:00 5.3 C 79 % 1.96 C
308 21-04-2016 01:35:00 5.2 C 79 % 1.86 C
309 21-04-2016 01:40:00 5.2 C 79 % 1.86 C
310 21-04-2016 01:45:00 5.1 C 80 % 1.94 C
311 21-04-2016 01:50:00 5.1 C 81 % 2.12 C
312 21-04-2016 01:55:00 5 C 81 % 2.02 C
313 21-04-2016 02:00:00 4.9 C 81 % 1.92 C
314 21-04-2016 02:05:00 4.9 C 82 % 2.09 C
315 21-04-2016 02:10:00 4.8 C 81 % 1.82 C
316 21-04-2016 02:15:00 4.8 C 82 % 1.99 C
317 21-04-2016 02:20:00 4.9 C 83 % 2.26 C
318 21-04-2016 02:25:00 4.8 C 82 % 1.99 C
319 21-04-2016 02:30:00 4.8 C 83 % 2.16 C
320 21-04-2016 02:35:00 4.8 C 82 % 1.99 C
321 21-04-2016 02:40:00 4.8 C 82 % 1.99 C
322 21-04-2016 02:45:00 4.7 C 82 % 1.9 C
323 21-04-2016 02:50:00 4.6 C 82 % 1.8 C
324 21-04-2016 02:55:00 4.4 C 83 % 1.77 C
325 21-04-2016 03:00:00 4.4 C 83 % 1.77 C
Sensor: Nr:Datum:Temp:Feuchte:Taupunkt:
Aussen-T/F 326 21-04-2016 03:05:00 4.3 C 83 % 1.67 C
327 21-04-2016 03:10:00 4.2 C 83 % 1.58 C
328 21-04-2016 03:15:00 4.2 C 84 % 1.74 C
329 21-04-2016 03:20:00 4.1 C 84 % 1.65 C
330 21-04-2016 03:25:00 4.1 C 84 % 1.65 C
331 21-04-2016 03:30:00 4.1 C 84 % 1.65 C
332 21-04-2016 03:35:00 4 C 84 % 1.55 C
333 21-04-2016 03:40:00 3.9 C 84 % 1.45 C
334 21-04-2016 03:45:00 3.8 C 84 % 1.35 C
335 21-04-2016 03:50:00 3.7 C 85 % 1.42 C
336 21-04-2016 03:55:00 3.7 C 86 % 1.58 C
337 21-04-2016 04:00:00 3.7 C 86 % 1.58 C
338 21-04-2016 04:05:00 3.6 C 86 % 1.48 C
339 21-04-2016 04:10:00 3.6 C 86 % 1.48 C
340 21-04-2016 04:15:00 3.5 C 87 % 1.55 C
341 21-04-2016 04:20:00 3.5 C 87 % 1.55 C
342 21-04-2016 04:25:00 3.4 C 87 % 1.45 C
343 21-04-2016 04:30:00 3.4 C 87 % 1.45 C
344 21-04-2016 04:35:00 3.3 C 87 % 1.35 C
345 21-04-2016 04:40:00 3.3 C 87 % 1.35 C
346 21-04-2016 04:45:00 3.2 C 87 % 1.25 C
347 21-04-2016 04:50:00 3.1 C 87 % 1.15 C
348 21-04-2016 04:55:00 3 C 88 % 1.21 C
349 21-04-2016 05:00:00 2.9 C 88 % 1.11 C
350 21-04-2016 05:05:00 2.9 C 88 % 1.11 C
Sensor: Nr:Datum:Temp:Feuchte:Taupunkt:
Aussen-T/F 351 21-04-2016 05:10:00 2.9 C 88 % 1.11 C
352 21-04-2016 05:15:00 2.8 C 89 % 1.17 C
353 21-04-2016 05:20:00 2.8 C 89 % 1.17 C
354 21-04-2016 05:25:00 2.8 C 89 % 1.17 C
355 21-04-2016 05:30:00 2.7 C 89 % 1.07 C
356 21-04-2016 05:35:00 2.6 C 89 % 0.97 C
357 21-04-2016 05:40:00 2.6 C 89 % 0.97 C
358 21-04-2016 05:45:00 2.4 C 90 % 0.93 C
359 21-04-2016 05:50:00 2.4 C 90 % 0.93 C
360 21-04-2016 05:55:00 2.3 C 90 % 0.83 C
361 21-04-2016 06:00:00 2.3 C 90 % 0.83 C
362 21-04-2016 06:05:00 2.3 C 90 % 0.83 C
363 21-04-2016 06:10:00 2.3 C 90 % 0.83 C
364 21-04-2016 06:15:00 2.2 C 90 % 0.73 C
365 21-04-2016 06:20:00 2.2 C 90 % 0.73 C
366 21-04-2016 06:25:00 2.2 C 91 % 0.89 C
367 21-04-2016 06:30:00 2.2 C 91 % 0.89 C
368 21-04-2016 06:35:00 2.2 C 91 % 0.89 C
369 21-04-2016 06:40:00 2.2 C 91 % 0.89 C
370 21-04-2016 06:45:00 2.2 C 91 % 0.89 C
371 21-04-2016 06:50:00 2.2 C 91 % 0.89 C
372 21-04-2016 06:55:00 2.3 C 91 % 0.99 C
373 21-04-2016 07:00:00 2.3 C 91 % 0.99 C
374 21-04-2016 07:05:00 2.3 C 91 % 0.99 C
375 21-04-2016 07:10:00 2.3 C 92 % 1.14 C
Sensor: Nr:Datum:Temp:Feuchte:Taupunkt:
Aussen-T/F 376 21-04-2016 07:15:00 2.4 C 92 % 1.24 C
377 21-04-2016 07:20:00 2.4 C 92 % 1.24 C
378 21-04-2016 07:25:00 2.4 C 92 % 1.24 C
379 21-04-2016 07:30:00 2.4 C 92 % 1.24 C
380 21-04-2016 07:35:00 2.4 C 92 % 1.24 C
381 21-04-2016 07:40:00 2.4 C 92 % 1.24 C
382 21-04-2016 07:45:00 2.4 C 92 % 1.24 C
383 21-04-2016 07:50:00 2.5 C 92 % 1.34 C
384 21-04-2016 07:55:00 2.6 C 92 % 1.43 C
385 21-04-2016 08:00:00 2.6 C 92 % 1.43 C
386 21-04-2016 08:05:00 2.6 C 92 % 1.43 C
387 21-04-2016 08:10:00 2.7 C 93 % 1.68 C
388 21-04-2016 08:15:00 2.8 C 92 % 1.63 C
389 21-04-2016 08:20:00 2.8 C 93 % 1.78 C
390 21-04-2016 08:25:00 2.9 C 93 % 1.88 C
391 21-04-2016 08:30:00 3 C 93 % 1.98 C
392 21-04-2016 08:35:00 3.1 C 93 % 2.08 C
393 21-04-2016 08:40:00 3.2 C 93 % 2.18 C
394 21-04-2016 08:45:00 3.3 C 93 % 2.28 C
395 21-04-2016 08:50:00 3.4 C 93 % 2.38 C
396 21-04-2016 08:55:00 3.6 C 93 % 2.58 C
397 21-04-2016 09:00:00 3.7 C 93 % 2.68 C
398 21-04-2016 09:05:00 3.9 C 93 % 2.87 C
399 21-04-2016 09:10:00 4.1 C 92 % 2.92 C
400 21-04-2016 09:15:00 4.3 C 92 % 3.12 C
Sensor: Nr:Datum:Temp:Feuchte:Taupunkt:
Aussen-T/F 401 21-04-2016 09:20:00 4.4 C 92 % 3.22 C
402 21-04-2016 09:25:00 4.6 C 92 % 3.42 C
403 21-04-2016 09:30:00 4.8 C 92 % 3.61 C
404 21-04-2016 09:35:00 5.1 C 92 % 3.91 C
405 21-04-2016 09:40:00 5.5 C 90 % 3.99 C
406 21-04-2016 09:45:00 5.8 C 89 % 4.13 C
407 21-04-2016 09:50:00 6.2 C 89 % 4.53 C
408 21-04-2016 09:55:00 6.5 C 87 % 4.5 C
409 21-04-2016 10:00:00 6.8 C 85 % 4.46 C
410 21-04-2016 10:05:00 7.1 C 85 % 4.75 C
411 21-04-2016 10:10:00 7.4 C 84 % 4.88 C
412 21-04-2016 10:15:00 7.7 C 83 % 5 C
413 21-04-2016 10:20:00 8.2 C 83 % 5.49 C
414 21-04-2016 10:25:00 8.6 C 81 % 5.53 C
415 21-04-2016 10:30:00 9.1 C 77 % 5.29 C
416 21-04-2016 10:35:00 9.5 C 77 % 5.68 C
417 21-04-2016 10:40:00 9.8 C 76 % 5.78 C
418 21-04-2016 10:45:00 10.2 C 73 % 5.58 C
419 21-04-2016 10:50:00 10.5 C 73 % 5.87 C
420 21-04-2016 10:55:00 10.8 C 70 % 5.56 C
421 21-04-2016 11:00:00 11.1 C 69 % 5.64 C
422 21-04-2016 11:05:00 11.5 C 65 % 5.16 C
423 21-04-2016 11:10:00 11.9 C 65 % 5.54 C
424 21-04-2016 11:15:00 12.4 C 62 % 5.33 C
425 21-04-2016 11:20:00 12.8 C 59 % 5 C
Sensor: Nr:Datum:Temp:Feuchte:Taupunkt:
Aussen-T/F 426 21-04-2016 11:25:00 13.2 C 58 % 5.13 C
427 21-04-2016 11:30:00 13.5 C 59 % 5.65 C
428 21-04-2016 11:35:00 13.7 C 57 % 5.35 C
429 21-04-2016 11:40:00 13.9 C 56 % 5.28 C
430 21-04-2016 11:45:00 14.2 C 55 % 5.3 C
431 21-04-2016 11:50:00 14.5 C 54 % 5.31 C
432 21-04-2016 11:55:00 14.8 C 51 % 4.77 C
433 21-04-2016 12:00:00 15.1 C 49 % 4.48 C
434 21-04-2016 12:05:00 15.2 C 49 % 4.57 C
435 21-04-2016 12:10:00 15.4 C 48 % 4.46 C
436 21-04-2016 12:15:00 15.6 C 48 % 4.64 C
437 21-04-2016 12:20:00 15.7 C 45 % 3.81 C
438 21-04-2016 12:25:00 15.8 C 46 % 4.22 C
439 21-04-2016 12:30:00 15.9 C 46 % 4.31 C
440 21-04-2016 12:35:00 16.1 C 45 % 4.18 C
441 21-04-2016 12:40:00 16.2 C 46 % 4.58 C
442 21-04-2016 12:45:00 16.3 C 46 % 4.67 C
443 21-04-2016 12:50:00 16.4 C 45 % 4.45 C
444 21-04-2016 12:55:00 16.6 C 45 % 4.63 C
445 21-04-2016 13:00:00 16.7 C 45 % 4.72 C
446 21-04-2016 13:05:00 16.8 C 44 % 4.49 C
447 21-04-2016 13:10:00 17.1 C 45 % 5.08 C
448 21-04-2016 13:15:00 17.2 C 44 % 4.85 C
449 21-04-2016 13:20:00 17.2 C 44 % 4.85 C
450 21-04-2016 13:25:00 17.3 C 44 % 4.94 C
Sensor: Nr:Datum:Temp:Feuchte:Taupunkt:
Aussen-T/F 451 21-04-2016 13:30:00 17.4 C 44 % 5.03 C
452 21-04-2016 13:35:00 17.5 C 44 % 5.13 C
453 21-04-2016 13:40:00 17.6 C 44 % 5.22 C
454 21-04-2016 13:45:00 17.7 C 43 % 4.98 C
455 21-04-2016 13:50:00 17.8 C 43 % 5.07 C
456 21-04-2016 13:55:00 17.9 C 41 % 4.48 C
457 21-04-2016 14:00:00 18.1 C 41 % 4.66 C
458 21-04-2016 14:05:00 18.2 C 40 % 4.39 C
459 21-04-2016 14:10:00 18.3 C 41 % 4.83 C
460 21-04-2016 14:15:00 18.5 C 41 % 5.01 C
461 21-04-2016 14:20:00 18.6 C 40 % 4.75 C
462 21-04-2016 14:25:00 18.7 C 39 % 4.48 C
463 21-04-2016 14:30:00 18.7 C 40 % 4.84 C
464 21-04-2016 14:35:00 18.7 C 40 % 4.84 C
465 21-04-2016 14:40:00 18.8 C 39 % 4.57 C
466 21-04-2016 14:45:00 19 C 39 % 4.75 C
467 21-04-2016 14:50:00 19.2 C 40 % 5.29 C
468 21-04-2016 14:55:00 19.3 C 40 % 5.38 C
469 21-04-2016 15:00:00 19.5 C 38 % 4.82 C
470 21-04-2016 15:05:00 19.6 C 38 % 4.91 C
471 21-04-2016 15:10:00 19.7 C 35 % 3.82 C
472 21-04-2016 15:15:00 19.7 C 36 % 4.23 C
473 21-04-2016 15:20:00 19.8 C 37 % 4.7 C
474 21-04-2016 15:25:00 19.9 C 35 % 4 C
475 21-04-2016 15:30:00 20.1 C 33 % 3.34 C
Sensor: Nr:Datum:Temp:Feuchte:Taupunkt:
Aussen-T/F 476 21-04-2016 15:35:00 20.2 C 34 % 3.85 C
477 21-04-2016 15:40:00 20.3 C 32 % 3.08 C
478 21-04-2016 15:45:00 20.4 C 32 % 3.17 C
479 21-04-2016 15:50:00 20.7 C 31 % 2.98 C
480 21-04-2016 15:55:00 20.9 C 32 % 3.61 C
481 21-04-2016 16:00:00 20.9 C 32 % 3.61 C
482 21-04-2016 16:05:00 20.9 C 31 % 3.16 C
483 21-04-2016 16:10:00 21.1 C 33 % 4.22 C
484 21-04-2016 16:15:00 21.3 C 31 % 3.5 C
485 21-04-2016 16:20:00 21.6 C 31 % 3.76 C
486 21-04-2016 16:25:00 21.6 C 31 % 3.76 C
487 21-04-2016 16:30:00 21.6 C 32 % 4.21 C
488 21-04-2016 16:35:00 21.7 C 33 % 4.74 C
489 21-04-2016 16:40:00 21.7 C 33 % 4.74 C
490 21-04-2016 16:45:00 21.8 C 32 % 4.39 C
491 21-04-2016 16:50:00 22 C 32 % 4.56 C
492 21-04-2016 16:55:00 22.2 C 30 % 3.82 C
493 21-04-2016 17:00:00 22 C 31 % 4.11 C
494 21-04-2016 17:05:00 22.1 C 31 % 4.2 C
495 21-04-2016 17:10:00 22.3 C 30 % 3.9 C
496 21-04-2016 17:15:00 22.6 C 30 % 4.16 C
497 21-04-2016 17:20:00 22.5 C 29 % 3.6 C
498 21-04-2016 17:25:00 22.4 C 32 % 4.91 C
499 21-04-2016 17:30:00 22.7 C 30 % 4.25 C
500 21-04-2016 17:35:00 22.7 C 30 % 4.25 C
Sensor: Nr:Datum:Temp:Feuchte:Taupunkt:
Aussen-T/F 501 21-04-2016 17:40:00 22.7 C 31 % 4.72 C
502 21-04-2016 17:45:00 22.7 C 29 % 3.77 C
503 21-04-2016 17:50:00 22.7 C 31 % 4.72 C
504 21-04-2016 17:55:00 22.4 C 30 % 3.99 C
505 21-04-2016 18:00:00 22.4 C 32 % 4.91 C
506 21-04-2016 18:05:00 22.6 C 31 % 4.63 C
507 21-04-2016 18:10:00 22.6 C 31 % 4.63 C
508 21-04-2016 18:15:00 22.8 C 31 % 4.8 C
509 21-04-2016 18:20:00 22.9 C 32 % 5.35 C
510 21-04-2016 18:25:00 23 C 30 % 4.51 C
511 21-04-2016 18:30:00 23.2 C 29 % 4.2 C
512 21-04-2016 18:35:00 23.1 C 30 % 4.59 C
513 21-04-2016 18:40:00 22.9 C 30 % 4.42 C
514 21-04-2016 18:45:00 22.8 C 31 % 4.8 C
515 21-04-2016 18:50:00 22.7 C 31 % 4.72 C
516 21-04-2016 18:55:00 22.8 C 32 % 5.26 C
517 21-04-2016 19:00:00 22.8 C 31 % 4.8 C
518 21-04-2016 19:05:00 22.6 C 31 % 4.63 C
519 21-04-2016 19:10:00 22.3 C 31 % 4.37 C
520 21-04-2016 19:15:00 21.9 C 33 % 4.92 C
521 21-04-2016 19:20:00 21.7 C 34 % 5.17 C
522 21-04-2016 19:25:00 21.4 C 34 % 4.91 C
523 21-04-2016 19:30:00 21 C 34 % 4.55 C
524 21-04-2016 19:35:00 20.6 C 42 % 7.25 C
525 21-04-2016 19:40:00 19.9 C 46 % 7.95 C
Sensor: Nr:Datum:Temp:Feuchte:Taupunkt:
Aussen-T/F 526 21-04-2016 19:45:00 18.9 C 49 % 7.96 C
527 21-04-2016 19:50:00 18.2 C 49 % 7.32 C
528 21-04-2016 19:55:00 17.6 C 50 % 7.06 C
529 21-04-2016 20:00:00 17.2 C 50 % 6.7 C
530 21-04-2016 20:05:00 16.9 C 50 % 6.42 C
531 21-04-2016 20:10:00 16.7 C 51 % 6.52 C
532 21-04-2016 20:15:00 16.4 C 52 % 6.53 C
533 21-04-2016 20:20:00 16.3 C 52 % 6.44 C
534 21-04-2016 20:25:00 16.1 C 52 % 6.25 C
535 21-04-2016 20:30:00 15.9 C 53 % 6.34 C
536 21-04-2016 20:35:00 15.7 C 53 % 6.16 C
537 21-04-2016 20:40:00 15.5 C 53 % 5.97 C
538 21-04-2016 20:45:00 15.3 C 53 % 5.79 C
539 21-04-2016 20:50:00 15.2 C 54 % 5.96 C
540 21-04-2016 20:55:00 15.1 C 54 % 5.87 C
541 21-04-2016 21:00:00 15 C 54 % 5.78 C
542 21-04-2016 21:05:00 14.9 C 55 % 5.95 C
543 21-04-2016 21:10:00 14.7 C 56 % 6.02 C
544 21-04-2016 21:15:00 14.6 C 57 % 6.19 C
545 21-04-2016 21:20:00 14.3 C 57 % 5.91 C
546 21-04-2016 21:25:00 14.2 C 57 % 5.81 C
547 21-04-2016 21:30:00 14.1 C 59 % 6.22 C
548 21-04-2016 21:35:00 13.8 C 59 % 5.94 C
549 21-04-2016 21:40:00 13.6 C 60 % 5.99 C
550 21-04-2016 21:45:00 13.4 C 60 % 5.8 C
Sensor: Nr:Datum:Temp:Feuchte:Taupunkt:
Aussen-T/F 551 21-04-2016 21:50:00 13.3 C 62 % 6.18 C
552 21-04-2016 21:55:00 13.1 C 63 % 6.22 C
553 21-04-2016 22:00:00 12.9 C 63 % 6.04 C
554 21-04-2016 22:05:00 12.8 C 63 % 5.94 C
555 21-04-2016 22:10:00 12.7 C 63 % 5.85 C
556 21-04-2016 22:15:00 12.7 C 64 % 6.07 C
557 21-04-2016 22:20:00 12.6 C 63 % 5.75 C
558 21-04-2016 22:25:00 12.6 C 65 % 6.2 C
559 21-04-2016 22:30:00 12.3 C 64 % 5.69 C
560 21-04-2016 22:35:00 12.3 C 65 % 5.92 C
561 21-04-2016 22:40:00 12.3 C 62 % 5.24 C
562 21-04-2016 22:45:00 12.3 C 64 % 5.69 C
563 21-04-2016 22:50:00 12.2 C 65 % 5.82 C
564 21-04-2016 22:55:00 12 C 68 % 6.29 C
565 21-04-2016 23:00:00 11.8 C 65 % 5.44 C
566 21-04-2016 23:05:00 11.8 C 67 % 5.88 C
567 21-04-2016 23:10:00 11.8 C 69 % 6.31 C
568 21-04-2016 23:15:00 11.6 C 69 % 6.11 C
569 21-04-2016 23:20:00 11.3 C 69 % 5.83 C
570 21-04-2016 23:25:00 11.1 C 71 % 6.05 C
571 21-04-2016 23:30:00 11 C 72 % 6.15 C
572 21-04-2016 23:35:00 10.9 C 72 % 6.06 C
573 21-04-2016 23:40:00 10.8 C 71 % 5.76 C
574 21-04-2016 23:45:00 10.8 C 72 % 5.96 C
575 21-04-2016 23:50:00 10.8 C 72 % 5.96 C
Sensor: Nr:Datum:Temp:Feuchte:Taupunkt:
Aussen-T/F 576 21-04-2016 23:55:00 10.7 C 72 % 5.87 C
577 22-04-2016 00:00:00 10.7 C 73 % 6.07 C
578 22-04-2016 00:05:00 10.7 C 73 % 6.07 C
579 22-04-2016 00:10:00 10.7 C 73 % 6.07 C
580 22-04-2016 00:15:00 10.7 C 74 % 6.26 C
581 22-04-2016 00:20:00 10.7 C 76 % 6.65 C
582 22-04-2016 00:25:00 10.5 C 76 % 6.45 C
583 22-04-2016 00:30:00 10.4 C 77 % 6.55 C
584 22-04-2016 00:35:00 10.4 C 77 % 6.55 C
585 22-04-2016 00:40:00 10.3 C 77 % 6.45 C
586 22-04-2016 00:45:00 10.3 C 76 % 6.26 C
587 22-04-2016 00:50:00 10.3 C 77 % 6.45 C
588 22-04-2016 00:55:00 10.2 C 76 % 6.16 C
589 22-04-2016 01:00:00 10.2 C 76 % 6.16 C
590 22-04-2016 01:05:00 10.1 C 77 % 6.26 C
591 22-04-2016 01:10:00 9.9 C 78 % 6.25 C
592 22-04-2016 01:15:00 9.8 C 77 % 5.97 C
593 22-04-2016 01:20:00 9.7 C 78 % 6.06 C
594 22-04-2016 01:25:00 9.6 C 80 % 6.32 C
595 22-04-2016 01:30:00 9.6 C 80 % 6.32 C
596 22-04-2016 01:35:00 9.6 C 81 % 6.5 C
597 22-04-2016 01:40:00 9.6 C 81 % 6.5 C
598 22-04-2016 01:45:00 9.6 C 81 % 6.5 C
599 22-04-2016 01:50:00 9.6 C 81 % 6.5 C
600 22-04-2016 01:55:00 9.7 C 82 % 6.78 C
Sensor: Nr:Datum:Temp:Feuchte:Taupunkt:
Aussen-T/F 601 22-04-2016 02:00:00 9.8 C 82 % 6.88 C
602 22-04-2016 02:05:00 9.8 C 82 % 6.88 C
603 22-04-2016 02:10:00 10 C 80 % 6.71 C
604 22-04-2016 02:15:00 10.3 C 78 % 6.64 C
605 22-04-2016 02:20:00 10.6 C 78 % 6.93 C
606 22-04-2016 02:25:00 10.8 C 76 % 6.75 C
607 22-04-2016 02:30:00 10.9 C 75 % 6.65 C
608 22-04-2016 02:35:00 11.1 C 74 % 6.65 C
609 22-04-2016 02:40:00 11.2 C 74 % 6.74 C
610 22-04-2016 02:45:00 11.2 C 74 % 6.74 C
611 22-04-2016 02:50:00 11.2 C 75 % 6.94 C
612 22-04-2016 02:55:00 11.1 C 75 % 6.84 C
613 22-04-2016 03:00:00 11 C 75 % 6.75 C
614 22-04-2016 03:05:00 10.9 C 77 % 7.03 C
615 22-04-2016 03:10:00 10.8 C 77 % 6.94 C
616 22-04-2016 03:15:00 10.8 C 77 % 6.94 C
617 22-04-2016 03:20:00 10.7 C 78 % 7.03 C
618 22-04-2016 03:25:00 10.7 C 78 % 7.03 C
619 22-04-2016 03:30:00 10.6 C 78 % 6.93 C
620 22-04-2016 03:35:00 10.6 C 78 % 6.93 C
621 22-04-2016 03:40:00 10.5 C 78 % 6.83 C
622 22-04-2016 03:45:00 10.5 C 79 % 7.02 C
623 22-04-2016 03:50:00 10.4 C 79 % 6.92 C
624 22-04-2016 03:55:00 10.4 C 78 % 6.74 C
625 22-04-2016 04:00:00 10.4 C 79 % 6.92 C
Sensor: Nr:Datum:Temp:Feuchte:Taupunkt:
Aussen-T/F 626 22-04-2016 04:05:00 10.3 C 79 % 6.82 C
627 22-04-2016 04:10:00 10.3 C 79 % 6.82 C
628 22-04-2016 04:15:00 10.3 C 79 % 6.82 C
629 22-04-2016 04:20:00 10.3 C 77 % 6.45 C
630 22-04-2016 04:25:00 10.4 C 75 % 6.17 C
631 22-04-2016 04:30:00 10.4 C 76 % 6.36 C
632 22-04-2016 04:35:00 10.4 C 76 % 6.36 C
633 22-04-2016 04:40:00 10.4 C 76 % 6.36 C
634 22-04-2016 04:45:00 10.3 C 76 % 6.26 C
635 22-04-2016 04:50:00 10.2 C 77 % 6.35 C
636 22-04-2016 04:55:00 10.1 C 77 % 6.26 C
637 22-04-2016 05:00:00 10.1 C 78 % 6.44 C
638 22-04-2016 05:05:00 10 C 78 % 6.35 C
639 22-04-2016 05:10:00 9.9 C 79 % 6.43 C
640 22-04-2016 05:15:00 9.9 C 79 % 6.43 C
641 22-04-2016 05:20:00 9.8 C 79 % 6.34 C
642 22-04-2016 05:25:00 9.8 C 79 % 6.34 C
643 22-04-2016 05:30:00 9.8 C 79 % 6.34 C
644 22-04-2016 05:35:00 9.8 C 79 % 6.34 C
645 22-04-2016 05:40:00 9.8 C 78 % 6.15 C
646 22-04-2016 05:45:00 9.8 C 78 % 6.15 C
647 22-04-2016 05:50:00 9.8 C 77 % 5.97 C
648 22-04-2016 05:55:00 9.8 C 76 % 5.78 C
649 22-04-2016 06:00:00 9.9 C 76 % 5.87 C
650 22-04-2016 06:05:00 9.9 C 77 % 6.06 C
Sensor: Nr:Datum:Temp:Feuchte:Taupunkt:
Aussen-T/F 651 22-04-2016 06:10:00 9.8 C 77 % 5.97 C
652 22-04-2016 06:15:00 9.8 C 78 % 6.15 C
653 22-04-2016 06:20:00 9.7 C 78 % 6.06 C
654 22-04-2016 06:25:00 9.8 C 75 % 5.59 C
655 22-04-2016 06:30:00 10 C 74 % 5.59 C
656 22-04-2016 06:35:00 10.1 C 73 % 5.49 C
657 22-04-2016 06:40:00 10.2 C 74 % 5.78 C
658 22-04-2016 06:45:00 10.2 C 73 % 5.58 C
659 22-04-2016 06:50:00 10.1 C 75 % 5.88 C
660 22-04-2016 06:55:00 10 C 75 % 5.78 C
661 22-04-2016 07:00:00 9.9 C 76 % 5.87 C
662 22-04-2016 07:05:00 9.8 C 76 % 5.78 C
663 22-04-2016 07:10:00 9.7 C 77 % 5.87 C
664 22-04-2016 07:15:00 9.6 C 77 % 5.77 C
665 22-04-2016 07:20:00 9.4 C 78 % 5.76 C
666 22-04-2016 07:25:00 9.4 C 79 % 5.95 C
667 22-04-2016 07:30:00 9.4 C 79 % 5.95 C
668 22-04-2016 07:35:00 9.4 C 79 % 5.95 C
669 22-04-2016 07:40:00 9.4 C 79 % 5.95 C
670 22-04-2016 07:45:00 9.6 C 78 % 5.96 C
671 22-04-2016 07:50:00 9.6 C 78 % 5.96 C
672 22-04-2016 07:55:00 9.7 C 78 % 6.06 C
673 22-04-2016 08:00:00 9.8 C 77 % 5.97 C
674 22-04-2016 08:05:00 9.8 C 75 % 5.59 C
675 22-04-2016 08:10:00 9.9 C 75 % 5.68 C
Sensor: Nr:Datum:Temp:Feuchte:Taupunkt:
Aussen-T/F 676 22-04-2016 08:15:00 10.1 C 75 % 5.88 C
677 22-04-2016 08:20:00 10.1 C 75 % 5.88 C
678 22-04-2016 08:25:00 10.2 C 74 % 5.78 C
679 22-04-2016 08:30:00 10.3 C 75 % 6.07 C
680 22-04-2016 08:35:00 10.4 C 73 % 5.78 C
681 22-04-2016 08:40:00 10.5 C 74 % 6.07 C
682 22-04-2016 08:45:00 10.6 C 73 % 5.97 C
683 22-04-2016 08:50:00 10.6 C 72 % 5.77 C
684 22-04-2016 08:55:00 10.7 C 73 % 6.07 C
685 22-04-2016 09:00:00 10.7 C 73 % 6.07 C
686 22-04-2016 09:05:00 10.8 C 74 % 6.36 C
687 22-04-2016 09:10:00 10.9 C 73 % 6.26 C
688 22-04-2016 09:15:00 11 C 73 % 6.35 C
689 22-04-2016 09:20:00 11.1 C 73 % 6.45 C
690 22-04-2016 09:25:00 11.2 C 73 % 6.55 C
691 22-04-2016 09:30:00 11.3 C 73 % 6.64 C
692 22-04-2016 09:35:00 11.3 C 73 % 6.64 C
693 22-04-2016 09:40:00 11.4 C 72 % 6.54 C
694 22-04-2016 09:45:00 11.5 C 73 % 6.84 C
695 22-04-2016 09:50:00 11.6 C 71 % 6.53 C
696 22-04-2016 09:55:00 11.6 C 72 % 6.73 C
697 22-04-2016 10:00:00 11.7 C 72 % 6.83 C
698 22-04-2016 10:05:00 11.9 C 71 % 6.82 C
699 22-04-2016 10:10:00 12.1 C 70 % 6.8 C
700 22-04-2016 10:15:00 12.2 C 69 % 6.69 C
Sensor: Nr:Datum:Temp:Feuchte:Taupunkt:
Aussen-T/F 701 22-04-2016 10:20:00 12.4 C 67 % 6.45 C
702 22-04-2016 10:25:00 12.4 C 66 % 6.23 C
703 22-04-2016 10:30:00 12.5 C 63 % 5.66 C
704 22-04-2016 10:35:00 12.6 C 63 % 5.75 C
705 22-04-2016 10:40:00 12.8 C 64 % 6.17 C
706 22-04-2016 10:45:00 12.9 C 64 % 6.26 C
707 22-04-2016 10:50:00 13.1 C 63 % 6.22 C
708 22-04-2016 10:55:00 13.3 C 58 % 5.22 C
709 22-04-2016 11:00:00 13.3 C 58 % 5.22 C
710 22-04-2016 11:05:00 13.4 C 59 % 5.56 C
711 22-04-2016 11:10:00 13.5 C 57 % 5.16 C
712 22-04-2016 11:15:00 13.5 C 57 % 5.16 C
713 22-04-2016 11:20:00 13.6 C 56 % 5 C
714 22-04-2016 11:25:00 13.6 C 56 % 5 C
715 22-04-2016 11:30:00 13.6 C 57 % 5.25 C
716 22-04-2016 11:35:00 13.7 C 57 % 5.35 C
717 22-04-2016 11:40:00 13.7 C 56 % 5.09 C
718 22-04-2016 11:45:00 13.7 C 56 % 5.09 C
719 22-04-2016 11:50:00 13.8 C 56 % 5.19 C
720 22-04-2016 11:55:00 13.9 C 56 % 5.28 C
721 22-04-2016 12:00:00 14 C 54 % 4.85 C
722 22-04-2016 12:05:00 14 C 55 % 5.11 C
723 22-04-2016 12:10:00 14.1 C 55 % 5.21 C
724 22-04-2016 12:15:00 14.1 C 55 % 5.21 C
725 22-04-2016 12:20:00 14.2 C 54 % 5.04 C
Sensor: Nr:Datum:Temp:Feuchte:Taupunkt:
Aussen-T/F 726 22-04-2016 12:25:00 14.3 C 54 % 5.13 C
727 22-04-2016 12:30:00 14.4 C 53 % 4.95 C
728 22-04-2016 12:35:00 14.4 C 52 % 4.68 C
729 22-04-2016 12:40:00 14.6 C 52 % 4.87 C
730 22-04-2016 12:45:00 14.6 C 50 % 4.31 C
731 22-04-2016 12:50:00 14.6 C 51 % 4.59 C
732 22-04-2016 12:55:00 14.7 C 52 % 4.96 C
733 22-04-2016 13:00:00 14.9 C 49 % 4.29 C
734 22-04-2016 13:05:00 14.9 C 49 % 4.29 C
735 22-04-2016 13:10:00 15 C 50 % 4.67 C
736 22-04-2016 13:15:00 15.1 C 49 % 4.48 C
737 22-04-2016 13:20:00 15.1 C 49 % 4.48 C
738 22-04-2016 13:25:00 15 C 49 % 4.39 C
739 22-04-2016 13:30:00 15.1 C 48 % 4.18 C
740 22-04-2016 13:35:00 15.1 C 49 % 4.48 C
741 22-04-2016 13:40:00 15.3 C 50 % 4.95 C
742 22-04-2016 13:45:00 15.4 C 47 % 4.16 C
743 22-04-2016 13:50:00 15.4 C 47 % 4.16 C
744 22-04-2016 13:55:00 15.6 C 46 % 4.03 C
745 22-04-2016 14:00:00 15.5 C 47 % 4.25 C
746 22-04-2016 14:05:00 15.6 C 46 % 4.03 C
747 22-04-2016 14:10:00 15.7 C 46 % 4.13 C
748 22-04-2016 14:15:00 15.7 C 46 % 4.13 C
749 22-04-2016 14:20:00 15.7 C 46 % 4.13 C
750 22-04-2016 14:25:00 15.8 C 46 % 4.22 C
Sensor: Nr:Datum:Temp:Feuchte:Taupunkt:
Aussen-T/F 751 22-04-2016 14:30:00 15.8 C 44 % 3.59 C
752 22-04-2016 14:35:00 15.8 C 46 % 4.22 C
753 22-04-2016 14:40:00 16 C 44 % 3.77 C
754 22-04-2016 14:45:00 16.1 C 43 % 3.53 C
755 22-04-2016 14:50:00 16.1 C 42 % 3.2 C
756 22-04-2016 14:55:00 16.1 C 45 % 4.18 C
757 22-04-2016 15:00:00 16.3 C 45 % 4.36 C
758 22-04-2016 15:05:00 16.6 C 43 % 3.98 C
759 22-04-2016 15:10:00 16.7 C 44 % 4.4 C
760 22-04-2016 15:15:00 16.9 C 43 % 4.25 C
761 22-04-2016 15:20:00 16.9 C 42 % 3.92 C
762 22-04-2016 15:25:00 17.1 C 43 % 4.43 C
763 22-04-2016 15:30:00 17.2 C 42 % 4.19 C
764 22-04-2016 15:35:00 17.3 C 42 % 4.28 C
765 22-04-2016 15:40:00 17.4 C 41 % 4.03 C
766 22-04-2016 15:45:00 17.6 C 43 % 4.89 C
767 22-04-2016 15:50:00 17.7 C 40 % 3.95 C
768 22-04-2016 15:55:00 17.7 C 42 % 4.64 C
769 22-04-2016 16:00:00 17.7 C 40 % 3.95 C
770 22-04-2016 16:05:00 17.8 C 40 % 4.03 C
771 22-04-2016 16:10:00 17.8 C 41 % 4.39 C
772 22-04-2016 16:15:00 17.9 C 41 % 4.48 C
773 22-04-2016 16:20:00 18.2 C 44 % 5.76 C
774 22-04-2016 16:25:00 18.4 C 43 % 5.61 C
775 22-04-2016 16:30:00 18.6 C 45 % 6.45 C
Sensor: Nr:Datum:Temp:Feuchte:Taupunkt:
Aussen-T/F 776 22-04-2016 16:35:00 18.9 C 44 % 6.39 C
777 22-04-2016 16:40:00 19.3 C 43 % 6.42 C
778 22-04-2016 16:45:00 19.3 C 44 % 6.75 C
779 22-04-2016 16:50:00 19.4 C 46 % 7.49 C
780 22-04-2016 16:55:00 19.7 C 42 % 6.44 C
781 22-04-2016 17:00:00 19.6 C 43 % 6.69 C
782 22-04-2016 17:05:00 19.4 C 43 % 6.51 C
783 22-04-2016 17:10:00 19.3 C 42 % 6.08 C
784 22-04-2016 17:15:00 19.3 C 43 % 6.42 C
785 22-04-2016 17:20:00 19.5 C 43 % 6.6 C
786 22-04-2016 17:25:00 19.4 C 41 % 5.82 C
787 22-04-2016 17:30:00 19.5 C 41 % 5.91 C
788 22-04-2016 17:35:00 19.3 C 41 % 5.73 C
789 22-04-2016 17:40:00 19 C 41 % 5.46 C
790 22-04-2016 17:45:00 18.7 C 42 % 5.54 C
791 22-04-2016 17:50:00 18.4 C 41 % 4.92 C
792 22-04-2016 17:55:00 18.2 C 41 % 4.75 C
793 22-04-2016 18:00:00 18.1 C 42 % 5 C
794 22-04-2016 18:05:00 18.2 C 41 % 4.75 C
795 22-04-2016 18:10:00 18.2 C 41 % 4.75 C
796 22-04-2016 18:15:00 18.2 C 40 % 4.39 C
797 22-04-2016 18:20:00 18.2 C 42 % 5.09 C
798 22-04-2016 18:25:00 18.1 C 40 % 4.3 C
799 22-04-2016 18:30:00 17.9 C 41 % 4.48 C
800 22-04-2016 18:35:00 17.6 C 41 % 4.21 C
Sensor: Nr:Datum:Temp:Feuchte:Taupunkt:
Aussen-T/F 801 22-04-2016 18:40:00 17.4 C 45 % 5.36 C
802 22-04-2016 18:45:00 17.3 C 45 % 5.27 C
803 22-04-2016 18:50:00 17.1 C 45 % 5.08 C
804 22-04-2016 18:55:00 16.9 C 46 % 5.22 C
805 22-04-2016 19:00:00 16.8 C 45 % 4.81 C
806 22-04-2016 19:05:00 16.6 C 45 % 4.63 C
807 22-04-2016 19:10:00 16.4 C 45 % 4.45 C
808 22-04-2016 19:15:00 16.3 C 46 % 4.67 C
809 22-04-2016 19:20:00 16.3 C 46 % 4.67 C
810 22-04-2016 19:25:00 16.2 C 47 % 4.89 C
811 22-04-2016 19:30:00 16 C 48 % 5.01 C
812 22-04-2016 19:35:00 15.9 C 49 % 5.21 C
813 22-04-2016 19:40:00 15.8 C 49 % 5.12 C
814 22-04-2016 19:45:00 15.7 C 50 % 5.32 C
815 22-04-2016 19:50:00 15.6 C 50 % 5.23 C
816 22-04-2016 19:55:00 15.4 C 51 % 5.33 C
817 22-04-2016 20:00:00 15.3 C 51 % 5.23 C
818 22-04-2016 20:05:00 15.3 C 52 % 5.51 C
819 22-04-2016 20:10:00 15.2 C 52 % 5.42 C
820 22-04-2016 20:15:00 15.1 C 53 % 5.6 C
821 22-04-2016 20:20:00 14.9 C 53 % 5.42 C
822 22-04-2016 20:25:00 14.9 C 54 % 5.69 C
823 22-04-2016 20:30:00 14.8 C 54 % 5.59 C
824 22-04-2016 20:35:00 14.7 C 55 % 5.76 C
825 22-04-2016 20:40:00 14.7 C 54 % 5.5 C
Sensor: Nr:Datum:Temp:Feuchte:Taupunkt:
Aussen-T/F 826 22-04-2016 20:45:00 14.6 C 54 % 5.41 C
827 22-04-2016 20:50:00 14.6 C 54 % 5.41 C
828 22-04-2016 20:55:00 14.4 C 54 % 5.22 C
829 22-04-2016 21:00:00 14.4 C 54 % 5.22 C
830 22-04-2016 21:05:00 14.3 C 54 % 5.13 C
831 22-04-2016 21:10:00 14.3 C 54 % 5.13 C
832 22-04-2016 21:15:00 14.2 C 54 % 5.04 C
833 22-04-2016 21:20:00 14.1 C 55 % 5.21 C
834 22-04-2016 21:25:00 14.1 C 55 % 5.21 C
835 22-04-2016 21:30:00 13.9 C 55 % 5.02 C
836 22-04-2016 21:35:00 13.9 C 57 % 5.53 C
837 22-04-2016 21:40:00 13.8 C 57 % 5.44 C
838 22-04-2016 21:45:00 13.7 C 60 % 6.09 C
839 22-04-2016 21:50:00 13.6 C 60 % 5.99 C
840 22-04-2016 21:55:00 13.4 C 58 % 5.32 C
841 22-04-2016 22:00:00 13.3 C 62 % 6.18 C
842 22-04-2016 22:05:00 13.2 C 62 % 6.09 C
843 22-04-2016 22:10:00 13.1 C 60 % 5.52 C
844 22-04-2016 22:15:00 13 C 63 % 6.13 C
845 22-04-2016 22:20:00 12.9 C 64 % 6.26 C
846 22-04-2016 22:25:00 12.8 C 64 % 6.17 C
847 22-04-2016 22:30:00 12.7 C 64 % 6.07 C
848 22-04-2016 22:35:00 12.5 C 65 % 6.11 C
849 22-04-2016 22:40:00 12.4 C 65 % 6.01 C
850 22-04-2016 22:45:00 12.3 C 68 % 6.57 C
Sensor: Nr:Datum:Temp:Feuchte:Taupunkt:
Aussen-T/F 851 22-04-2016 22:50:00 12.2 C 67 % 6.26 C
852 22-04-2016 22:55:00 12.2 C 67 % 6.26 C
853 22-04-2016 23:00:00 12.1 C 67 % 6.17 C
854 22-04-2016 23:05:00 12.1 C 66 % 5.95 C
855 22-04-2016 23:10:00 12.1 C 68 % 6.38 C
856 22-04-2016 23:15:00 12.1 C 67 % 6.17 C
857 22-04-2016 23:20:00 12 C 67 % 6.07 C
858 22-04-2016 23:25:00 11.9 C 67 % 5.98 C
859 22-04-2016 23:30:00 11.8 C 68 % 6.09 C
860 22-04-2016 23:35:00 11.7 C 68 % 6 C
861 22-04-2016 23:40:00 11.6 C 68 % 5.9 C
862 22-04-2016 23:45:00 11.6 C 69 % 6.11 C
863 22-04-2016 23:50:00 11.6 C 70 % 6.32 C
864 22-04-2016 23:55:00 11.6 C 69 % 6.11 C
865 23-04-2016 00:00:00 11.5 C 70 % 6.23 C
866 23-04-2016 00:05:00 11.5 C 69 % 6.02 C
867 23-04-2016 00:10:00 11.5 C 68 % 5.81 C
868 23-04-2016 00:15:00 11.6 C 69 % 6.11 C
869 23-04-2016 00:20:00 11.6 C 70 % 6.32 C
870 23-04-2016 00:25:00 11.5 C 69 % 6.02 C
871 23-04-2016 00:30:00 11.4 C 70 % 6.13 C
872 23-04-2016 00:35:00 11.4 C 70 % 6.13 C
873 23-04-2016 00:40:00 11.3 C 69 % 5.83 C
874 23-04-2016 00:45:00 11.3 C 70 % 6.03 C
875 23-04-2016 00:50:00 11.2 C 70 % 5.94 C
Sensor: Nr:Datum:Temp:Feuchte:Taupunkt:
Aussen-T/F 876 23-04-2016 00:55:00 11.2 C 70 % 5.94 C
877 23-04-2016 01:00:00 11.2 C 71 % 6.14 C
878 23-04-2016 01:05:00 11.1 C 71 % 6.05 C
879 23-04-2016 01:10:00 11 C 71 % 5.95 C
880 23-04-2016 01:15:00 10.9 C 71 % 5.86 C
881 23-04-2016 01:20:00 10.9 C 71 % 5.86 C
882 23-04-2016 01:25:00 10.9 C 72 % 6.06 C
883 23-04-2016 01:30:00 10.8 C 73 % 6.16 C
884 23-04-2016 01:35:00 10.8 C 74 % 6.36 C
885 23-04-2016 01:40:00 10.7 C 75 % 6.46 C
886 23-04-2016 01:45:00 10.7 C 76 % 6.65 C
887 23-04-2016 01:50:00 10.6 C 76 % 6.55 C
888 23-04-2016 01:55:00 10.4 C 76 % 6.36 C
889 23-04-2016 02:00:00 10.3 C 77 % 6.45 C
890 23-04-2016 02:05:00 10.2 C 78 % 6.54 C
891 23-04-2016 02:10:00 10.1 C 77 % 6.26 C
892 23-04-2016 02:15:00 10.1 C 78 % 6.44 C
893 23-04-2016 02:20:00 10 C 77 % 6.16 C
894 23-04-2016 02:25:00 9.9 C 78 % 6.25 C
895 23-04-2016 02:30:00 9.9 C 79 % 6.43 C
896 23-04-2016 02:35:00 9.8 C 81 % 6.7 C
897 23-04-2016 02:40:00 9.7 C 81 % 6.6 C
898 23-04-2016 02:45:00 9.7 C 82 % 6.78 C
899 23-04-2016 02:50:00 9.6 C 82 % 6.68 C
900 23-04-2016 02:55:00 9.5 C 83 % 6.76 C
Sensor: Nr:Datum:Temp:Feuchte:Taupunkt:
Aussen-T/F 901 23-04-2016 03:00:00 9.4 C 82 % 6.49 C
902 23-04-2016 03:05:00 9.4 C 82 % 6.49 C
903 23-04-2016 03:10:00 9.4 C 84 % 6.84 C
904 23-04-2016 03:15:00 9.3 C 85 % 6.91 C
905 23-04-2016 03:20:00 9.2 C 86 % 6.98 C
906 23-04-2016 03:25:00 9.1 C 86 % 6.89 C
907 23-04-2016 03:30:00 9 C 85 % 6.62 C
908 23-04-2016 03:35:00 8.9 C 84 % 6.35 C
909 23-04-2016 03:40:00 8.9 C 86 % 6.69 C
910 23-04-2016 03:45:00 8.9 C 87 % 6.86 C
911 23-04-2016 03:50:00 8.8 C 87 % 6.76 C
912 23-04-2016 03:55:00 8.8 C 87 % 6.76 C
913 23-04-2016 04:00:00 8.7 C 87 % 6.66 C
914 23-04-2016 04:05:00 8.7 C 88 % 6.83 C
915 23-04-2016 04:10:00 8.6 C 88 % 6.73 C
916 23-04-2016 04:15:00 8.5 C 89 % 6.79 C
917 23-04-2016 04:20:00 8.4 C 89 % 6.7 C
918 23-04-2016 04:25:00 8.4 C 90 % 6.86 C
919 23-04-2016 04:30:00 8.4 C 90 % 6.86 C
920 23-04-2016 04:35:00 8.3 C 90 % 6.76 C
921 23-04-2016 04:40:00 8.3 C 90 % 6.76 C
922 23-04-2016 04:45:00 8.2 C 91 % 6.82 C
923 23-04-2016 04:50:00 8.2 C 91 % 6.82 C
924 23-04-2016 04:55:00 8.1 C 91 % 6.72 C
925 23-04-2016 05:00:00 8 C 91 % 6.62 C
Sensor: Nr:Datum:Temp:Feuchte:Taupunkt:
Aussen-T/F 926 23-04-2016 05:05:00 7.9 C 91 % 6.52 C
927 23-04-2016 05:10:00 7.9 C 92 % 6.68 C
928 23-04-2016 05:15:00 7.9 C 92 % 6.68 C
929 23-04-2016 05:20:00 7.8 C 92 % 6.58 C
930 23-04-2016 05:25:00 7.8 C 92 % 6.58 C
931 23-04-2016 05:30:00 7.8 C 92 % 6.58 C
932 23-04-2016 05:35:00 7.8 C 92 % 6.58 C
933 23-04-2016 05:40:00 7.8 C 92 % 6.58 C
934 23-04-2016 05:45:00 7.7 C 91 % 6.33 C
935 23-04-2016 05:50:00 7.7 C 91 % 6.33 C
936 23-04-2016 05:55:00 7.8 C 91 % 6.43 C
937 23-04-2016 06:00:00 7.7 C 92 % 6.48 C
938 23-04-2016 06:05:00 7.7 C 92 % 6.48 C
939 23-04-2016 06:10:00 7.7 C 92 % 6.48 C
940 23-04-2016 06:15:00 7.6 C 92 % 6.39 C
941 23-04-2016 06:20:00 7.6 C 92 % 6.39 C
942 23-04-2016 06:25:00 7.6 C 93 % 6.54 C
943 23-04-2016 06:30:00 7.5 C 93 % 6.44 C
944 23-04-2016 06:35:00 7.4 C 93 % 6.34 C
945 23-04-2016 06:40:00 7.4 C 92 % 6.19 C
946 23-04-2016 06:45:00 7.3 C 92 % 6.09 C
947 23-04-2016 06:50:00 7.3 C 92 % 6.09 C
948 23-04-2016 06:55:00 7.3 C 91 % 5.93 C
949 23-04-2016 07:00:00 7.3 C 91 % 5.93 C
950 23-04-2016 07:05:00 7.3 C 91 % 5.93 C
Sensor: Nr:Datum:Temp:Feuchte:Taupunkt:
Aussen-T/F 951 23-04-2016 07:10:00 7.3 C 91 % 5.93 C
952 23-04-2016 07:15:00 7.3 C 91 % 5.93 C
953 23-04-2016 07:20:00 7.2 C 90 % 5.67 C
954 23-04-2016 07:25:00 7.1 C 90 % 5.57 C
955 23-04-2016 07:30:00 7.1 C 91 % 5.73 C
956 23-04-2016 07:35:00 7.1 C 91 % 5.73 C
957 23-04-2016 07:40:00 7.1 C 91 % 5.73 C
958 23-04-2016 07:45:00 7.1 C 91 % 5.73 C
959 23-04-2016 07:50:00 7 C 91 % 5.63 C
960 23-04-2016 07:55:00 6.9 C 91 % 5.54 C
961 23-04-2016 08:00:00 6.9 C 91 % 5.54 C
962 23-04-2016 08:05:00 6.8 C 90 % 5.28 C
963 23-04-2016 08:10:00 6.7 C 91 % 5.34 C
964 23-04-2016 08:15:00 6.7 C 91 % 5.34 C
965 23-04-2016 08:20:00 6.7 C 91 % 5.34 C
966 23-04-2016 08:25:00 6.7 C 91 % 5.34 C
967 23-04-2016 08:30:00 6.6 C 91 % 5.24 C
968 23-04-2016 08:35:00 6.6 C 91 % 5.24 C
969 23-04-2016 08:40:00 6.6 C 91 % 5.24 C
970 23-04-2016 08:45:00 6.5 C 90 % 4.98 C
971 23-04-2016 08:50:00 6.4 C 90 % 4.88 C
972 23-04-2016 08:55:00 6.4 C 90 % 4.88 C
973 23-04-2016 09:00:00 6.4 C 90 % 4.88 C
974 23-04-2016 09:05:00 6.4 C 91 % 5.04 C
975 23-04-2016 09:10:00 6.4 C 91 % 5.04 C
Sensor: Nr:Datum:Temp:Feuchte:Taupunkt:
Aussen-T/F 976 23-04-2016 09:15:00 6.4 C 91 % 5.04 C
977 23-04-2016 09:20:00 6.3 C 91 % 4.94 C
978 23-04-2016 09:25:00 6.3 C 91 % 4.94 C
979 23-04-2016 09:30:00 6.3 C 91 % 4.94 C
980 23-04-2016 09:35:00 6.3 C 91 % 4.94 C
981 23-04-2016 09:40:00 6.3 C 92 % 5.1 C
982 23-04-2016 09:45:00 6.3 C 92 % 5.1 C
983 23-04-2016 09:50:00 6.3 C 92 % 5.1 C
984 23-04-2016 09:55:00 6.3 C 91 % 4.94 C
985 23-04-2016 10:00:00 6.3 C 91 % 4.94 C
986 23-04-2016 10:05:00 6.3 C 92 % 5.1 C
987 23-04-2016 10:10:00 6.3 C 92 % 5.1 C
988 23-04-2016 10:15:00 6.3 C 92 % 5.1 C
989 23-04-2016 10:20:00 6.3 C 92 % 5.1 C
990 23-04-2016 10:25:00 6.3 C 92 % 5.1 C
991 23-04-2016 10:30:00 6.2 C 92 % 5 C
992 23-04-2016 10:35:00 6.3 C 92 % 5.1 C
993 23-04-2016 10:40:00 6.3 C 92 % 5.1 C
994 23-04-2016 10:45:00 6.3 C 92 % 5.1 C
995 23-04-2016 10:50:00 6.3 C 93 % 5.25 C
996 23-04-2016 10:55:00 6.4 C 92 % 5.2 C
997 23-04-2016 11:00:00 6.4 C 92 % 5.2 C
998 23-04-2016 11:05:00 6.4 C 92 % 5.2 C
999 23-04-2016 11:10:00 6.4 C 91 % 5.04 C
1000 23-04-2016 11:15:00 6.4 C 90 % 4.88 C
Sensor: Nr:Datum:Temp:Feuchte:Taupunkt:
Aussen-T/F 1001 23-04-2016 11:20:00 6.4 C 91 % 5.04 C
1002 23-04-2016 11:25:00 6.4 C 91 % 5.04 C
1003 23-04-2016 11:30:00 6.5 C 91 % 5.14 C
1004 23-04-2016 11:35:00 6.4 C 89 % 4.72 C
1005 23-04-2016 11:40:00 6.4 C 89 % 4.72 C
1006 23-04-2016 11:45:00 6.4 C 90 % 4.88 C
1007 23-04-2016 11:50:00 6.4 C 89 % 4.72 C
1008 23-04-2016 11:55:00 6.3 C 89 % 4.62 C
1009 23-04-2016 12:00:00 6.4 C 90 % 4.88 C
1010 23-04-2016 12:05:00 6.4 C 89 % 4.72 C
1011 23-04-2016 12:10:00 6.5 C 88 % 4.66 C
1012 23-04-2016 12:15:00 6.6 C 88 % 4.76 C
1013 23-04-2016 12:20:00 6.6 C 87 % 4.6 C
1014 23-04-2016 12:25:00 6.7 C 88 % 4.86 C
1015 23-04-2016 12:30:00 6.9 C 88 % 5.05 C
1016 23-04-2016 12:35:00 6.9 C 87 % 4.89 C
1017 23-04-2016 12:40:00 6.9 C 86 % 4.72 C
1018 23-04-2016 12:45:00 6.9 C 86 % 4.72 C
1019 23-04-2016 12:50:00 6.8 C 85 % 4.46 C
1020 23-04-2016 12:55:00 6.8 C 87 % 4.79 C
1021 23-04-2016 13:00:00 6.9 C 87 % 4.89 C
1022 23-04-2016 13:05:00 7.2 C 87 % 5.19 C
1023 23-04-2016 13:10:00 7.3 C 84 % 4.78 C
1024 23-04-2016 13:15:00 7.4 C 83 % 4.71 C
1025 23-04-2016 13:20:00 7.2 C 79 % 3.81 C
Sensor: Nr:Datum:Temp:Feuchte:Taupunkt:
Aussen-T/F 1026 23-04-2016 13:25:00 7.1 C 79 % 3.71 C
1027 23-04-2016 13:30:00 7.2 C 76 % 3.26 C
1028 23-04-2016 13:35:00 7.3 C 77 % 3.54 C
1029 23-04-2016 13:40:00 7.4 C 79 % 4 C
1030 23-04-2016 13:45:00 7.5 C 75 % 3.36 C
1031 23-04-2016 13:50:00 7.6 C 77 % 3.83 C
1032 23-04-2016 13:55:00 7.8 C 77 % 4.03 C
1033 23-04-2016 14:00:00 7.9 C 76 % 3.94 C
1034 23-04-2016 14:05:00 7.9 C 77 % 4.12 C
1035 23-04-2016 14:10:00 7.9 C 76 % 3.94 C
1036 23-04-2016 14:15:00 7.8 C 78 % 4.21 C
1037 23-04-2016 14:20:00 7.8 C 78 % 4.21 C
1038 23-04-2016 14:25:00 7.9 C 75 % 3.75 C
1039 23-04-2016 14:30:00 8.1 C 75 % 3.94 C
1040 23-04-2016 14:35:00 8.3 C 71 % 3.36 C
1041 23-04-2016 14:40:00 8.5 C 69 % 3.15 C
1042 23-04-2016 14:45:00 8.7 C 70 % 3.54 C
1043 23-04-2016 14:50:00 8.7 C 68 % 3.13 C
1044 23-04-2016 14:55:00 8.9 C 65 % 2.69 C
1045 23-04-2016 15:00:00 9.3 C 64 % 2.85 C
1046 23-04-2016 15:05:00 9.3 C 59 % 1.71 C
1047 23-04-2016 15:10:00 9.1 C 61 % 1.99 C
1048 23-04-2016 15:15:00 9 C 62 % 2.12 C
1049 23-04-2016 15:20:00 8.9 C 62 % 2.03 C
1050 23-04-2016 15:25:00 8.9 C 60 % 1.57 C
Sensor: Nr:Datum:Temp:Feuchte:Taupunkt:
Aussen-T/F 1051 23-04-2016 15:30:00 9 C 59 % 1.43 C
1052 23-04-2016 15:35:00 9.2 C 59 % 1.62 C
1053 23-04-2016 15:40:00 9.6 C 59 % 1.99 C
1054 23-04-2016 15:45:00 9.6 C 59 % 1.99 C
1055 23-04-2016 15:50:00 9.4 C 59 % 1.81 C
1056 23-04-2016 15:55:00 9.2 C 59 % 1.62 C
1057 23-04-2016 16:00:00 8.9 C 60 % 1.57 C
1058 23-04-2016 16:05:00 8.9 C 60 % 1.57 C
1059 23-04-2016 16:10:00 8.9 C 60 % 1.57 C
1060 23-04-2016 16:15:00 8.9 C 61 % 1.8 C
1061 23-04-2016 16:20:00 9.1 C 59 % 1.52 C
1062 23-04-2016 16:25:00 9 C 60 % 1.66 C
1063 23-04-2016 16:30:00 8.8 C 58 % 1 C
1064 23-04-2016 16:35:00 8.7 C 59 % 1.15 C
1065 23-04-2016 16:40:00 8.6 C 57 % 0.58 C
1066 23-04-2016 16:45:00 8.6 C 60 % 1.29 C
1067 23-04-2016 16:50:00 8.6 C 61 % 1.52 C
1068 23-04-2016 16:55:00 8.7 C 60 % 1.38 C
1069 23-04-2016 17:00:00 8.8 C 63 % 2.16 C
1070 23-04-2016 17:05:00 8.8 C 61 % 1.71 C
1071 23-04-2016 17:10:00 9.1 C 62 % 2.22 C
1072 23-04-2016 17:15:00 9.4 C 60 % 2.04 C
1073 23-04-2016 17:20:00 9.8 C 59 % 2.18 C
1074 23-04-2016 17:25:00 10.1 C 57 % 1.98 C
1075 23-04-2016 17:30:00 10.5 C 57 % 2.35 C
Sensor: Nr:Datum:Temp:Feuchte:Taupunkt:
Aussen-T/F 1076 23-04-2016 17:35:00 10.8 C 57 % 2.63 C
1077 23-04-2016 17:40:00 10.8 C 53 % 1.62 C
1078 23-04-2016 17:45:00 10.7 C 54 % 1.78 C
1079 23-04-2016 17:50:00 10.2 C 51 % 0.53 C
1080 23-04-2016 17:55:00 9.9 C 52 % 0.52 C
1081 23-04-2016 18:00:00 9.8 C 52 % 0.43 C
1082 23-04-2016 18:05:00 10 C 50 % 0.07 C
1083 23-04-2016 18:10:00 10.1 C 51 % 0.44 C
1084 23-04-2016 18:15:00 10 C 50 % 0.07 C
1085 23-04-2016 18:20:00 9.8 C 51 % 0.16 C
1086 23-04-2016 18:25:00 9.9 C 52 % 0.52 C
1087 23-04-2016 18:30:00 10.1 C 54 % 1.23 C
1088 23-04-2016 18:35:00 10.3 C 52 % 0.89 C
1089 23-04-2016 18:40:00 10.6 C 50 % 0.62 C
1090 23-04-2016 18:45:00 10.7 C 52 % 1.26 C
1091 23-04-2016 18:50:00 10.3 C 52 % 0.89 C
1092 23-04-2016 18:55:00 10 C 51 % 0.34 C
1093 23-04-2016 19:00:00 9.6 C 51 % -0.03 C
1094 23-04-2016 19:05:00 9.4 C 53 % 0.32 C
1095 23-04-2016 19:10:00 9.3 C 54 % 0.48 C
1096 23-04-2016 19:15:00 9.3 C 55 % 0.74 C
1097 23-04-2016 19:20:00 8.7 C 59 % 1.15 C
1098 23-04-2016 19:25:00 8.2 C 63 % 1.59 C
1099 23-04-2016 19:30:00 7.9 C 65 % 1.74 C
1100 23-04-2016 19:35:00 7.7 C 65 % 1.55 C
Sensor: Nr:Datum:Temp:Feuchte:Taupunkt:
Aussen-T/F 1101 23-04-2016 19:40:00 7.5 C 67 % 1.78 C
1102 23-04-2016 19:45:00 7.4 C 67 % 1.69 C
1103 23-04-2016 19:50:00 7.5 C 68 % 1.99 C
1104 23-04-2016 19:55:00 7.4 C 67 % 1.69 C
1105 23-04-2016 20:00:00 7.4 C 68 % 1.89 C
1106 23-04-2016 20:05:00 7.3 C 69 % 2 C
1107 23-04-2016 20:10:00 7.3 C 69 % 2 C
1108 23-04-2016 20:15:00 7.2 C 70 % 2.11 C
1109 23-04-2016 20:20:00 7.2 C 68 % 1.7 C
1110 23-04-2016 20:25:00 7.2 C 68 % 1.7 C
1111 23-04-2016 20:30:00 7.2 C 69 % 1.9 C
1112 23-04-2016 20:35:00 7.2 C 69 % 1.9 C
1113 23-04-2016 20:40:00 7.1 C 70 % 2.01 C
1114 23-04-2016 20:45:00 7.1 C 71 % 2.21 C
1115 23-04-2016 20:50:00 6.8 C 73 % 2.31 C
1116 23-04-2016 20:55:00 6.5 C 75 % 2.4 C
1117 23-04-2016 21:00:00 6.3 C 76 % 2.39 C
1118 23-04-2016 21:05:00 6.2 C 77 % 2.48 C
1119 23-04-2016 21:10:00 6.1 C 78 % 2.56 C
1120 23-04-2016 21:15:00 6 C 78 % 2.46 C
1121 23-04-2016 21:20:00 5.9 C 78 % 2.37 C
1122 23-04-2016 21:25:00 5.8 C 79 % 2.45 C
1123 23-04-2016 21:30:00 5.7 C 79 % 2.35 C
1124 23-04-2016 21:35:00 5.7 C 79 % 2.35 C
1125 23-04-2016 21:40:00 5.6 C 80 % 2.43 C
Sensor: Nr:Datum:Temp:Feuchte:Taupunkt:
Aussen-T/F 1126 23-04-2016 21:45:00 5.6 C 81 % 2.6 C
1127 23-04-2016 21:50:00 5.5 C 81 % 2.51 C
1128 23-04-2016 21:55:00 5.4 C 82 % 2.58 C
1129 23-04-2016 22:00:00 5.4 C 83 % 2.75 C
1130 23-04-2016 22:05:00 5.3 C 81 % 2.31 C
1131 23-04-2016 22:10:00 5.4 C 81 % 2.41 C
1132 23-04-2016 22:15:00 5.4 C 82 % 2.58 C
1133 23-04-2016 22:20:00 5.5 C 83 % 2.85 C
1134 23-04-2016 22:25:00 5.4 C 84 % 2.92 C
1135 23-04-2016 22:30:00 5.3 C 84 % 2.82 C
1136 23-04-2016 22:35:00 5.2 C 84 % 2.72 C
1137 23-04-2016 22:40:00 5 C 84 % 2.53 C
1138 23-04-2016 22:45:00 4.8 C 84 % 2.33 C
1139 23-04-2016 22:50:00 4.8 C 84 % 2.33 C
1140 23-04-2016 22:55:00 4.7 C 83 % 2.07 C
1141 23-04-2016 23:00:00 4.7 C 83 % 2.07 C
1142 23-04-2016 23:05:00 4.7 C 83 % 2.07 C
1143 23-04-2016 23:10:00 4.6 C 82 % 1.8 C
1144 23-04-2016 23:15:00 4.6 C 82 % 1.8 C
1145 23-04-2016 23:20:00 4.6 C 79 % 1.28 C
1146 23-04-2016 23:25:00 4.6 C 80 % 1.46 C
1147 23-04-2016 23:30:00 4.7 C 79 % 1.38 C
1148 23-04-2016 23:35:00 4.7 C 79 % 1.38 C
1149 23-04-2016 23:40:00 4.7 C 78 % 1.2 C
1150 23-04-2016 23:45:00 4.7 C 79 % 1.38 C
Sensor: Nr:Datum:Temp:Feuchte:Taupunkt:
Aussen-T/F 1151 23-04-2016 23:50:00 4.7 C 79 % 1.38 C
1152 23-04-2016 23:55:00 4.7 C 78 % 1.2 C
1153 24-04-2016 00:00:00 4.7 C 79 % 1.38 C
1154 24-04-2016 00:05:00 4.6 C 78 % 1.1 C
1155 24-04-2016 00:10:00 4.6 C 78 % 1.1 C
1156 24-04-2016 00:15:00 4.6 C 78 % 1.1 C
1157 24-04-2016 00:20:00 4.6 C 77 % 0.92 C
1158 24-04-2016 00:25:00 4.7 C 78 % 1.2 C
1159 24-04-2016 00:30:00 4.7 C 78 % 1.2 C
1160 24-04-2016 00:35:00 4.7 C 77 % 1.02 C
1161 24-04-2016 00:40:00 4.8 C 77 % 1.12 C
1162 24-04-2016 00:45:00 4.8 C 78 % 1.3 C
1163 24-04-2016 00:50:00 4.8 C 77 % 1.12 C
1164 24-04-2016 00:55:00 4.8 C 78 % 1.3 C
1165 24-04-2016 01:00:00 4.8 C 77 % 1.12 C
1166 24-04-2016 01:05:00 4.8 C 77 % 1.12 C
1167 24-04-2016 01:10:00 4.8 C 77 % 1.12 C
1168 24-04-2016 01:15:00 4.9 C 78 % 1.39 C
1169 24-04-2016 01:20:00 4.8 C 78 % 1.3 C
1170 24-04-2016 01:25:00 4.8 C 78 % 1.3 C
1171 24-04-2016 01:30:00 4.8 C 78 % 1.3 C
1172 24-04-2016 01:35:00 4.8 C 78 % 1.3 C
1173 24-04-2016 01:40:00 4.8 C 78 % 1.3 C
1174 24-04-2016 01:45:00 4.8 C 79 % 1.47 C
1175 24-04-2016 01:50:00 4.8 C 79 % 1.47 C
Sensor: Nr:Datum:Temp:Feuchte:Taupunkt:
Aussen-T/F 1176 24-04-2016 01:55:00 4.8 C 78 % 1.3 C
1177 24-04-2016 02:00:00 4.8 C 78 % 1.3 C
1178 24-04-2016 02:05:00 4.7 C 78 % 1.2 C
1179 24-04-2016 02:10:00 4.7 C 78 % 1.2 C
1180 24-04-2016 02:15:00 4.7 C 78 % 1.2 C
1181 24-04-2016 02:20:00 4.6 C 79 % 1.28 C
1182 24-04-2016 02:25:00 4.5 C 79 % 1.18 C
1183 24-04-2016 02:30:00 4.4 C 79 % 1.09 C
1184 24-04-2016 02:35:00 4.3 C 80 % 1.16 C
1185 24-04-2016 02:40:00 4.3 C 79 % 0.99 C
1186 24-04-2016 02:45:00 4.3 C 81 % 1.34 C
1187 24-04-2016 02:50:00 4.2 C 81 % 1.24 C
1188 24-04-2016 02:55:00 4.2 C 82 % 1.41 C
1189 24-04-2016 03:00:00 4.1 C 82 % 1.31 C
1190 24-04-2016 03:05:00 4 C 82 % 1.21 C
1191 24-04-2016 03:10:00 4 C 82 % 1.21 C
1192 24-04-2016 03:15:00 4 C 83 % 1.38 C
1193 24-04-2016 03:20:00 4 C 83 % 1.38 C
1194 24-04-2016 03:25:00 4 C 83 % 1.38 C
1195 24-04-2016 03:30:00 4 C 82 % 1.21 C
1196 24-04-2016 03:35:00 4.1 C 82 % 1.31 C
1197 24-04-2016 03:40:00 4.2 C 82 % 1.41 C
1198 24-04-2016 03:45:00 4.2 C 82 % 1.41 C
1199 24-04-2016 03:50:00 4.2 C 82 % 1.41 C
1200 24-04-2016 03:55:00 4.2 C 82 % 1.41 C
Sensor: Nr:Datum:Temp:Feuchte:Taupunkt:
Aussen-T/F 1201 24-04-2016 04:00:00 4.2 C 82 % 1.41 C
1202 24-04-2016 04:05:00 4.2 C 81 % 1.24 C
1203 24-04-2016 04:10:00 4.2 C 82 % 1.41 C
1204 24-04-2016 04:15:00 4.1 C 83 % 1.48 C
1205 24-04-2016 04:20:00 4 C 83 % 1.38 C
1206 24-04-2016 04:25:00 3.9 C 82 % 1.12 C
1207 24-04-2016 04:30:00 3.9 C 83 % 1.28 C
1208 24-04-2016 04:35:00 3.8 C 83 % 1.19 C
1209 24-04-2016 04:40:00 3.7 C 84 % 1.25 C
1210 24-04-2016 04:45:00 3.7 C 84 % 1.25 C
1211 24-04-2016 04:50:00 3.6 C 84 % 1.16 C
1212 24-04-2016 04:55:00 3.4 C 84 % 0.96 C
1213 24-04-2016 05:00:00 3.3 C 84 % 0.86 C
1214 24-04-2016 05:05:00 3.2 C 85 % 0.93 C
1215 24-04-2016 05:10:00 3.2 C 85 % 0.93 C
1216 24-04-2016 05:15:00 3.1 C 85 % 0.83 C
1217 24-04-2016 05:20:00 3.1 C 85 % 0.83 C
1218 24-04-2016 05:25:00 2.9 C 85 % 0.63 C
1219 24-04-2016 05:30:00 2.8 C 85 % 0.54 C
1220 24-04-2016 05:35:00 2.8 C 86 % 0.7 C
1221 24-04-2016 05:40:00 2.7 C 86 % 0.6 C
1222 24-04-2016 05:45:00 2.7 C 87 % 0.76 C
1223 24-04-2016 05:50:00 2.7 C 88 % 0.92 C
1224 24-04-2016 05:55:00 2.7 C 88 % 0.92 C
1225 24-04-2016 06:00:00 2.7 C 88 % 0.92 C
Sensor: Nr:Datum:Temp:Feuchte:Taupunkt:
Aussen-T/F 1226 24-04-2016 06:05:00 2.7 C 88 % 0.92 C
1227 24-04-2016 06:10:00 2.6 C 88 % 0.82 C
1228 24-04-2016 06:15:00 2.6 C 88 % 0.82 C
1229 24-04-2016 06:20:00 2.5 C 88 % 0.72 C
1230 24-04-2016 06:25:00 2.5 C 88 % 0.72 C
1231 24-04-2016 06:30:00 2.6 C 89 % 0.97 C
1232 24-04-2016 06:35:00 2.7 C 89 % 1.07 C
1233 24-04-2016 06:40:00 2.7 C 88 % 0.92 C
1234 24-04-2016 06:45:00 2.8 C 89 % 1.17 C
1235 24-04-2016 06:50:00 2.8 C 89 % 1.17 C
1236 24-04-2016 06:55:00 2.8 C 89 % 1.17 C
1237 24-04-2016 07:00:00 2.9 C 89 % 1.27 C
1238 24-04-2016 07:05:00 2.9 C 90 % 1.43 C
1239 24-04-2016 07:10:00 2.9 C 90 % 1.43 C
1240 24-04-2016 07:15:00 2.9 C 90 % 1.43 C
1241 24-04-2016 07:20:00 3 C 90 % 1.52 C
1242 24-04-2016 07:25:00 3 C 90 % 1.52 C
1243 24-04-2016 07:30:00 3 C 90 % 1.52 C
1244 24-04-2016 07:35:00 3 C 90 % 1.52 C
1245 24-04-2016 07:40:00 3.1 C 91 % 1.78 C
1246 24-04-2016 07:45:00 3.1 C 91 % 1.78 C
1247 24-04-2016 07:50:00 3.2 C 91 % 1.88 C
1248 24-04-2016 07:55:00 3.3 C 90 % 1.82 C
1249 24-04-2016 08:00:00 3.3 C 90 % 1.82 C
1250 24-04-2016 08:05:00 3.4 C 90 % 1.92 C
Sensor: Nr:Datum:Temp:Feuchte:Taupunkt:
Aussen-T/F 1251 24-04-2016 08:10:00 3.5 C 89 % 1.86 C
1252 24-04-2016 08:15:00 3.6 C 89 % 1.96 C
1253 24-04-2016 08:20:00 3.7 C 88 % 1.9 C
1254 24-04-2016 08:25:00 3.8 C 87 % 1.84 C
1255 24-04-2016 08:30:00 3.9 C 88 % 2.1 C
1256 24-04-2016 08:35:00 4 C 87 % 2.04 C
1257 24-04-2016 08:40:00 4.1 C 86 % 1.97 C
1258 24-04-2016 08:45:00 4.2 C 86 % 2.07 C
1259 24-04-2016 08:50:00 4.3 C 86 % 2.17 C
1260 24-04-2016 08:55:00 4.5 C 87 % 2.53 C
1261 24-04-2016 09:00:00 4.6 C 85 % 2.3 C
1262 24-04-2016 09:05:00 4.6 C 83 % 1.97 C
1263 24-04-2016 09:10:00 4.7 C 83 % 2.07 C
1264 24-04-2016 09:15:00 4.8 C 83 % 2.16 C
1265 24-04-2016 09:20:00 4.7 C 81 % 1.73 C
1266 24-04-2016 09:25:00 4.7 C 82 % 1.9 C
1267 24-04-2016 09:30:00 4.8 C 82 % 1.99 C
1268 24-04-2016 09:35:00 4.8 C 81 % 1.82 C
1269 24-04-2016 09:40:00 4.7 C 80 % 1.55 C
1270 24-04-2016 09:45:00 4.7 C 82 % 1.9 C
1271 24-04-2016 09:50:00 4.8 C 82 % 1.99 C
1272 24-04-2016 09:55:00 5 C 80 % 1.84 C
1273 24-04-2016 10:00:00 5.2 C 80 % 2.04 C
1274 24-04-2016 10:05:00 5.5 C 80 % 2.33 C
1275 24-04-2016 10:10:00 5.6 C 78 % 2.07 C
Sensor: Nr:Datum:Temp:Feuchte:Taupunkt:
Aussen-T/F 1276 24-04-2016 10:15:00 5.7 C 77 % 1.99 C
1277 24-04-2016 10:20:00 5.8 C 73 % 1.34 C
1278 24-04-2016 10:25:00 5.8 C 73 % 1.34 C
1279 24-04-2016 10:30:00 5.9 C 71 % 1.06 C
1280 24-04-2016 10:35:00 6.1 C 70 % 1.05 C
1281 24-04-2016 10:40:00 6.3 C 69 % 1.04 C
1282 24-04-2016 10:45:00 6.3 C 68 % 0.84 C
1283 24-04-2016 10:50:00 6 C 72 % 1.35 C
1284 24-04-2016 10:55:00 5.7 C 76 % 1.81 C
1285 24-04-2016 11:00:00 5.4 C 78 % 1.88 C
1286 24-04-2016 11:05:00 5.5 C 77 % 1.8 C
1287 24-04-2016 11:10:00 5.6 C 76 % 1.71 C
1288 24-04-2016 11:15:00 5.8 C 76 % 1.91 C
1289 24-04-2016 11:20:00 5.9 C 76 % 2 C
1290 24-04-2016 11:25:00 6 C 76 % 2.1 C
1291 24-04-2016 11:30:00 6.1 C 76 % 2.2 C
1292 24-04-2016 11:35:00 6.2 C 75 % 2.11 C
1293 24-04-2016 11:40:00 6.3 C 74 % 2.02 C
1294 24-04-2016 11:45:00 6.5 C 74 % 2.21 C
1295 24-04-2016 11:50:00 6.7 C 73 % 2.21 C
1296 24-04-2016 11:55:00 6.8 C 71 % 1.92 C
1297 24-04-2016 12:00:00 6.9 C 70 % 1.82 C
1298 24-04-2016 12:05:00 6.7 C 63 % 0.17 C
1299 24-04-2016 12:10:00 6.8 C 64 % 0.48 C
1300 24-04-2016 12:15:00 6.9 C 68 % 1.41 C
Sensor: Nr:Datum:Temp:Feuchte:Taupunkt:
Aussen-T/F 1301 24-04-2016 12:20:00 7.2 C 67 % 1.49 C
1302 24-04-2016 12:25:00 7.4 C 65 % 1.26 C
1303 24-04-2016 12:30:00 7.5 C 64 % 1.14 C
1304 24-04-2016 12:35:00 7.1 C 71 % 2.21 C
1305 24-04-2016 12:40:00 6.5 C 73 % 2.02 C
1306 24-04-2016 12:45:00 6.2 C 77 % 2.48 C
1307 24-04-2016 12:50:00 6.1 C 80 % 2.92 C
1308 24-04-2016 12:55:00 5.8 C 82 % 2.97 C
1309 24-04-2016 13:00:00 5.7 C 84 % 3.21 C
1310 24-04-2016 13:05:00 5.3 C 83 % 2.65 C
1311 24-04-2016 13:10:00 4.9 C 81 % 1.92 C
1312 24-04-2016 13:15:00 4.8 C 83 % 2.16 C
1313 24-04-2016 13:20:00 4.8 C 83 % 2.16 C
1314 24-04-2016 13:25:00 4.9 C 83 % 2.26 C
1315 24-04-2016 13:30:00 5.1 C 84 % 2.63 C
1316 24-04-2016 13:35:00 5.4 C 85 % 3.09 C
1317 24-04-2016 13:40:00 5.7 C 84 % 3.21 C
1318 24-04-2016 13:45:00 5.9 C 80 % 2.72 C
1319 24-04-2016 13:50:00 6.1 C 79 % 2.74 C
1320 24-04-2016 13:55:00 6.3 C 82 % 3.46 C
1321 24-04-2016 14:00:00 6.6 C 81 % 3.58 C
1322 24-04-2016 14:05:00 6.9 C 81 % 3.87 C
1323 24-04-2016 14:10:00 7.1 C 74 % 2.79 C
1324 24-04-2016 14:15:00 6.8 C 77 % 3.06 C
1325 24-04-2016 14:20:00 6.4 C 77 % 2.67 C
Sensor: Nr:Datum:Temp:Feuchte:Taupunkt:
Aussen-T/F 1326 24-04-2016 14:25:00 6.4 C 78 % 2.85 C
1327 24-04-2016 14:30:00 6.4 C 77 % 2.67 C
1328 24-04-2016 14:35:00 6.6 C 77 % 2.86 C
1329 24-04-2016 14:40:00 6.9 C 77 % 3.16 C
1330 24-04-2016 14:45:00 7.2 C 76 % 3.26 C
1331 24-04-2016 14:50:00 7.3 C 73 % 2.79 C
1332 24-04-2016 14:55:00 7.3 C 70 % 2.2 C
1333 24-04-2016 15:00:00 7.4 C 70 % 2.3 C
1334 24-04-2016 15:05:00 7.6 C 70 % 2.49 C
1335 24-04-2016 15:10:00 7.6 C 68 % 2.08 C
1336 24-04-2016 15:15:00 7.6 C 67 % 1.88 C
1337 24-04-2016 15:20:00 7.7 C 67 % 1.97 C
1338 24-04-2016 15:25:00 7.8 C 67 % 2.07 C
1339 24-04-2016 15:30:00 7.8 C 68 % 2.27 C
1340 24-04-2016 15:35:00 7.9 C 69 % 2.57 C
1341 24-04-2016 15:40:00 8.3 C 70 % 3.16 C
1342 24-04-2016 15:45:00 8.5 C 70 % 3.35 C
1343 24-04-2016 15:50:00 8.9 C 69 % 3.53 C
1344 24-04-2016 15:55:00 9.4 C 64 % 2.95 C
1345 24-04-2016 16:00:00 9.5 C 62 % 2.59 C
1346 24-04-2016 16:05:00 9.6 C 60 % 2.23 C
1347 24-04-2016 16:10:00 9.6 C 60 % 2.23 C
1348 24-04-2016 16:15:00 9.8 C 59 % 2.18 C
1349 24-04-2016 16:20:00 10.2 C 58 % 2.32 C
1350 24-04-2016 16:25:00 10.1 C 51 % 0.44 C
Sensor: Nr:Datum:Temp:Feuchte:Taupunkt:
Aussen-T/F 1351 24-04-2016 16:30:00 9.5 C 53 % 0.41 C
1352 24-04-2016 16:35:00 9.2 C 54 % 0.39 C
1353 24-04-2016 16:40:00 9.1 C 54 % 0.3 C
1354 24-04-2016 16:45:00 7.8 C 67 % 2.07 C
1355 24-04-2016 16:50:00 6.7 C 73 % 2.21 C
1356 24-04-2016 16:55:00 6.3 C 75 % 2.2 C
1357 24-04-2016 17:00:00 6.3 C 77 % 2.57 C
1358 24-04-2016 17:05:00 6.4 C 77 % 2.67 C
1359 24-04-2016 17:10:00 6.5 C 75 % 2.4 C
1360 24-04-2016 17:15:00 6.2 C 75 % 2.11 C
1361 24-04-2016 17:20:00 5.8 C 79 % 2.45 C
1362 24-04-2016 17:25:00 5.4 C 77 % 1.7 C
1363 24-04-2016 17:30:00 5.1 C 80 % 1.94 C
1364 24-04-2016 17:35:00 5 C 82 % 2.19 C
1365 24-04-2016 17:40:00 5 C 82 % 2.19 C
1366 24-04-2016 17:45:00 5.4 C 83 % 2.75 C
1367 24-04-2016 17:50:00 6.3 C 80 % 3.11 C
1368 24-04-2016 17:55:00 7.1 C 72 % 2.4 C
1369 24-04-2016 18:00:00 7.7 C 73 % 3.18 C
1370 24-04-2016 18:05:00 8.3 C 69 % 2.96 C
1371 24-04-2016 18:10:00 8.4 C 66 % 2.43 C
1372 24-04-2016 18:15:00 8.6 C 68 % 3.04 C
1373 24-04-2016 18:20:00 9 C 68 % 3.42 C
1374 24-04-2016 18:25:00 9.3 C 67 % 3.5 C
1375 24-04-2016 18:30:00 9.3 C 67 % 3.5 C
Sensor: Nr:Datum:Temp:Feuchte:Taupunkt:
Aussen-T/F 1376 24-04-2016 18:35:00 9.3 C 65 % 3.07 C
1377 24-04-2016 18:40:00 9.4 C 64 % 2.95 C
1378 24-04-2016 18:45:00 9.3 C 62 % 2.4 C
1379 24-04-2016 18:50:00 9 C 63 % 2.35 C
1380 24-04-2016 18:55:00 8.6 C 63 % 1.97 C
1381 24-04-2016 19:00:00 8.5 C 65 % 2.31 C
1382 24-04-2016 19:05:00 8.4 C 65 % 2.21 C
1383 24-04-2016 19:10:00 8.3 C 65 % 2.12 C
1384 24-04-2016 19:15:00 8.2 C 66 % 2.24 C
1385 24-04-2016 19:20:00 8.1 C 66 % 2.14 C
1386 24-04-2016 19:25:00 7.9 C 65 % 1.74 C
1387 24-04-2016 19:30:00 7.8 C 63 % 1.21 C
1388 24-04-2016 19:35:00 7.6 C 64 % 1.24 C
1389 24-04-2016 19:40:00 7.3 C 63 % 0.74 C
1390 24-04-2016 19:45:00 7.1 C 65 % 0.98 C
1391 24-04-2016 19:50:00 7 C 65 % 0.88 C
1392 24-04-2016 19:55:00 6.8 C 65 % 0.69 C
1393 24-04-2016 20:00:00 6.7 C 66 % 0.81 C
1394 24-04-2016 20:05:00 6.4 C 66 % 0.52 C
1395 24-04-2016 20:10:00 6.2 C 67 % 0.54 C
1396 24-04-2016 20:15:00 6.1 C 69 % 0.85 C
1397 24-04-2016 20:20:00 5.9 C 69 % 0.66 C
1398 24-04-2016 20:25:00 5.8 C 70 % 0.76 C
1399 24-04-2016 20:30:00 5.7 C 70 % 0.67 C
1400 24-04-2016 20:35:00 5.7 C 71 % 0.86 C
Sensor: Nr:Datum:Temp:Feuchte:Taupunkt:
Aussen-T/F 1401 24-04-2016 20:40:00 5.6 C 75 % 1.53 C
1402 24-04-2016 20:45:00 5.2 C 78 % 1.69 C
1403 24-04-2016 20:50:00 4.8 C 81 % 1.82 C
1404 24-04-2016 20:55:00 4.7 C 81 % 1.73 C
1405 24-04-2016 21:00:00 4.6 C 82 % 1.8 C
1406 24-04-2016 21:05:00 4.5 C 81 % 1.53 C
1407 24-04-2016 21:10:00 4.4 C 82 % 1.6 C
1408 24-04-2016 21:15:00 4.3 C 82 % 1.51 C
1409 24-04-2016 21:20:00 4.3 C 83 % 1.67 C
1410 24-04-2016 21:25:00 4.2 C 83 % 1.58 C
1411 24-04-2016 21:30:00 4.2 C 83 % 1.58 C
1412 24-04-2016 21:35:00 4.2 C 83 % 1.58 C
1413 24-04-2016 21:40:00 4.3 C 83 % 1.67 C
1414 24-04-2016 21:45:00 4.2 C 85 % 1.91 C
1415 24-04-2016 21:50:00 4.1 C 86 % 1.97 C
1416 24-04-2016 21:55:00 3.9 C 86 % 1.78 C
1417 24-04-2016 22:00:00 3.7 C 86 % 1.58 C
1418 24-04-2016 22:05:00 3.4 C 87 % 1.45 C
1419 24-04-2016 22:10:00 3.3 C 88 % 1.51 C
1420 24-04-2016 22:15:00 3.2 C 89 % 1.57 C
1421 24-04-2016 22:20:00 3.2 C 90 % 1.72 C
1422 24-04-2016 22:25:00 3.3 C 90 % 1.82 C
1423 24-04-2016 22:30:00 3.3 C 90 % 1.82 C
1424 24-04-2016 22:35:00 3.3 C 90 % 1.82 C
1425 24-04-2016 22:40:00 3.2 C 90 % 1.72 C
Sensor: Nr:Datum:Temp:Feuchte:Taupunkt:
Aussen-T/F 1426 24-04-2016 22:45:00 3.2 C 90 % 1.72 C
1427 24-04-2016 22:50:00 3.1 C 90 % 1.62 C
1428 24-04-2016 22:55:00 3.1 C 90 % 1.62 C
1429 24-04-2016 23:00:00 3.1 C 90 % 1.62 C
1430 24-04-2016 23:05:00 3.1 C 90 % 1.62 C
1431 24-04-2016 23:10:00 3.1 C 90 % 1.62 C
1432 24-04-2016 23:15:00 3.1 C 90 % 1.62 C
1433 24-04-2016 23:20:00 3.2 C 89 % 1.57 C
1434 24-04-2016 23:25:00 3.2 C 89 % 1.57 C
1435 24-04-2016 23:30:00 3.3 C 89 % 1.67 C
1436 24-04-2016 23:35:00 3.3 C 89 % 1.67 C
1437 24-04-2016 23:40:00 3.1 C 89 % 1.47 C
1438 24-04-2016 23:45:00 2.9 C 89 % 1.27 C
1439 24-04-2016 23:50:00 2.7 C 90 % 1.23 C
1440 24-04-2016 23:55:00 2.6 C 90 % 1.13 C
1441 25-04-2016 00:00:00 2.5 C 91 % 1.18 C
1442 25-04-2016 00:05:00 2.4 C 91 % 1.08 C
1443 25-04-2016 00:10:00 2.3 C 91 % 0.99 C
1444 25-04-2016 00:15:00 2.3 C 92 % 1.14 C
1445 25-04-2016 00:20:00 2.2 C 92 % 1.04 C
1446 25-04-2016 00:25:00 2.2 C 92 % 1.04 C
1447 25-04-2016 00:30:00 2.2 C 93 % 1.19 C
1448 25-04-2016 00:35:00 2.2 C 93 % 1.19 C
1449 25-04-2016 00:40:00 2.2 C 93 % 1.19 C
1450 25-04-2016 00:45:00 2.3 C 93 % 1.29 C
Sensor: Nr:Datum:Temp:Feuchte:Taupunkt:
Aussen-T/F 1451 25-04-2016 00:50:00 2.3 C 93 % 1.29 C
1452 25-04-2016 00:55:00 2.3 C 94 % 1.44 C
1453 25-04-2016 01:00:00 2.3 C 94 % 1.44 C
1454 25-04-2016 01:05:00 2.3 C 94 % 1.44 C
1455 25-04-2016 01:10:00 2.3 C 94 % 1.44 C
1456 25-04-2016 01:15:00 2.3 C 94 % 1.44 C
1457 25-04-2016 01:20:00 2.3 C 94 % 1.44 C
1458 25-04-2016 01:25:00 2.4 C 94 % 1.54 C
1459 25-04-2016 01:30:00 2.4 C 94 % 1.54 C
1460 25-04-2016 01:35:00 2.4 C 94 % 1.54 C
1461 25-04-2016 01:40:00 2.4 C 94 % 1.54 C
1462 25-04-2016 01:45:00 2.4 C 94 % 1.54 C
1463 25-04-2016 01:50:00 2.4 C 94 % 1.54 C
1464 25-04-2016 01:55:00 2.4 C 94 % 1.54 C
1465 25-04-2016 02:00:00 2.3 C 94 % 1.44 C
1466 25-04-2016 02:05:00 2.3 C 94 % 1.44 C
1467 25-04-2016 02:10:00 2.3 C 94 % 1.44 C
1468 25-04-2016 02:15:00 2.2 C 94 % 1.34 C
1469 25-04-2016 02:20:00 2.2 C 94 % 1.34 C
1470 25-04-2016 02:25:00 2.1 C 94 % 1.24 C
1471 25-04-2016 02:30:00 1.9 C 94 % 1.04 C
1472 25-04-2016 02:35:00 1.9 C 94 % 1.04 C
1473 25-04-2016 02:40:00 1.8 C 94 % 0.94 C
1474 25-04-2016 02:45:00 1.8 C 94 % 0.94 C
1475 25-04-2016 02:50:00 1.8 C 94 % 0.94 C
Sensor: Nr:Datum:Temp:Feuchte:Taupunkt:
Aussen-T/F 1476 25-04-2016 02:55:00 1.8 C 94 % 0.94 C
1477 25-04-2016 03:00:00 1.7 C 94 % 0.84 C
1478 25-04-2016 03:05:00 1.6 C 94 % 0.74 C
1479 25-04-2016 03:10:00 1.6 C 94 % 0.74 C
1480 25-04-2016 03:15:00 1.4 C 94 % 0.54 C
1481 25-04-2016 03:20:00 1.3 C 94 % 0.44 C
1482 25-04-2016 03:25:00 1.2 C 94 % 0.34 C
1483 25-04-2016 03:30:00 1.2 C 94 % 0.34 C
1484 25-04-2016 03:35:00 1.2 C 94 % 0.34 C
1485 25-04-2016 03:40:00 1.2 C 94 % 0.34 C
1486 25-04-2016 03:45:00 1.2 C 94 % 0.34 C
1487 25-04-2016 03:50:00 1.2 C 94 % 0.34 C
1488 25-04-2016 03:55:00 1.2 C 95 % 0.49 C
1489 25-04-2016 04:00:00 1.2 C 95 % 0.49 C
1490 25-04-2016 04:05:00 1.2 C 95 % 0.49 C
1491 25-04-2016 04:10:00 1.1 C 95 % 0.39 C
1492 25-04-2016 04:15:00 1.1 C 95 % 0.39 C
1493 25-04-2016 04:20:00 1.1 C 95 % 0.39 C
1494 25-04-2016 04:25:00 1.1 C 95 % 0.39 C
1495 25-04-2016 04:30:00 1 C 95 % 0.29 C
1496 25-04-2016 04:35:00 0.9 C 95 % 0.19 C
1497 25-04-2016 04:40:00 0.9 C 95 % 0.19 C
1498 25-04-2016 04:45:00 0.9 C 95 % 0.19 C
1499 25-04-2016 04:50:00 0.9 C 95 % 0.19 C
1500 25-04-2016 04:55:00 0.9 C 95 % 0.19 C
Sensor: Nr:Datum:Temp:Feuchte:Taupunkt:
Aussen-T/F 1501 25-04-2016 05:00:00 0.9 C 95 % 0.19 C
1502 25-04-2016 05:05:00 0.9 C 95 % 0.19 C
1503 25-04-2016 05:10:00 0.9 C 95 % 0.19 C
1504 25-04-2016 05:15:00 1 C 95 % 0.29 C
1505 25-04-2016 05:20:00 1.1 C 95 % 0.39 C
1506 25-04-2016 05:25:00 1.2 C 95 % 0.49 C
1507 25-04-2016 05:30:00 1.2 C 95 % 0.49 C
1508 25-04-2016 05:35:00 1.3 C 95 % 0.59 C
1509 25-04-2016 05:40:00 1.3 C 95 % 0.59 C
1510 25-04-2016 05:45:00 1.2 C 95 % 0.49 C
1511 25-04-2016 05:50:00 1.2 C 95 % 0.49 C
1512 25-04-2016 05:55:00 1.1 C 95 % 0.39 C
1513 25-04-2016 06:00:00 1.1 C 95 % 0.39 C
1514 25-04-2016 06:05:00 1.1 C 95 % 0.39 C
1515 25-04-2016 06:10:00 1.1 C 95 % 0.39 C
1516 25-04-2016 06:15:00 1.1 C 95 % 0.39 C
1517 25-04-2016 06:20:00 1.1 C 95 % 0.39 C
1518 25-04-2016 06:25:00 1.2 C 95 % 0.49 C
1519 25-04-2016 06:30:00 1.2 C 95 % 0.49 C
1520 25-04-2016 06:35:00 1.3 C 95 % 0.59 C
1521 25-04-2016 06:40:00 1.3 C 95 % 0.59 C
1522 25-04-2016 06:45:00 1.3 C 95 % 0.59 C
1523 25-04-2016 06:50:00 1.4 C 95 % 0.69 C
1524 25-04-2016 06:55:00 1.5 C 94 % 0.64 C
1525 25-04-2016 07:00:00 1.5 C 94 % 0.64 C
Sensor: Nr:Datum:Temp:Feuchte:Taupunkt:
Aussen-T/F 1526 25-04-2016 07:05:00 1.6 C 94 % 0.74 C
1527 25-04-2016 07:10:00 1.6 C 93 % 0.59 C
1528 25-04-2016 07:15:00 1.6 C 93 % 0.59 C
1529 25-04-2016 07:20:00 1.6 C 93 % 0.59 C
1530 25-04-2016 07:25:00 1.6 C 92 % 0.44 C
1531 25-04-2016 07:30:00 1.6 C 92 % 0.44 C
1532 25-04-2016 07:35:00 1.6 C 92 % 0.44 C
1533 25-04-2016 07:40:00 1.7 C 92 % 0.54 C
1534 25-04-2016 07:45:00 1.7 C 92 % 0.54 C
1535 25-04-2016 07:50:00 1.8 C 91 % 0.49 C
1536 25-04-2016 07:55:00 1.8 C 91 % 0.49 C
1537 25-04-2016 08:00:00 1.9 C 91 % 0.59 C
1538 25-04-2016 08:05:00 2.1 C 91 % 0.79 C
1539 25-04-2016 08:10:00 2.2 C 90 % 0.73 C
1540 25-04-2016 08:15:00 2.4 C 90 % 0.93 C
1541 25-04-2016 08:20:00 2.6 C 90 % 1.13 C
1542 25-04-2016 08:25:00 2.7 C 89 % 1.07 C
1543 25-04-2016 08:30:00 2.9 C 89 % 1.27 C
1544 25-04-2016 08:35:00 3.1 C 89 % 1.47 C
1545 25-04-2016 08:40:00 3.2 C 89 % 1.57 C
1546 25-04-2016 08:45:00 3.2 C 88 % 1.41 C
1547 25-04-2016 08:50:00 3.3 C 88 % 1.51 C
1548 25-04-2016 08:55:00 3.4 C 88 % 1.61 C
1549 25-04-2016 09:00:00 3.6 C 88 % 1.8 C
1550 25-04-2016 09:05:00 3.7 C 88 % 1.9 C
Sensor: Nr:Datum:Temp:Feuchte:Taupunkt:
Aussen-T/F 1551 25-04-2016 09:10:00 3.8 C 88 % 2 C
1552 25-04-2016 09:15:00 4 C 88 % 2.2 C
1553 25-04-2016 09:20:00 4.1 C 86 % 1.97 C
1554 25-04-2016 09:25:00 4.2 C 85 % 1.91 C
1555 25-04-2016 09:30:00 4.3 C 86 % 2.17 C
1556 25-04-2016 09:35:00 4.4 C 85 % 2.11 C
1557 25-04-2016 09:40:00 4.6 C 84 % 2.14 C
1558 25-04-2016 09:45:00 4.6 C 85 % 2.3 C
1559 25-04-2016 09:50:00 4.7 C 84 % 2.23 C
1560 25-04-2016 09:55:00 4.7 C 84 % 2.23 C
1561 25-04-2016 10:00:00 4.9 C 84 % 2.43 C
1562 25-04-2016 10:05:00 5.1 C 84 % 2.63 C
1563 25-04-2016 10:10:00 5.2 C 83 % 2.56 C
1564 25-04-2016 10:15:00 5.3 C 82 % 2.48 C
1565 25-04-2016 10:20:00 5.3 C 82 % 2.48 C
1566 25-04-2016 10:25:00 5.4 C 81 % 2.41 C
1567 25-04-2016 10:30:00 5.4 C 80 % 2.23 C
1568 25-04-2016 10:35:00 5.6 C 81 % 2.6 C
1569 25-04-2016 10:40:00 5.8 C 79 % 2.45 C
1570 25-04-2016 10:45:00 5.9 C 79 % 2.54 C
1571 25-04-2016 10:50:00 6.1 C 78 % 2.56 C
1572 25-04-2016 10:55:00 6.3 C 76 % 2.39 C
1573 25-04-2016 11:00:00 6.4 C 75 % 2.3 C
1574 25-04-2016 11:05:00 6.3 C 74 % 2.02 C
1575 25-04-2016 11:10:00 6.4 C 75 % 2.3 C
Sensor: Nr:Datum:Temp:Feuchte:Taupunkt:
Aussen-T/F 1576 25-04-2016 11:15:00 6.6 C 75 % 2.49 C
1577 25-04-2016 11:20:00 6.8 C 74 % 2.5 C
1578 25-04-2016 11:25:00 6.9 C 74 % 2.6 C
1579 25-04-2016 11:30:00 7 C 72 % 2.31 C
1580 25-04-2016 11:35:00 7.1 C 71 % 2.21 C
1581 25-04-2016 11:40:00 7.1 C 71 % 2.21 C
1582 25-04-2016 11:45:00 7.2 C 71 % 2.3 C
1583 25-04-2016 11:50:00 7.2 C 72 % 2.5 C
1584 25-04-2016 11:55:00 7.2 C 71 % 2.3 C
1585 25-04-2016 12:00:00 7.3 C 72 % 2.6 C
1586 25-04-2016 12:05:00 7.4 C 71 % 2.5 C
1587 25-04-2016 12:10:00 7.5 C 70 % 2.39 C
1588 25-04-2016 12:15:00 7.4 C 69 % 2.1 C
1589 25-04-2016 12:20:00 7.4 C 71 % 2.5 C
1590 25-04-2016 12:25:00 7.6 C 69 % 2.29 C
1591 25-04-2016 12:30:00 7.8 C 70 % 2.68 C
1592 25-04-2016 12:35:00 7.9 C 70 % 2.78 C
1593 25-04-2016 12:40:00 7.8 C 69 % 2.48 C
1594 25-04-2016 12:45:00 7.6 C 69 % 2.29 C
1595 25-04-2016 12:50:00 7.7 C 70 % 2.58 C
1596 25-04-2016 12:55:00 7.7 C 69 % 2.38 C
1597 25-04-2016 13:00:00 7.6 C 70 % 2.49 C
1598 25-04-2016 13:05:00 7.3 C 70 % 2.2 C
1599 25-04-2016 13:10:00 7.2 C 72 % 2.5 C
1600 25-04-2016 13:15:00 7.2 C 73 % 2.69 C
Sensor: Nr:Datum:Temp:Feuchte:Taupunkt:
Aussen-T/F 1601 25-04-2016 13:20:00 7.2 C 72 % 2.5 C
1602 25-04-2016 13:25:00 7.4 C 73 % 2.89 C
1603 25-04-2016 13:30:00 7.6 C 75 % 3.46 C
1604 25-04-2016 13:35:00 7.8 C 72 % 3.08 C
1605 25-04-2016 13:40:00 7.7 C 72 % 2.98 C
1606 25-04-2016 13:45:00 7.6 C 73 % 3.08 C
1607 25-04-2016 13:50:00 7.4 C 73 % 2.89 C
1608 25-04-2016 13:55:00 7.4 C 73 % 2.89 C
1609 25-04-2016 14:00:00 7.4 C 73 % 2.89 C
1610 25-04-2016 14:05:00 7.4 C 73 % 2.89 C
1611 25-04-2016 14:10:00 7.3 C 73 % 2.79 C
1612 25-04-2016 14:15:00 7.2 C 74 % 2.89 C
1613 25-04-2016 14:20:00 7.3 C 75 % 3.17 C
1614 25-04-2016 14:25:00 7.3 C 74 % 2.98 C
1615 25-04-2016 14:30:00 7.4 C 75 % 3.27 C
1616 25-04-2016 14:35:00 7.6 C 74 % 3.27 C
1617 25-04-2016 14:40:00 7.6 C 73 % 3.08 C
1618 25-04-2016 14:45:00 7.7 C 74 % 3.37 C
1619 25-04-2016 14:50:00 7.7 C 74 % 3.37 C
1620 25-04-2016 14:55:00 7.7 C 74 % 3.37 C
1621 25-04-2016 15:00:00 7.8 C 74 % 3.46 C
1622 25-04-2016 15:05:00 7.9 C 73 % 3.37 C
1623 25-04-2016 15:10:00 7.9 C 73 % 3.37 C
1624 25-04-2016 15:15:00 7.9 C 73 % 3.37 C
1625 25-04-2016 15:20:00 8 C 73 % 3.46 C
Sensor: Nr:Datum:Temp:Feuchte:Taupunkt:
Aussen-T/F 1626 25-04-2016 15:25:00 8 C 72 % 3.27 C
1627 25-04-2016 15:30:00 7.9 C 72 % 3.17 C
1628 25-04-2016 15:35:00 7.7 C 72 % 2.98 C
1629 25-04-2016 15:40:00 7.6 C 74 % 3.27 C
1630 25-04-2016 15:45:00 7.6 C 75 % 3.46 C
1631 25-04-2016 15:50:00 7.4 C 78 % 3.82 C
1632 25-04-2016 15:55:00 7.2 C 80 % 3.99 C
1633 25-04-2016 16:00:00 7.1 C 80 % 3.89 C
1634 25-04-2016 16:05:00 7 C 81 % 3.97 C
1635 25-04-2016 16:10:00 6.9 C 81 % 3.87 C
1636 25-04-2016 16:15:00 6.8 C 81 % 3.77 C
1637 25-04-2016 16:20:00 6.9 C 81 % 3.87 C
1638 25-04-2016 16:25:00 6.9 C 82 % 4.05 C
1639 25-04-2016 16:30:00 7 C 82 % 4.14 C
1640 25-04-2016 16:35:00 7.1 C 82 % 4.24 C
1641 25-04-2016 16:40:00 7.1 C 82 % 4.24 C
1642 25-04-2016 16:45:00 7.2 C 82 % 4.34 C
1643 25-04-2016 16:50:00 7.2 C 82 % 4.34 C
1644 25-04-2016 16:55:00 7 C 83 % 4.32 C
1645 25-04-2016 17:00:00 6.9 C 83 % 4.22 C
1646 25-04-2016 17:05:00 6.8 C 84 % 4.29 C
1647 25-04-2016 17:10:00 6.8 C 84 % 4.29 C
1648 25-04-2016 17:15:00 6.8 C 84 % 4.29 C
1649 25-04-2016 17:20:00 6.8 C 83 % 4.12 C
1650 25-04-2016 17:25:00 6.9 C 83 % 4.22 C
Sensor: Nr:Datum:Temp:Feuchte:Taupunkt:
Aussen-T/F 1651 25-04-2016 17:30:00 6.9 C 83 % 4.22 C
1652 25-04-2016 17:35:00 6.9 C 83 % 4.22 C
1653 25-04-2016 17:40:00 6.9 C 82 % 4.05 C
1654 25-04-2016 17:45:00 6.9 C 83 % 4.22 C
1655 25-04-2016 17:50:00 6.9 C 83 % 4.22 C
1656 25-04-2016 17:55:00 6.9 C 82 % 4.05 C
1657 25-04-2016 18:00:00 6.9 C 82 % 4.05 C
1658 25-04-2016 18:05:00 6.9 C 82 % 4.05 C
1659 25-04-2016 18:10:00 6.9 C 82 % 4.05 C
1660 25-04-2016 18:15:00 6.8 C 82 % 3.95 C
1661 25-04-2016 18:20:00 6.8 C 82 % 3.95 C
1662 25-04-2016 18:25:00 6.8 C 83 % 4.12 C
1663 25-04-2016 18:30:00 6.8 C 83 % 4.12 C
1664 25-04-2016 18:35:00 6.8 C 84 % 4.29 C
1665 25-04-2016 18:40:00 6.8 C 84 % 4.29 C
1666 25-04-2016 18:45:00 6.7 C 85 % 4.36 C
1667 25-04-2016 18:50:00 6.7 C 86 % 4.53 C
1668 25-04-2016 18:55:00 6.6 C 86 % 4.43 C
1669 25-04-2016 19:00:00 6.5 C 87 % 4.5 C
1670 25-04-2016 19:05:00 6.5 C 87 % 4.5 C
1671 25-04-2016 19:10:00 6.5 C 87 % 4.5 C
1672 25-04-2016 19:15:00 6.5 C 88 % 4.66 C
1673 25-04-2016 19:20:00 6.5 C 87 % 4.5 C
1674 25-04-2016 19:25:00 6.5 C 87 % 4.5 C
1675 25-04-2016 19:30:00 6.4 C 87 % 4.4 C
Sensor: Nr:Datum:Temp:Feuchte:Taupunkt:
Aussen-T/F 1676 25-04-2016 19:35:00 6.4 C 87 % 4.4 C
1677 25-04-2016 19:40:00 6.4 C 87 % 4.4 C
1678 25-04-2016 19:45:00 6.4 C 87 % 4.4 C
1679 25-04-2016 19:50:00 6.4 C 87 % 4.4 C
1680 25-04-2016 19:55:00 6.3 C 87 % 4.3 C
1681 25-04-2016 20:00:00 6.3 C 87 % 4.3 C
1682 25-04-2016 20:05:00 6.3 C 87 % 4.3 C
1683 25-04-2016 20:10:00 6.2 C 87 % 4.2 C
1684 25-04-2016 20:15:00 6.2 C 87 % 4.2 C
1685 25-04-2016 20:20:00 6.2 C 87 % 4.2 C
1686 25-04-2016 20:25:00 6.2 C 88 % 4.36 C
1687 25-04-2016 20:30:00 6.1 C 88 % 4.27 C
1688 25-04-2016 20:35:00 6.1 C 88 % 4.27 C
1689 25-04-2016 20:40:00 6 C 88 % 4.17 C
1690 25-04-2016 20:45:00 6 C 89 % 4.33 C
1691 25-04-2016 20:50:00 6 C 89 % 4.33 C
1692 25-04-2016 20:55:00 6 C 89 % 4.33 C
1693 25-04-2016 21:00:00 6 C 90 % 4.49 C
1694 25-04-2016 21:05:00 6.1 C 89 % 4.43 C
1695 25-04-2016 21:10:00 6.1 C 89 % 4.43 C
1696 25-04-2016 21:15:00 6.1 C 89 % 4.43 C
1697 25-04-2016 21:20:00 6.2 C 89 % 4.53 C
1698 25-04-2016 21:25:00 6.2 C 89 % 4.53 C
1699 25-04-2016 21:30:00 6.3 C 89 % 4.62 C
1700 25-04-2016 21:35:00 6.3 C 88 % 4.46 C
Sensor: Nr:Datum:Temp:Feuchte:Taupunkt:
Aussen-T/F 1701 25-04-2016 21:40:00 6.3 C 88 % 4.46 C
1702 25-04-2016 21:45:00 6.4 C 88 % 4.56 C
1703 25-04-2016 21:50:00 6.4 C 88 % 4.56 C
1704 25-04-2016 21:55:00 6.4 C 88 % 4.56 C
1705 25-04-2016 22:00:00 6.3 C 88 % 4.46 C
1706 25-04-2016 22:05:00 6.3 C 89 % 4.62 C
1707 25-04-2016 22:10:00 6.2 C 89 % 4.53 C
1708 25-04-2016 22:15:00 6.2 C 89 % 4.53 C
1709 25-04-2016 22:20:00 6.2 C 89 % 4.53 C
1710 25-04-2016 22:25:00 6.2 C 90 % 4.69 C
1711 25-04-2016 22:30:00 6.2 C 90 % 4.69 C
1712 25-04-2016 22:35:00 6.2 C 90 % 4.69 C
1713 25-04-2016 22:40:00 6.2 C 90 % 4.69 C
1714 25-04-2016 22:45:00 6.2 C 90 % 4.69 C
1715 25-04-2016 22:50:00 6.2 C 91 % 4.84 C
1716 25-04-2016 22:55:00 6.2 C 91 % 4.84 C
1717 25-04-2016 23:00:00 6.2 C 92 % 5 C
1718 25-04-2016 23:05:00 6.1 C 92 % 4.9 C
1719 25-04-2016 23:10:00 6.1 C 92 % 4.9 C
1720 25-04-2016 23:15:00 5.9 C 91 % 4.55 C
1721 25-04-2016 23:20:00 5.2 C 89 % 3.54 C
1722 25-04-2016 23:25:00 4.7 C 90 % 3.2 C
1723 25-04-2016 23:30:00 4.3 C 91 % 2.96 C
1724 25-04-2016 23:35:00 4.2 C 91 % 2.87 C
1725 25-04-2016 23:40:00 4.1 C 92 % 2.92 C
Sensor: Nr:Datum:Temp:Feuchte:Taupunkt:
Aussen-T/F 1726 25-04-2016 23:45:00 4 C 92 % 2.82 C
1727 25-04-2016 23:50:00 3.9 C 92 % 2.72 C
1728 25-04-2016 23:55:00 3.9 C 92 % 2.72 C
1729 26-04-2016 00:00:00 3.9 C 92 % 2.72 C
1730 26-04-2016 00:05:00 3.8 C 93 % 2.77 C
1731 26-04-2016 00:10:00 3.9 C 93 % 2.87 C
1732 26-04-2016 00:15:00 3.8 C 93 % 2.77 C
1733 26-04-2016 00:20:00 3.8 C 93 % 2.77 C
1734 26-04-2016 00:25:00 3.8 C 93 % 2.77 C
1735 26-04-2016 00:30:00 3.8 C 93 % 2.77 C
1736 26-04-2016 00:35:00 3.8 C 94 % 2.93 C
1737 26-04-2016 00:40:00 3.7 C 94 % 2.83 C
1738 26-04-2016 00:45:00 3.7 C 94 % 2.83 C
1739 26-04-2016 00:50:00 3.7 C 94 % 2.83 C
1740 26-04-2016 00:55:00 3.7 C 94 % 2.83 C
1741 26-04-2016 01:00:00 3.7 C 94 % 2.83 C
1742 26-04-2016 01:05:00 3.7 C 94 % 2.83 C
1743 26-04-2016 01:10:00 3.7 C 94 % 2.83 C
1744 26-04-2016 01:15:00 3.7 C 94 % 2.83 C
1745 26-04-2016 01:20:00 3.7 C 94 % 2.83 C
1746 26-04-2016 01:25:00 3.7 C 94 % 2.83 C
1747 26-04-2016 01:30:00 3.7 C 94 % 2.83 C
1748 26-04-2016 01:35:00 3.7 C 95 % 2.98 C
1749 26-04-2016 01:40:00 3.7 C 95 % 2.98 C
1750 26-04-2016 01:45:00 3.7 C 95 % 2.98 C
Sensor: Nr:Datum:Temp:Feuchte:Taupunkt:
Aussen-T/F 1751 26-04-2016 01:50:00 3.7 C 95 % 2.98 C
1752 26-04-2016 01:55:00 3.7 C 95 % 2.98 C
1753 26-04-2016 02:00:00 3.7 C 95 % 2.98 C
1754 26-04-2016 02:05:00 3.7 C 95 % 2.98 C
1755 26-04-2016 02:10:00 3.7 C 95 % 2.98 C
1756 26-04-2016 02:15:00 3.7 C 95 % 2.98 C
1757 26-04-2016 02:20:00 3.7 C 95 % 2.98 C
1758 26-04-2016 02:25:00 3.7 C 95 % 2.98 C
1759 26-04-2016 02:30:00 3.7 C 95 % 2.98 C
1760 26-04-2016 02:35:00 3.7 C 95 % 2.98 C
1761 26-04-2016 02:40:00 3.7 C 95 % 2.98 C
1762 26-04-2016 02:45:00 3.7 C 95 % 2.98 C
1763 26-04-2016 02:50:00 3.7 C 95 % 2.98 C
1764 26-04-2016 02:55:00 3.8 C 95 % 3.07 C
1765 26-04-2016 03:00:00 3.8 C 95 % 3.07 C
1766 26-04-2016 03:05:00 3.8 C 95 % 3.07 C
1767 26-04-2016 03:10:00 3.8 C 95 % 3.07 C
1768 26-04-2016 03:15:00 3.7 C 95 % 2.98 C
1769 26-04-2016 03:20:00 3.5 C 95 % 2.78 C
1770 26-04-2016 03:25:00 3.2 C 94 % 2.33 C
1771 26-04-2016 03:30:00 2.9 C 94 % 2.03 C
1772 26-04-2016 03:35:00 2.7 C 93 % 1.68 C
1773 26-04-2016 03:40:00 2.6 C 93 % 1.59 C
1774 26-04-2016 03:45:00 2.5 C 93 % 1.49 C
1775 26-04-2016 03:50:00 2.4 C 93 % 1.39 C
Sensor: Nr:Datum:Temp:Feuchte:Taupunkt:
Aussen-T/F 1776 26-04-2016 03:55:00 2.3 C 93 % 1.29 C
1777 26-04-2016 04:00:00 2.3 C 94 % 1.44 C
1778 26-04-2016 04:05:00 2.3 C 94 % 1.44 C
1779 26-04-2016 04:10:00 2.3 C 94 % 1.44 C
1780 26-04-2016 04:15:00 2.4 C 94 % 1.54 C
1781 26-04-2016 04:20:00 2.3 C 94 % 1.44 C
1782 26-04-2016 04:25:00 2.3 C 94 % 1.44 C
1783 26-04-2016 04:30:00 2.3 C 94 % 1.44 C
1784 26-04-2016 04:35:00 2.3 C 94 % 1.44 C
1785 26-04-2016 04:40:00 2.3 C 94 % 1.44 C
1786 26-04-2016 04:45:00 2.3 C 94 % 1.44 C
1787 26-04-2016 04:50:00 2.3 C 94 % 1.44 C
1788 26-04-2016 04:55:00 2.3 C 95 % 1.58 C
1789 26-04-2016 05:00:00 2.3 C 95 % 1.58 C
1790 26-04-2016 05:05:00 2.3 C 95 % 1.58 C
1791 26-04-2016 05:10:00 2.2 C 95 % 1.48 C
1792 26-04-2016 05:15:00 2.2 C 95 % 1.48 C
1793 26-04-2016 05:20:00 2.2 C 95 % 1.48 C
1794 26-04-2016 05:25:00 2.2 C 95 % 1.48 C
1795 26-04-2016 05:30:00 2.1 C 95 % 1.38 C
1796 26-04-2016 05:35:00 2.1 C 95 % 1.38 C
1797 26-04-2016 05:40:00 2.1 C 95 % 1.38 C
1798 26-04-2016 05:45:00 2.1 C 95 % 1.38 C
1799 26-04-2016 05:50:00 2.1 C 95 % 1.38 C
1800 26-04-2016 05:55:00 2 C 95 % 1.29 C
Sensor: Nr:Datum:Temp:Feuchte:Taupunkt:
Aussen-T/F 1801 26-04-2016 06:00:00 2 C 95 % 1.29 C
1802 26-04-2016 06:05:00 2 C 95 % 1.29 C
1803 26-04-2016 06:10:00 2 C 95 % 1.29 C
1804 26-04-2016 06:15:00 2 C 95 % 1.29 C
1805 26-04-2016 06:20:00 1.9 C 95 % 1.19 C
1806 26-04-2016 06:25:00 1.9 C 95 % 1.19 C
1807 26-04-2016 06:30:00 1.9 C 95 % 1.19 C
1808 26-04-2016 06:35:00 1.9 C 95 % 1.19 C
1809 26-04-2016 06:40:00 1.8 C 95 % 1.09 C
1810 26-04-2016 06:45:00 1.8 C 95 % 1.09 C
1811 26-04-2016 06:50:00 1.7 C 95 % 0.99 C
1812 26-04-2016 06:55:00 1.7 C 95 % 0.99 C
1813 26-04-2016 07:00:00 1.7 C 95 % 0.99 C
1814 26-04-2016 07:05:00 1.6 C 95 % 0.89 C
1815 26-04-2016 07:10:00 1.7 C 95 % 0.99 C
1816 26-04-2016 07:15:00 1.8 C 95 % 1.09 C
1817 26-04-2016 07:20:00 1.9 C 96 % 1.33 C
1818 26-04-2016 07:25:00 2.1 C 96 % 1.53 C
1819 26-04-2016 07:30:00 2.1 C 96 % 1.53 C
1820 26-04-2016 07:35:00 2.2 C 95 % 1.48 C
1821 26-04-2016 07:40:00 2.2 C 96 % 1.63 C
1822 26-04-2016 07:45:00 2.2 C 96 % 1.63 C
1823 26-04-2016 07:50:00 2.2 C 95 % 1.48 C
1824 26-04-2016 07:55:00 2.1 C 95 % 1.38 C
1825 26-04-2016 08:00:00 2.1 C 95 % 1.38 C
Sensor: Nr:Datum:Temp:Feuchte:Taupunkt:
Aussen-T/F 1826 26-04-2016 08:05:00 2 C 95 % 1.29 C
1827 26-04-2016 08:10:00 1.9 C 95 % 1.19 C
1828 26-04-2016 08:15:00 1.9 C 95 % 1.19 C
1829 26-04-2016 08:20:00 1.9 C 95 % 1.19 C
1830 26-04-2016 08:25:00 2 C 95 % 1.29 C
1831 26-04-2016 08:30:00 2.1 C 95 % 1.38 C
1832 26-04-2016 08:35:00 2.2 C 96 % 1.63 C
1833 26-04-2016 08:40:00 2.3 C 96 % 1.73 C
1834 26-04-2016 08:45:00 2.4 C 95 % 1.68 C
1835 26-04-2016 08:50:00 2.7 C 96 % 2.13 C
1836 26-04-2016 08:55:00 2.9 C 95 % 2.18 C
1837 26-04-2016 09:00:00 3.1 C 95 % 2.38 C
1838 26-04-2016 09:05:00 3.2 C 94 % 2.33 C
1839 26-04-2016 09:10:00 3.4 C 93 % 2.38 C
1840 26-04-2016 09:15:00 3.5 C 92 % 2.33 C
1841 26-04-2016 09:20:00 3.6 C 91 % 2.27 C
1842 26-04-2016 09:25:00 3.7 C 89 % 2.06 C
1843 26-04-2016 09:30:00 3.7 C 87 % 1.74 C
1844 26-04-2016 09:35:00 3.7 C 85 % 1.42 C
1845 26-04-2016 09:40:00 3.8 C 85 % 1.52 C
1846 26-04-2016 09:45:00 4 C 84 % 1.55 C
1847 26-04-2016 09:50:00 4.1 C 83 % 1.48 C
1848 26-04-2016 09:55:00 4.2 C 83 % 1.58 C
1849 26-04-2016 10:00:00 4.4 C 83 % 1.77 C
1850 26-04-2016 10:05:00 4.6 C 80 % 1.46 C
Sensor: Nr:Datum:Temp:Feuchte:Taupunkt:
Aussen-T/F 1851 26-04-2016 10:10:00 4.8 C 79 % 1.47 C
1852 26-04-2016 10:15:00 4.9 C 78 % 1.39 C
1853 26-04-2016 10:20:00 5 C 78 % 1.49 C
1854 26-04-2016 10:25:00 5.2 C 78 % 1.69 C
1855 26-04-2016 10:30:00 5.2 C 76 % 1.32 C
1856 26-04-2016 10:35:00 5.3 C 76 % 1.42 C
1857 26-04-2016 10:40:00 5.3 C 75 % 1.24 C
1858 26-04-2016 10:45:00 5.3 C 74 % 1.05 C
1859 26-04-2016 10:50:00 5.4 C 75 % 1.33 C
1860 26-04-2016 10:55:00 5.8 C 75 % 1.72 C
1861 26-04-2016 11:00:00 5.9 C 72 % 1.25 C
1862 26-04-2016 11:05:00 5.8 C 72 % 1.15 C
1863 26-04-2016 11:10:00 5.7 C 73 % 1.25 C
1864 26-04-2016 11:15:00 5.7 C 71 % 0.86 C
1865 26-04-2016 11:20:00 5.7 C 73 % 1.25 C
1866 26-04-2016 11:25:00 5.8 C 72 % 1.15 C
1867 26-04-2016 11:30:00 5.9 C 72 % 1.25 C
1868 26-04-2016 11:35:00 5.9 C 71 % 1.06 C
1869 26-04-2016 11:40:00 5.9 C 71 % 1.06 C
1870 26-04-2016 11:45:00 6.1 C 71 % 1.25 C
1871 26-04-2016 11:50:00 6.2 C 71 % 1.34 C
1872 26-04-2016 11:55:00 6.3 C 69 % 1.04 C
1873 26-04-2016 12:00:00 6.2 C 68 % 0.75 C
1874 26-04-2016 12:05:00 6.4 C 70 % 1.34 C
1875 26-04-2016 12:10:00 6.7 C 69 % 1.43 C
Sensor: Nr:Datum:Temp:Feuchte:Taupunkt:
Aussen-T/F 1876 26-04-2016 12:15:00 6.9 C 65 % 0.79 C
1877 26-04-2016 12:20:00 6.9 C 65 % 0.79 C
1878 26-04-2016 12:25:00 6.9 C 64 % 0.57 C
1879 26-04-2016 12:30:00 6.9 C 65 % 0.79 C
1880 26-04-2016 12:35:00 6.9 C 65 % 0.79 C
1881 26-04-2016 12:40:00 6.9 C 66 % 1 C
1882 26-04-2016 12:45:00 6.9 C 64 % 0.57 C
1883 26-04-2016 12:50:00 6.9 C 65 % 0.79 C
1884 26-04-2016 12:55:00 6.9 C 66 % 1 C
1885 26-04-2016 13:00:00 6.9 C 65 % 0.79 C
1886 26-04-2016 13:05:00 7 C 66 % 1.09 C
1887 26-04-2016 13:10:00 7.2 C 66 % 1.29 C
1888 26-04-2016 13:15:00 7.3 C 65 % 1.17 C
1889 26-04-2016 13:20:00 7.3 C 65 % 1.17 C
1890 26-04-2016 13:25:00 7.3 C 65 % 1.17 C
1891 26-04-2016 13:30:00 7.2 C 65 % 1.07 C
1892 26-04-2016 13:35:00 7.2 C 66 % 1.29 C
1893 26-04-2016 13:40:00 7.3 C 66 % 1.38 C
1894 26-04-2016 13:45:00 7.3 C 65 % 1.17 C
1895 26-04-2016 13:50:00 7.3 C 65 % 1.17 C
1896 26-04-2016 13:55:00 7.3 C 66 % 1.38 C
1897 26-04-2016 14:00:00 7.3 C 67 % 1.59 C
1898 26-04-2016 14:05:00 7.4 C 65 % 1.26 C
1899 26-04-2016 14:10:00 7.4 C 67 % 1.69 C
1900 26-04-2016 14:15:00 7.3 C 67 % 1.59 C
Sensor: Nr:Datum:Temp:Feuchte:Taupunkt:
Aussen-T/F 1901 26-04-2016 14:20:00 7.5 C 67 % 1.78 C
1902 26-04-2016 14:25:00 7.7 C 68 % 2.18 C
1903 26-04-2016 14:30:00 7.7 C 67 % 1.97 C
1904 26-04-2016 14:35:00 7.4 C 67 % 1.69 C
1905 26-04-2016 14:40:00 7.4 C 69 % 2.1 C
1906 26-04-2016 14:45:00 7.4 C 68 % 1.89 C
1907 26-04-2016 14:50:00 7.4 C 69 % 2.1 C
1908 26-04-2016 14:55:00 7.6 C 69 % 2.29 C
1909 26-04-2016 15:00:00 7.9 C 69 % 2.57 C
1910 26-04-2016 15:05:00 7.9 C 67 % 2.16 C
1911 26-04-2016 15:10:00 7.5 C 69 % 2.19 C
1912 26-04-2016 15:15:00 7.1 C 71 % 2.21 C
1913 26-04-2016 15:20:00 7.1 C 74 % 2.79 C
1914 26-04-2016 15:25:00 7.1 C 72 % 2.4 C
1915 26-04-2016 15:30:00 6.1 C 78 % 2.56 C
1916 26-04-2016 15:35:00 4.8 C 81 % 1.82 C
1917 26-04-2016 15:40:00 4.2 C 85 % 1.91 C
1918 26-04-2016 15:45:00 3.9 C 88 % 2.1 C
1919 26-04-2016 15:50:00 4 C 90 % 2.51 C
1920 26-04-2016 15:55:00 4.3 C 92 % 3.12 C
1921 26-04-2016 16:00:00 4.8 C 93 % 3.77 C
1922 26-04-2016 16:05:00 4.8 C 91 % 3.46 C
1923 26-04-2016 16:10:00 4.7 C 90 % 3.2 C
1924 26-04-2016 16:15:00 4.8 C 90 % 3.3 C
1925 26-04-2016 16:20:00 4.8 C 90 % 3.3 C
Sensor: Nr:Datum:Temp:Feuchte:Taupunkt:
Aussen-T/F 1926 26-04-2016 16:25:00 5.1 C 90 % 3.6 C
1927 26-04-2016 16:30:00 5.6 C 92 % 4.41 C
1928 26-04-2016 16:35:00 6.5 C 91 % 5.14 C
1929 26-04-2016 16:40:00 6.8 C 85 % 4.46 C
1930 26-04-2016 16:45:00 6.7 C 84 % 4.19 C
1931 26-04-2016 16:50:00 6.6 C 85 % 4.26 C
1932 26-04-2016 16:55:00 6.6 C 84 % 4.1 C
1933 26-04-2016 17:00:00 6.6 C 84 % 4.1 C
1934 26-04-2016 17:05:00 6.7 C 81 % 3.68 C
1935 26-04-2016 17:10:00 7.1 C 83 % 4.41 C
1936 26-04-2016 17:15:00 7.4 C 81 % 4.36 C
1937 26-04-2016 17:20:00 8 C 79 % 4.59 C
1938 26-04-2016 17:25:00 8.3 C 74 % 3.95 C
1939 26-04-2016 17:30:00 8.2 C 69 % 2.86 C
1940 26-04-2016 17:35:00 7.9 C 67 % 2.16 C
1941 26-04-2016 17:40:00 7.7 C 68 % 2.18 C
1942 26-04-2016 17:45:00 7.4 C 68 % 1.89 C
1943 26-04-2016 17:50:00 7.1 C 70 % 2.01 C
1944 26-04-2016 17:55:00 6.8 C 72 % 2.12 C
1945 26-04-2016 18:00:00 6.8 C 73 % 2.31 C
1946 26-04-2016 18:05:00 6.8 C 75 % 2.69 C
1947 26-04-2016 18:10:00 6.8 C 73 % 2.31 C
1948 26-04-2016 18:15:00 6.9 C 74 % 2.6 C
1949 26-04-2016 18:20:00 7 C 74 % 2.69 C
1950 26-04-2016 18:25:00 7.1 C 74 % 2.79 C
Sensor: Nr:Datum:Temp:Feuchte:Taupunkt:
Aussen-T/F 1951 26-04-2016 18:30:00 7.1 C 72 % 2.4 C
1952 26-04-2016 18:35:00 7.1 C 72 % 2.4 C
1953 26-04-2016 18:40:00 7.1 C 70 % 2.01 C
1954 26-04-2016 18:45:00 7 C 71 % 2.11 C
1955 26-04-2016 18:50:00 6.8 C 70 % 1.72 C
1956 26-04-2016 18:55:00 6.7 C 70 % 1.63 C
1957 26-04-2016 19:00:00 6.8 C 71 % 1.92 C
1958 26-04-2016 19:05:00 6.8 C 71 % 1.92 C
1959 26-04-2016 19:10:00 6.7 C 71 % 1.82 C
1960 26-04-2016 19:15:00 6.5 C 72 % 1.83 C
1961 26-04-2016 19:20:00 6.4 C 73 % 1.92 C
1962 26-04-2016 19:25:00 6.3 C 72 % 1.63 C
1963 26-04-2016 19:30:00 6.3 C 74 % 2.02 C
1964 26-04-2016 19:35:00 6.3 C 74 % 2.02 C
1965 26-04-2016 19:40:00 6.4 C 73 % 1.92 C
1966 26-04-2016 19:45:00 6.6 C 73 % 2.12 C
1967 26-04-2016 19:50:00 6.5 C 73 % 2.02 C
1968 26-04-2016 19:55:00 6.4 C 72 % 1.73 C
1969 26-04-2016 20:00:00 6.3 C 72 % 1.63 C
1970 26-04-2016 20:05:00 6.1 C 70 % 1.05 C
1971 26-04-2016 20:10:00 5.9 C 71 % 1.06 C
1972 26-04-2016 20:15:00 5.8 C 72 % 1.15 C
1973 26-04-2016 20:20:00 5.7 C 72 % 1.06 C
1974 26-04-2016 20:25:00 5.6 C 73 % 1.15 C
1975 26-04-2016 20:30:00 5.4 C 74 % 1.15 C
Sensor: Nr:Datum:Temp:Feuchte:Taupunkt:
Aussen-T/F 1976 26-04-2016 20:35:00 5.3 C 74 % 1.05 C
1977 26-04-2016 20:40:00 5.3 C 73 % 0.86 C
1978 26-04-2016 20:45:00 5.3 C 74 % 1.05 C
1979 26-04-2016 20:50:00 5.2 C 75 % 1.14 C
1980 26-04-2016 20:55:00 5.1 C 76 % 1.23 C
1981 26-04-2016 21:00:00 4.9 C 76 % 1.03 C
1982 26-04-2016 21:05:00 4.8 C 77 % 1.12 C
1983 26-04-2016 21:10:00 4.7 C 78 % 1.2 C
1984 26-04-2016 21:15:00 4.5 C 78 % 1.01 C
1985 26-04-2016 21:20:00 4.4 C 78 % 0.91 C
1986 26-04-2016 21:25:00 4.3 C 79 % 0.99 C
1987 26-04-2016 21:30:00 4.2 C 79 % 0.89 C
1988 26-04-2016 21:35:00 4.2 C 79 % 0.89 C
1989 26-04-2016 21:40:00 4.1 C 80 % 0.97 C
1990 26-04-2016 21:45:00 4 C 80 % 0.87 C
1991 26-04-2016 21:50:00 3.9 C 80 % 0.77 C
1992 26-04-2016 21:55:00 3.8 C 80 % 0.68 C
1993 26-04-2016 22:00:00 3.8 C 81 % 0.85 C
1994 26-04-2016 22:05:00 3.8 C 81 % 0.85 C
1995 26-04-2016 22:10:00 3.8 C 81 % 0.85 C
1996 26-04-2016 22:15:00 3.8 C 81 % 0.85 C
1997 26-04-2016 22:20:00 3.8 C 81 % 0.85 C
1998 26-04-2016 22:25:00 3.7 C 81 % 0.75 C
1999 26-04-2016 22:30:00 3.7 C 81 % 0.75 C
2000 26-04-2016 22:35:00 3.6 C 82 % 0.82 C
Sensor: Nr:Datum:Temp:Feuchte:Taupunkt:
Aussen-T/F 2001 26-04-2016 22:40:00 3.5 C 83 % 0.89 C
2002 26-04-2016 22:45:00 3.4 C 83 % 0.79 C
2003 26-04-2016 22:50:00 3.3 C 83 % 0.7 C
2004 26-04-2016 22:55:00 3.3 C 84 % 0.86 C
2005 26-04-2016 23:00:00 3.2 C 84 % 0.76 C
2006 26-04-2016 23:05:00 3.2 C 84 % 0.76 C
2007 26-04-2016 23:10:00 3.1 C 85 % 0.83 C
2008 26-04-2016 23:15:00 3.1 C 84 % 0.67 C
2009 26-04-2016 23:20:00 3.1 C 84 % 0.67 C
2010 26-04-2016 23:25:00 3.2 C 83 % 0.6 C
2011 26-04-2016 23:30:00 3.3 C 83 % 0.7 C
2012 26-04-2016 23:35:00 3.4 C 82 % 0.63 C
2013 26-04-2016 23:40:00 3.4 C 82 % 0.63 C
2014 26-04-2016 23:45:00 3.4 C 82 % 0.63 C
2015 26-04-2016 23:50:00 3.3 C 82 % 0.53 C
2016 26-04-2016 23:55:00 3.3 C 82 % 0.53 C
2017 27-04-2016 00:00:00 3.3 C 82 % 0.53 C
2018 27-04-2016 00:05:00 3.3 C 82 % 0.53 C
2019 27-04-2016 00:10:00 3.3 C 82 % 0.53 C
2020 27-04-2016 00:15:00 3.2 C 83 % 0.6 C
2021 27-04-2016 00:20:00 3.2 C 83 % 0.6 C
2022 27-04-2016 00:25:00 3.1 C 83 % 0.5 C
2023 27-04-2016 00:30:00 3.2 C 83 % 0.6 C
2024 27-04-2016 00:35:00 3.2 C 83 % 0.6 C
2025 27-04-2016 00:40:00 3.2 C 83 % 0.6 C
Sensor: Nr:Datum:Temp:Feuchte:Taupunkt:
Aussen-T/F 2026 27-04-2016 00:45:00 3.2 C 83 % 0.6 C
2027 27-04-2016 00:50:00 3.3 C 83 % 0.7 C
2028 27-04-2016 00:55:00 3.3 C 82 % 0.53 C
2029 27-04-2016 01:00:00 3.4 C 82 % 0.63 C
2030 27-04-2016 01:05:00 3.5 C 81 % 0.55 C
2031 27-04-2016 01:10:00 3.5 C 82 % 0.72 C
2032 27-04-2016 01:15:00 3.5 C 81 % 0.55 C
2033 27-04-2016 01:20:00 3.5 C 81 % 0.55 C
2034 27-04-2016 01:25:00 3.5 C 81 % 0.55 C
2035 27-04-2016 01:30:00 3.4 C 82 % 0.63 C
2036 27-04-2016 01:35:00 3.4 C 82 % 0.63 C
2037 27-04-2016 01:40:00 3.4 C 83 % 0.79 C
2038 27-04-2016 01:45:00 3.3 C 83 % 0.7 C
2039 27-04-2016 01:50:00 3.3 C 83 % 0.7 C
2040 27-04-2016 01:55:00 3.3 C 84 % 0.86 C
2041 27-04-2016 02:00:00 3.3 C 84 % 0.86 C
2042 27-04-2016 02:05:00 3.3 C 84 % 0.86 C
2043 27-04-2016 02:10:00 3.3 C 84 % 0.86 C
2044 27-04-2016 02:15:00 3.3 C 84 % 0.86 C
2045 27-04-2016 02:20:00 3.4 C 84 % 0.96 C
2046 27-04-2016 02:25:00 3.4 C 83 % 0.79 C
2047 27-04-2016 02:30:00 3.6 C 83 % 0.99 C
2048 27-04-2016 02:35:00 3.6 C 82 % 0.82 C
2049 27-04-2016 02:40:00 3.7 C 81 % 0.75 C
2050 27-04-2016 02:45:00 3.7 C 81 % 0.75 C
Sensor: Nr:Datum:Temp:Feuchte:Taupunkt:
Aussen-T/F 2051 27-04-2016 02:50:00 3.7 C 82 % 0.92 C
2052 27-04-2016 02:55:00 3.7 C 81 % 0.75 C
2053 27-04-2016 03:00:00 3.8 C 81 % 0.85 C
2054 27-04-2016 03:05:00 3.8 C 81 % 0.85 C
2055 27-04-2016 03:10:00 3.8 C 82 % 1.02 C
2056 27-04-2016 03:15:00 3.7 C 81 % 0.75 C
2057 27-04-2016 03:20:00 3.7 C 82 % 0.92 C
2058 27-04-2016 03:25:00 3.7 C 82 % 0.92 C
2059 27-04-2016 03:30:00 3.6 C 82 % 0.82 C
2060 27-04-2016 03:35:00 3.6 C 82 % 0.82 C
2061 27-04-2016 03:40:00 3.6 C 82 % 0.82 C
2062 27-04-2016 03:45:00 3.6 C 82 % 0.82 C
2063 27-04-2016 03:50:00 3.7 C 82 % 0.92 C
2064 27-04-2016 03:55:00 3.6 C 82 % 0.82 C
2065 27-04-2016 04:00:00 3.6 C 82 % 0.82 C
2066 27-04-2016 04:05:00 3.6 C 82 % 0.82 C
2067 27-04-2016 04:10:00 3.6 C 83 % 0.99 C
2068 27-04-2016 04:15:00 3.6 C 83 % 0.99 C
2069 27-04-2016 04:20:00 3.7 C 82 % 0.92 C
2070 27-04-2016 04:25:00 3.7 C 82 % 0.92 C
2071 27-04-2016 04:30:00 3.7 C 82 % 0.92 C
2072 27-04-2016 04:35:00 3.7 C 82 % 0.92 C
2073 27-04-2016 04:40:00 3.7 C 82 % 0.92 C
2074 27-04-2016 04:45:00 3.7 C 81 % 0.75 C
2075 27-04-2016 04:50:00 3.7 C 82 % 0.92 C
Sensor: Nr:Datum:Temp:Feuchte:Taupunkt:
Aussen-T/F 2076 27-04-2016 04:55:00 3.8 C 82 % 1.02 C
2077 27-04-2016 05:00:00 3.8 C 82 % 1.02 C
2078 27-04-2016 05:05:00 3.8 C 82 % 1.02 C
2079 27-04-2016 05:10:00 3.8 C 81 % 0.85 C
2080 27-04-2016 05:15:00 3.8 C 81 % 0.85 C
2081 27-04-2016 05:20:00 3.8 C 81 % 0.85 C
2082 27-04-2016 05:25:00 3.8 C 81 % 0.85 C
2083 27-04-2016 05:30:00 3.8 C 81 % 0.85 C
2084 27-04-2016 05:35:00 3.8 C 81 % 0.85 C
2085 27-04-2016 05:40:00 3.8 C 81 % 0.85 C
2086 27-04-2016 05:45:00 3.8 C 81 % 0.85 C
2087 27-04-2016 05:50:00 3.7 C 81 % 0.75 C
2088 27-04-2016 05:55:00 3.7 C 81 % 0.75 C
2089 27-04-2016 06:00:00 3.7 C 80 % 0.58 C
2090 27-04-2016 06:05:00 3.8 C 80 % 0.68 C
2091 27-04-2016 06:10:00 3.8 C 80 % 0.68 C
2092 27-04-2016 06:15:00 3.8 C 80 % 0.68 C
2093 27-04-2016 06:20:00 3.8 C 80 % 0.68 C
2094 27-04-2016 06:25:00 3.8 C 80 % 0.68 C
2095 27-04-2016 06:30:00 3.8 C 80 % 0.68 C
2096 27-04-2016 06:35:00 3.8 C 80 % 0.68 C
2097 27-04-2016 06:40:00 3.9 C 80 % 0.77 C
2098 27-04-2016 06:45:00 3.9 C 80 % 0.77 C
2099 27-04-2016 06:50:00 3.9 C 80 % 0.77 C
2100 27-04-2016 06:55:00 3.9 C 80 % 0.77 C
Sensor: Nr:Datum:Temp:Feuchte:Taupunkt:
Aussen-T/F 2101 27-04-2016 07:00:00 3.8 C 80 % 0.68 C
2102 27-04-2016 07:05:00 3.8 C 80 % 0.68 C
2103 27-04-2016 07:10:00 3.7 C 80 % 0.58 C
2104 27-04-2016 07:15:00 3.7 C 81 % 0.75 C
2105 27-04-2016 07:20:00 3.8 C 81 % 0.85 C
2106 27-04-2016 07:25:00 3.8 C 81 % 0.85 C
2107 27-04-2016 07:30:00 3.8 C 80 % 0.68 C
2108 27-04-2016 07:35:00 3.9 C 80 % 0.77 C
2109 27-04-2016 07:40:00 4 C 80 % 0.87 C
2110 27-04-2016 07:45:00 4.1 C 80 % 0.97 C
2111 27-04-2016 07:50:00 4.1 C 80 % 0.97 C
2112 27-04-2016 07:55:00 4.2 C 79 % 0.89 C
2113 27-04-2016 08:00:00 4.2 C 79 % 0.89 C
2114 27-04-2016 08:05:00 4.3 C 79 % 0.99 C
2115 27-04-2016 08:10:00 4.4 C 79 % 1.09 C
2116 27-04-2016 08:15:00 4.5 C 78 % 1.01 C
2117 27-04-2016 08:20:00 4.6 C 78 % 1.1 C
2118 27-04-2016 08:25:00 4.7 C 78 % 1.2 C
2119 27-04-2016 08:30:00 4.7 C 78 % 1.2 C
2120 27-04-2016 08:35:00 4.8 C 78 % 1.3 C
2121 27-04-2016 08:40:00 4.9 C 78 % 1.39 C
2122 27-04-2016 08:45:00 5 C 78 % 1.49 C
2123 27-04-2016 08:50:00 5.1 C 77 % 1.41 C
2124 27-04-2016 08:55:00 5.2 C 76 % 1.32 C
2125 27-04-2016 09:00:00 5.2 C 77 % 1.51 C
Sensor: Nr:Datum:Temp:Feuchte:Taupunkt:
Aussen-T/F 2126 27-04-2016 09:05:00 5.3 C 76 % 1.42 C
2127 27-04-2016 09:10:00 5.3 C 77 % 1.6 C
2128 27-04-2016 09:15:00 5.4 C 77 % 1.7 C
2129 27-04-2016 09:20:00 5.6 C 77 % 1.89 C
2130 27-04-2016 09:25:00 5.7 C 76 % 1.81 C
2131 27-04-2016 09:30:00 5.7 C 75 % 1.62 C
2132 27-04-2016 09:35:00 5.7 C 76 % 1.81 C
2133 27-04-2016 09:40:00 5.7 C 75 % 1.62 C
2134 27-04-2016 09:45:00 5.6 C 76 % 1.71 C
2135 27-04-2016 09:50:00 5.4 C 76 % 1.52 C
2136 27-04-2016 09:55:00 5.3 C 79 % 1.96 C
2137 27-04-2016 10:00:00 5.2 C 81 % 2.21 C
2138 27-04-2016 10:05:00 5 C 81 % 2.02 C
2139 27-04-2016 10:10:00 4.8 C 82 % 1.99 C
2140 27-04-2016 10:15:00 4.8 C 84 % 2.33 C
2141 27-04-2016 10:20:00 4.8 C 84 % 2.33 C
2142 27-04-2016 10:25:00 4.8 C 84 % 2.33 C
2143 27-04-2016 10:30:00 4.7 C 86 % 2.56 C
2144 27-04-2016 10:35:00 4.7 C 86 % 2.56 C
2145 27-04-2016 10:40:00 4.7 C 86 % 2.56 C
2146 27-04-2016 10:45:00 4.7 C 86 % 2.56 C
2147 27-04-2016 10:50:00 4.8 C 86 % 2.66 C
2148 27-04-2016 10:55:00 4.9 C 87 % 2.92 C
2149 27-04-2016 11:00:00 5 C 85 % 2.69 C
2150 27-04-2016 11:05:00 5.1 C 85 % 2.79 C
Sensor: Nr:Datum:Temp:Feuchte:Taupunkt:
Aussen-T/F 2151 27-04-2016 11:10:00 5.1 C 83 % 2.46 C
2152 27-04-2016 11:15:00 5.1 C 84 % 2.63 C
2153 27-04-2016 11:20:00 5.1 C 84 % 2.63 C
2154 27-04-2016 11:25:00 5.1 C 83 % 2.46 C
2155 27-04-2016 11:30:00 5.1 C 83 % 2.46 C
2156 27-04-2016 11:35:00 5.2 C 84 % 2.72 C
2157 27-04-2016 11:40:00 5.2 C 83 % 2.56 C
2158 27-04-2016 11:45:00 5.3 C 84 % 2.82 C
2159 27-04-2016 11:50:00 5.4 C 83 % 2.75 C
2160 27-04-2016 11:55:00 5.5 C 82 % 2.68 C
2161 27-04-2016 12:00:00 5.6 C 82 % 2.78 C
2162 27-04-2016 12:05:00 5.6 C 82 % 2.78 C
2163 27-04-2016 12:10:00 5.7 C 83 % 3.04 C
2164 27-04-2016 12:15:00 5.8 C 82 % 2.97 C
2165 27-04-2016 12:20:00 5.8 C 82 % 2.97 C
2166 27-04-2016 12:25:00 5.7 C 82 % 2.87 C
2167 27-04-2016 12:30:00 5.7 C 83 % 3.04 C
2168 27-04-2016 12:35:00 5.7 C 85 % 3.38 C
2169 27-04-2016 12:40:00 5.7 C 84 % 3.21 C
2170 27-04-2016 12:45:00 5.7 C 85 % 3.38 C
2171 27-04-2016 12:50:00 5.8 C 85 % 3.48 C
2172 27-04-2016 12:55:00 6.1 C 83 % 3.44 C
2173 27-04-2016 13:00:00 6.3 C 83 % 3.63 C
2174 27-04-2016 13:05:00 6.5 C 82 % 3.66 C
2175 27-04-2016 13:10:00 6.7 C 81 % 3.68 C
Sensor: Nr:Datum:Temp:Feuchte:Taupunkt:
Aussen-T/F 2176 27-04-2016 13:15:00 6.9 C 80 % 3.7 C
2177 27-04-2016 13:20:00 6.9 C 79 % 3.52 C
2178 27-04-2016 13:25:00 6.9 C 79 % 3.52 C
2179 27-04-2016 13:30:00 7 C 80 % 3.79 C
2180 27-04-2016 13:35:00 7.1 C 78 % 3.53 C
2181 27-04-2016 13:40:00 7.1 C 78 % 3.53 C
2182 27-04-2016 13:45:00 7.1 C 78 % 3.53 C
2183 27-04-2016 13:50:00 7.1 C 78 % 3.53 C
2184 27-04-2016 13:55:00 7.2 C 79 % 3.81 C
2185 27-04-2016 14:00:00 7.2 C 78 % 3.63 C
2186 27-04-2016 14:05:00 7.3 C 78 % 3.73 C
2187 27-04-2016 14:10:00 7.5 C 77 % 3.74 C
2188 27-04-2016 14:15:00 7.5 C 77 % 3.74 C
2189 27-04-2016 14:20:00 7.4 C 76 % 3.45 C
2190 27-04-2016 14:25:00 7.3 C 78 % 3.73 C
2191 27-04-2016 14:30:00 7.3 C 78 % 3.73 C
2192 27-04-2016 14:35:00 7.3 C 78 % 3.73 C
2193 27-04-2016 14:40:00 7.2 C 78 % 3.63 C
2194 27-04-2016 14:45:00 7.2 C 80 % 3.99 C
2195 27-04-2016 14:50:00 7.4 C 80 % 4.18 C
2196 27-04-2016 14:55:00 7.7 C 79 % 4.3 C
2197 27-04-2016 15:00:00 7.8 C 76 % 3.84 C
2198 27-04-2016 15:05:00 7.9 C 76 % 3.94 C
2199 27-04-2016 15:10:00 8.1 C 73 % 3.56 C
2200 27-04-2016 15:15:00 8.1 C 74 % 3.75 C
Sensor: Nr:Datum:Temp:Feuchte:Taupunkt:
Aussen-T/F 2201 27-04-2016 15:20:00 8.2 C 73 % 3.66 C
2202 27-04-2016 15:25:00 8.4 C 72 % 3.65 C
2203 27-04-2016 15:30:00 8.4 C 71 % 3.46 C
2204 27-04-2016 15:35:00 8.4 C 70 % 3.26 C
2205 27-04-2016 15:40:00 8.4 C 70 % 3.26 C
2206 27-04-2016 15:45:00 8.5 C 69 % 3.15 C
2207 27-04-2016 15:50:00 8.6 C 70 % 3.45 C
2208 27-04-2016 15:55:00 8.7 C 71 % 3.74 C
2209 27-04-2016 16:00:00 8.5 C 71 % 3.55 C
2210 27-04-2016 16:05:00 8.3 C 72 % 3.56 C
2211 27-04-2016 16:10:00 8.2 C 71 % 3.26 C
2212 27-04-2016 16:15:00 8.2 C 71 % 3.26 C
2213 27-04-2016 16:20:00 8.2 C 71 % 3.26 C
2214 27-04-2016 16:25:00 8.3 C 70 % 3.16 C
2215 27-04-2016 16:30:00 8.6 C 70 % 3.45 C
2216 27-04-2016 16:35:00 9 C 69 % 3.63 C
2217 27-04-2016 16:40:00 9.2 C 68 % 3.61 C
2218 27-04-2016 16:45:00 9.1 C 66 % 3.09 C
2219 27-04-2016 16:50:00 8.7 C 66 % 2.71 C
2220 27-04-2016 16:55:00 8.6 C 69 % 3.24 C
2221 27-04-2016 17:00:00 8.4 C 69 % 3.05 C
2222 27-04-2016 17:05:00 8.2 C 70 % 3.06 C
2223 27-04-2016 17:10:00 8.2 C 70 % 3.06 C
2224 27-04-2016 17:15:00 8.1 C 70 % 2.97 C
2225 27-04-2016 17:20:00 8.1 C 70 % 2.97 C
Sensor: Nr:Datum:Temp:Feuchte:Taupunkt:
Aussen-T/F 2226 27-04-2016 17:25:00 8.1 C 70 % 2.97 C
2227 27-04-2016 17:30:00 8.2 C 70 % 3.06 C
2228 27-04-2016 17:35:00 8.2 C 72 % 3.46 C
2229 27-04-2016 17:40:00 8.3 C 70 % 3.16 C
2230 27-04-2016 17:45:00 8.4 C 70 % 3.26 C
2231 27-04-2016 17:50:00 8.3 C 69 % 2.96 C
2232 27-04-2016 17:55:00 8.3 C 69 % 2.96 C
2233 27-04-2016 18:00:00 8.3 C 71 % 3.36 C
2234 27-04-2016 18:05:00 8.7 C 70 % 3.54 C
2235 27-04-2016 18:10:00 8.9 C 68 % 3.32 C
2236 27-04-2016 18:15:00 9.1 C 67 % 3.31 C
2237 27-04-2016 18:20:00 9.3 C 68 % 3.71 C
2238 27-04-2016 18:25:00 9.4 C 67 % 3.59 C
2239 27-04-2016 18:30:00 9.5 C 68 % 3.9 C
2240 27-04-2016 18:35:00 9.7 C 65 % 3.45 C
2241 27-04-2016 18:40:00 9.4 C 63 % 2.72 C
2242 27-04-2016 18:45:00 9.2 C 64 % 2.76 C
2243 27-04-2016 18:50:00 8.8 C 64 % 2.38 C
2244 27-04-2016 18:55:00 8.8 C 66 % 2.81 C
2245 27-04-2016 19:00:00 8.9 C 65 % 2.69 C
2246 27-04-2016 19:05:00 8.7 C 65 % 2.5 C
2247 27-04-2016 19:10:00 8.4 C 67 % 2.64 C
2248 27-04-2016 19:15:00 8.2 C 68 % 2.66 C
2249 27-04-2016 19:20:00 8 C 69 % 2.67 C
2250 27-04-2016 19:25:00 7.9 C 69 % 2.57 C
Sensor: Nr:Datum:Temp:Feuchte:Taupunkt:
Aussen-T/F 2251 27-04-2016 19:30:00 7.8 C 70 % 2.68 C
2252 27-04-2016 19:35:00 7.8 C 70 % 2.68 C
2253 27-04-2016 19:40:00 7.8 C 71 % 2.88 C
2254 27-04-2016 19:45:00 7.9 C 71 % 2.98 C
2255 27-04-2016 19:50:00 8.1 C 70 % 2.97 C
2256 27-04-2016 19:55:00 8.1 C 68 % 2.56 C
2257 27-04-2016 20:00:00 7.8 C 68 % 2.27 C
2258 27-04-2016 20:05:00 7.6 C 69 % 2.29 C
2259 27-04-2016 20:10:00 7.3 C 69 % 2 C
2260 27-04-2016 20:15:00 7.1 C 70 % 2.01 C
2261 27-04-2016 20:20:00 6.9 C 70 % 1.82 C
2262 27-04-2016 20:25:00 6.8 C 71 % 1.92 C
2263 27-04-2016 20:30:00 6.7 C 70 % 1.63 C
2264 27-04-2016 20:35:00 6.6 C 71 % 1.73 C
2265 27-04-2016 20:40:00 6.6 C 73 % 2.12 C
2266 27-04-2016 20:45:00 6.4 C 73 % 1.92 C
2267 27-04-2016 20:50:00 6.3 C 74 % 2.02 C
2268 27-04-2016 20:55:00 6.1 C 74 % 1.82 C
2269 27-04-2016 21:00:00 5.9 C 75 % 1.82 C
2270 27-04-2016 21:05:00 5.8 C 76 % 1.91 C
2271 27-04-2016 21:10:00 5.7 C 77 % 1.99 C
2272 27-04-2016 21:15:00 5.6 C 78 % 2.07 C
2273 27-04-2016 21:20:00 5.4 C 79 % 2.06 C
2274 27-04-2016 21:25:00 5.3 C 79 % 1.96 C
2275 27-04-2016 21:30:00 5.2 C 80 % 2.04 C
Sensor: Nr:Datum:Temp:Feuchte:Taupunkt:
Aussen-T/F 2276 27-04-2016 21:35:00 5.2 C 80 % 2.04 C
2277 27-04-2016 21:40:00 5.1 C 81 % 2.12 C
2278 27-04-2016 21:45:00 5.1 C 81 % 2.12 C
2279 27-04-2016 21:50:00 5.1 C 81 % 2.12 C
2280 27-04-2016 21:55:00 5.1 C 82 % 2.29 C
2281 27-04-2016 22:00:00 5.1 C 82 % 2.29 C
2282 27-04-2016 22:05:00 5.1 C 82 % 2.29 C
2283 27-04-2016 22:10:00 5.2 C 83 % 2.56 C
2284 27-04-2016 22:15:00 5.2 C 83 % 2.56 C
2285 27-04-2016 22:20:00 5.3 C 83 % 2.65 C
2286 27-04-2016 22:25:00 5.3 C 83 % 2.65 C
2287 27-04-2016 22:30:00 5.3 C 83 % 2.65 C
2288 27-04-2016 22:35:00 5.3 C 83 % 2.65 C
2289 27-04-2016 22:40:00 5.3 C 82 % 2.48 C
2290 27-04-2016 22:45:00 5.3 C 82 % 2.48 C
2291 27-04-2016 22:50:00 5.2 C 82 % 2.39 C
2292 27-04-2016 22:55:00 5.2 C 82 % 2.39 C
2293 27-04-2016 23:00:00 5.1 C 83 % 2.46 C
2294 27-04-2016 23:05:00 5 C 83 % 2.36 C
2295 27-04-2016 23:10:00 4.9 C 84 % 2.43 C
2296 27-04-2016 23:15:00 4.8 C 84 % 2.33 C
2297 27-04-2016 23:20:00 4.8 C 84 % 2.33 C
2298 27-04-2016 23:25:00 4.8 C 84 % 2.33 C
2299 27-04-2016 23:30:00 4.8 C 84 % 2.33 C
2300 27-04-2016 23:35:00 4.8 C 83 % 2.16 C
Sensor: Nr:Datum:Temp:Feuchte:Taupunkt:
Aussen-T/F 2301 27-04-2016 23:40:00 4.8 C 83 % 2.16 C
2302 27-04-2016 23:45:00 4.7 C 83 % 2.07 C
2303 27-04-2016 23:50:00 4.6 C 83 % 1.97 C
2304 27-04-2016 23:55:00 4.5 C 84 % 2.04 C
2305 28-04-2016 00:00:00 4.4 C 85 % 2.11 C
2306 28-04-2016 00:05:00 4.3 C 86 % 2.17 C
2307 28-04-2016 00:10:00 4.2 C 86 % 2.07 C
2308 28-04-2016 00:15:00 4.1 C 87 % 2.14 C
2309 28-04-2016 00:20:00 4 C 87 % 2.04 C
2310 28-04-2016 00:25:00 3.9 C 87 % 1.94 C
2311 28-04-2016 00:30:00 3.9 C 88 % 2.1 C
2312 28-04-2016 00:35:00 3.8 C 88 % 2 C
2313 28-04-2016 00:40:00 3.8 C 88 % 2 C
2314 28-04-2016 00:45:00 3.8 C 88 % 2 C
2315 28-04-2016 00:50:00 3.7 C 88 % 1.9 C
2316 28-04-2016 00:55:00 3.7 C 88 % 1.9 C
2317 28-04-2016 01:00:00 3.6 C 88 % 1.8 C
2318 28-04-2016 01:05:00 3.5 C 88 % 1.7 C
2319 28-04-2016 01:10:00 3.4 C 88 % 1.61 C
2320 28-04-2016 01:15:00 3.3 C 88 % 1.51 C
2321 28-04-2016 01:20:00 3.3 C 88 % 1.51 C
2322 28-04-2016 01:25:00 3.2 C 88 % 1.41 C
2323 28-04-2016 01:30:00 3.2 C 88 % 1.41 C
2324 28-04-2016 01:35:00 3.2 C 88 % 1.41 C
2325 28-04-2016 01:40:00 3.2 C 88 % 1.41 C
Sensor: Nr:Datum:Temp:Feuchte:Taupunkt:
Aussen-T/F 2326 28-04-2016 01:45:00 3.1 C 88 % 1.31 C
2327 28-04-2016 01:50:00 3.1 C 88 % 1.31 C
2328 28-04-2016 01:55:00 3.1 C 89 % 1.47 C
2329 28-04-2016 02:00:00 3 C 89 % 1.37 C
2330 28-04-2016 02:05:00 2.9 C 89 % 1.27 C
2331 28-04-2016 02:10:00 2.9 C 89 % 1.27 C
2332 28-04-2016 02:15:00 2.9 C 89 % 1.27 C
2333 28-04-2016 02:20:00 2.9 C 89 % 1.27 C
2334 28-04-2016 02:25:00 2.8 C 89 % 1.17 C
2335 28-04-2016 02:30:00 2.8 C 89 % 1.17 C
2336 28-04-2016 02:35:00 2.7 C 89 % 1.07 C
2337 28-04-2016 02:40:00 2.6 C 89 % 0.97 C
2338 28-04-2016 02:45:00 2.5 C 90 % 1.03 C
2339 28-04-2016 02:50:00 2.4 C 90 % 0.93 C
2340 28-04-2016 02:55:00 2.4 C 90 % 0.93 C
2341 28-04-2016 03:00:00 2.3 C 90 % 0.83 C
2342 28-04-2016 03:05:00 2.3 C 91 % 0.99 C
2343 28-04-2016 03:10:00 2.2 C 91 % 0.89 C
2344 28-04-2016 03:15:00 2.1 C 91 % 0.79 C
2345 28-04-2016 03:20:00 2.1 C 91 % 0.79 C
2346 28-04-2016 03:25:00 2.1 C 91 % 0.79 C
2347 28-04-2016 03:30:00 2 C 91 % 0.69 C
2348 28-04-2016 03:35:00 2 C 91 % 0.69 C
2349 28-04-2016 03:40:00 1.9 C 92 % 0.74 C
2350 28-04-2016 03:45:00 1.9 C 91 % 0.59 C
Sensor: Nr:Datum:Temp:Feuchte:Taupunkt:
Aussen-T/F 2351 28-04-2016 03:50:00 1.9 C 91 % 0.59 C
2352 28-04-2016 03:55:00 1.9 C 91 % 0.59 C
2353 28-04-2016 04:00:00 1.8 C 91 % 0.49 C
2354 28-04-2016 04:05:00 1.8 C 91 % 0.49 C
2355 28-04-2016 04:10:00 1.7 C 91 % 0.39 C
2356 28-04-2016 04:15:00 1.6 C 91 % 0.29 C
2357 28-04-2016 04:20:00 1.6 C 91 % 0.29 C
2358 28-04-2016 04:25:00 1.5 C 92 % 0.35 C
2359 28-04-2016 04:30:00 1.4 C 92 % 0.25 C
2360 28-04-2016 04:35:00 1.5 C 92 % 0.35 C
2361 28-04-2016 04:40:00 1.6 C 92 % 0.44 C
2362 28-04-2016 04:45:00 1.6 C 92 % 0.44 C
2363 28-04-2016 04:50:00 1.6 C 92 % 0.44 C
2364 28-04-2016 04:55:00 1.6 C 93 % 0.59 C
2365 28-04-2016 05:00:00 1.7 C 92 % 0.54 C
2366 28-04-2016 05:05:00 1.6 C 92 % 0.44 C
2367 28-04-2016 05:10:00 1.6 C 92 % 0.44 C
2368 28-04-2016 05:15:00 1.7 C 92 % 0.54 C
2369 28-04-2016 05:20:00 1.7 C 92 % 0.54 C
2370 28-04-2016 05:25:00 1.7 C 92 % 0.54 C
2371 28-04-2016 05:30:00 1.8 C 92 % 0.64 C
2372 28-04-2016 05:35:00 1.8 C 92 % 0.64 C
2373 28-04-2016 05:40:00 1.8 C 92 % 0.64 C
2374 28-04-2016 05:45:00 1.9 C 92 % 0.74 C
2375 28-04-2016 05:50:00 1.9 C 92 % 0.74 C
Sensor: Nr:Datum:Temp:Feuchte:Taupunkt:
Aussen-T/F 2376 28-04-2016 05:55:00 1.9 C 92 % 0.74 C
2377 28-04-2016 06:00:00 1.8 C 92 % 0.64 C
2378 28-04-2016 06:05:00 1.8 C 92 % 0.64 C
2379 28-04-2016 06:10:00 1.7 C 92 % 0.54 C
2380 28-04-2016 06:15:00 1.7 C 92 % 0.54 C
2381 28-04-2016 06:20:00 1.6 C 92 % 0.44 C
2382 28-04-2016 06:25:00 1.7 C 92 % 0.54 C
2383 28-04-2016 06:30:00 1.7 C 92 % 0.54 C
2384 28-04-2016 06:35:00 1.7 C 92 % 0.54 C
2385 28-04-2016 06:40:00 1.8 C 92 % 0.64 C
2386 28-04-2016 06:45:00 1.9 C 92 % 0.74 C
2387 28-04-2016 06:50:00 2 C 92 % 0.84 C
2388 28-04-2016 06:55:00 2.1 C 92 % 0.94 C
2389 28-04-2016 07:00:00 2.2 C 91 % 0.89 C
2390 28-04-2016 07:05:00 2.2 C 91 % 0.89 C
2391 28-04-2016 07:10:00 2.3 C 91 % 0.99 C
2392 28-04-2016 07:15:00 2.3 C 90 % 0.83 C
2393 28-04-2016 07:20:00 2.3 C 90 % 0.83 C
2394 28-04-2016 07:25:00 2.3 C 90 % 0.83 C
2395 28-04-2016 07:30:00 2.3 C 90 % 0.83 C
2396 28-04-2016 07:35:00 2.4 C 90 % 0.93 C
2397 28-04-2016 07:40:00 2.6 C 90 % 1.13 C
2398 28-04-2016 07:45:00 2.7 C 90 % 1.23 C
2399 28-04-2016 07:50:00 2.8 C 90 % 1.33 C
2400 28-04-2016 07:55:00 2.8 C 90 % 1.33 C
Sensor: Nr:Datum:Temp:Feuchte:Taupunkt:
Aussen-T/F 2401 28-04-2016 08:00:00 2.8 C 89 % 1.17 C
2402 28-04-2016 08:05:00 2.8 C 89 % 1.17 C
2403 28-04-2016 08:10:00 2.8 C 89 % 1.17 C
2404 28-04-2016 08:15:00 2.8 C 89 % 1.17 C
2405 28-04-2016 08:20:00 2.9 C 89 % 1.27 C
2406 28-04-2016 08:25:00 3.1 C 89 % 1.47 C
2407 28-04-2016 08:30:00 3.1 C 88 % 1.31 C
2408 28-04-2016 08:35:00 3.1 C 88 % 1.31 C
2409 28-04-2016 08:40:00 3.1 C 88 % 1.31 C
2410 28-04-2016 08:45:00 3.1 C 88 % 1.31 C
2411 28-04-2016 08:50:00 3.1 C 88 % 1.31 C
2412 28-04-2016 08:55:00 3.2 C 88 % 1.41 C
2413 28-04-2016 09:00:00 3.3 C 88 % 1.51 C
2414 28-04-2016 09:05:00 3.4 C 87 % 1.45 C
2415 28-04-2016 09:10:00 3.5 C 87 % 1.55 C
2416 28-04-2016 09:15:00 3.6 C 87 % 1.64 C
2417 28-04-2016 09:20:00 3.7 C 87 % 1.74 C
2418 28-04-2016 09:25:00 3.8 C 87 % 1.84 C
2419 28-04-2016 09:30:00 3.9 C 86 % 1.78 C
2420 28-04-2016 09:35:00 4 C 86 % 1.88 C
2421 28-04-2016 09:40:00 4.2 C 86 % 2.07 C
2422 28-04-2016 09:45:00 4.3 C 85 % 2.01 C
2423 28-04-2016 09:50:00 4.6 C 85 % 2.3 C
2424 28-04-2016 09:55:00 4.7 C 84 % 2.23 C
2425 28-04-2016 10:00:00 4.9 C 84 % 2.43 C
Sensor: Nr:Datum:Temp:Feuchte:Taupunkt:
Aussen-T/F 2426 28-04-2016 10:05:00 5.1 C 84 % 2.63 C
2427 28-04-2016 10:10:00 5.2 C 83 % 2.56 C
2428 28-04-2016 10:15:00 5.4 C 81 % 2.41 C
2429 28-04-2016 10:20:00 5.7 C 81 % 2.7 C
2430 28-04-2016 10:25:00 6.1 C 80 % 2.92 C
2431 28-04-2016 10:30:00 6.3 C 79 % 2.93 C
2432 28-04-2016 10:35:00 6.6 C 79 % 3.23 C
2433 28-04-2016 10:40:00 6.9 C 77 % 3.16 C
2434 28-04-2016 10:45:00 7.3 C 75 % 3.17 C
2435 28-04-2016 10:50:00 7.5 C 71 % 2.59 C
2436 28-04-2016 10:55:00 7.8 C 74 % 3.46 C
2437 28-04-2016 11:00:00 8 C 72 % 3.27 C
2438 28-04-2016 11:05:00 8.2 C 70 % 3.06 C
2439 28-04-2016 11:10:00 8.2 C 67 % 2.45 C
2440 28-04-2016 11:15:00 8.3 C 69 % 2.96 C
2441 28-04-2016 11:20:00 8.3 C 68 % 2.75 C
2442 28-04-2016 11:25:00 8.3 C 65 % 2.12 C
2443 28-04-2016 11:30:00 8.2 C 64 % 1.81 C
2444 28-04-2016 11:35:00 8.3 C 66 % 2.33 C
2445 28-04-2016 11:40:00 8.4 C 62 % 1.55 C
2446 28-04-2016 11:45:00 8.6 C 60 % 1.29 C
2447 28-04-2016 11:50:00 8.8 C 60 % 1.48 C
2448 28-04-2016 11:55:00 8.9 C 58 % 1.1 C
2449 28-04-2016 12:00:00 9.1 C 59 % 1.52 C
2450 28-04-2016 12:05:00 9.3 C 56 % 0.99 C
Sensor: Nr:Datum:Temp:Feuchte:Taupunkt:
Aussen-T/F 2451 28-04-2016 12:10:00 9.3 C 57 % 1.23 C
2452 28-04-2016 12:15:00 9.3 C 56 % 0.99 C
2453 28-04-2016 12:20:00 9.4 C 52 % 0.06 C
2454 28-04-2016 12:25:00 9.4 C 49 % -0.76 C
2455 28-04-2016 12:30:00 9.3 C 49 % -0.85 C
2456 28-04-2016 12:35:00 9.2 C 53 % 0.13 C
2457 28-04-2016 12:40:00 9.2 C 49 % -0.94 C
2458 28-04-2016 12:45:00 9.3 C 51 % -0.3 C
2459 28-04-2016 12:50:00 9.4 C 48 % -1.04 C
2460 28-04-2016 12:55:00 9.5 C 51 % -0.12 C
2461 28-04-2016 13:00:00 9.6 C 50 % -0.3 C
2462 28-04-2016 13:05:00 9.7 C 51 % 0.07 C
2463 28-04-2016 13:10:00 9.8 C 52 % 0.43 C
2464 28-04-2016 13:15:00 9.9 C 54 % 1.04 C
2465 28-04-2016 13:20:00 9.8 C 53 % 0.69 C
2466 28-04-2016 13:25:00 9.8 C 53 % 0.69 C
2467 28-04-2016 13:30:00 9.8 C 53 % 0.69 C
2468 28-04-2016 13:35:00 9.6 C 53 % 0.5 C
2469 28-04-2016 13:40:00 9.3 C 55 % 0.74 C
2470 28-04-2016 13:45:00 9.1 C 54 % 0.3 C
2471 28-04-2016 13:50:00 8.9 C 54 % 0.11 C
2472 28-04-2016 13:55:00 8.8 C 54 % 0.02 C
2473 28-04-2016 14:00:00 8.7 C 53 % -0.33 C
2474 28-04-2016 14:05:00 8.8 C 56 % 0.52 C
2475 28-04-2016 14:10:00 9.1 C 56 % 0.8 C
Sensor: Nr:Datum:Temp:Feuchte:Taupunkt:
Aussen-T/F 2476 28-04-2016 14:15:00 9.3 C 55 % 0.74 C
2477 28-04-2016 14:20:00 9.2 C 55 % 0.64 C
2478 28-04-2016 14:25:00 9.3 C 55 % 0.74 C
2479 28-04-2016 14:30:00 9.4 C 54 % 0.58 C
2480 28-04-2016 14:35:00 9.7 C 52 % 0.33 C
2481 28-04-2016 14:40:00 9.9 C 51 % 0.25 C
2482 28-04-2016 14:45:00 9.8 C 51 % 0.16 C
2483 28-04-2016 14:50:00 10 C 49 % -0.21 C
2484 28-04-2016 14:55:00 10.2 C 49 % -0.02 C
2485 28-04-2016 15:00:00 10.6 C 48 % 0.06 C
2486 28-04-2016 15:05:00 10.8 C 45 % -0.64 C
2487 28-04-2016 15:10:00 10.9 C 44 % -0.86 C
2488 28-04-2016 15:15:00 11.2 C 45 % -0.28 C
2489 28-04-2016 15:20:00 11.6 C 43 % -0.54 C
2490 28-04-2016 15:25:00 11.8 C 42 % -0.68 C
2491 28-04-2016 15:30:00 12.1 C 40 % -1.07 C
2492 28-04-2016 15:35:00 12.2 C 43 % 0.01 C
2493 28-04-2016 15:40:00 12.4 C 42 % -0.14 C
2494 28-04-2016 15:45:00 12.6 C 42 % 0.04 C
2495 28-04-2016 15:50:00 12.9 C 41 % -0.02 C
2496 28-04-2016 15:55:00 13.1 C 43 % 0.82 C
2497 28-04-2016 16:00:00 13.4 C 40 % 0.09 C
2498 28-04-2016 16:05:00 13.6 C 38 % -0.43 C
2499 28-04-2016 16:10:00 13.6 C 39 % -0.08 C
2500 28-04-2016 16:15:00 13.6 C 40 % 0.27 C
Sensor: Nr:Datum:Temp:Feuchte:Taupunkt:
Aussen-T/F 2501 28-04-2016 16:20:00 13.7 C 40 % 0.36 C
2502 28-04-2016 16:25:00 13.9 C 35 % -1.29 C
2503 28-04-2016 16:30:00 13.3 C 36 % -1.44 C
2504 28-04-2016 16:35:00 13.1 C 38 % -0.88 C
2505 28-04-2016 16:40:00 13.2 C 39 % -0.43 C
2506 28-04-2016 16:45:00 13.4 C 37 % -0.97 C
2507 28-04-2016 16:50:00 13.5 C 39 % -0.17 C
2508 28-04-2016 16:55:00 13.8 C 37 % -0.62 C
2509 28-04-2016 17:00:00 13.8 C 36 % -0.99 C
2510 28-04-2016 17:05:00 13.2 C 38 % -0.79 C
2511 28-04-2016 17:10:00 12.7 C 41 % -0.2 C
2512 28-04-2016 17:15:00 12.4 C 44 % 0.5 C
2513 28-04-2016 17:20:00 12.2 C 44 % 0.32 C
2514 28-04-2016 17:25:00 12 C 44 % 0.14 C
2515 28-04-2016 17:30:00 11.8 C 47 % 0.87 C
2516 28-04-2016 17:35:00 11.7 C 50 % 1.64 C
2517 28-04-2016 17:40:00 11.7 C 48 % 1.07 C
2518 28-04-2016 17:45:00 12.1 C 46 % 0.85 C
2519 28-04-2016 17:50:00 12.9 C 44 % 0.96 C
2520 28-04-2016 17:55:00 13.3 C 40 % 0 C
2521 28-04-2016 18:00:00 13.4 C 40 % 0.09 C
2522 28-04-2016 18:05:00 13.7 C 39 % 0.01 C
2523 28-04-2016 18:10:00 13.8 C 37 % -0.62 C
2524 28-04-2016 18:15:00 13.8 C 39 % 0.1 C
2525 28-04-2016 18:20:00 13.8 C 37 % -0.62 C
Sensor: Nr:Datum:Temp:Feuchte:Taupunkt:
Aussen-T/F 2526 28-04-2016 18:25:00 13.6 C 37 % -0.8 C
2527 28-04-2016 18:30:00 13.5 C 38 % -0.52 C
2528 28-04-2016 18:35:00 13.4 C 39 % -0.25 C
2529 28-04-2016 18:40:00 13.2 C 39 % -0.43 C
2530 28-04-2016 18:45:00 12.6 C 41 % -0.29 C
2531 28-04-2016 18:50:00 12.3 C 41 % -0.56 C
2532 28-04-2016 18:55:00 12.4 C 43 % 0.19 C
2533 28-04-2016 19:00:00 12.7 C 41 % -0.2 C
2534 28-04-2016 19:05:00 12.7 C 41 % -0.2 C
2535 28-04-2016 19:10:00 12.6 C 41 % -0.29 C
2536 28-04-2016 19:15:00 12.5 C 41 % -0.38 C
2537 28-04-2016 19:20:00 12.3 C 42 % -0.23 C
2538 28-04-2016 19:25:00 12.2 C 42 % -0.32 C
2539 28-04-2016 19:30:00 12 C 43 % -0.17 C
2540 28-04-2016 19:35:00 11.7 C 48 % 1.07 C
2541 28-04-2016 19:40:00 11.3 C 50 % 1.27 C
2542 28-04-2016 19:45:00 10.9 C 53 % 1.71 C
2543 28-04-2016 19:50:00 10.6 C 54 % 1.69 C
2544 28-04-2016 19:55:00 10.3 C 54 % 1.41 C
2545 28-04-2016 20:00:00 9.9 C 55 % 1.3 C
2546 28-04-2016 20:05:00 9.7 C 57 % 1.61 C
2547 28-04-2016 20:10:00 9.4 C 60 % 2.04 C
2548 28-04-2016 20:15:00 9.2 C 61 % 2.08 C
2549 28-04-2016 20:20:00 8.9 C 62 % 2.03 C
2550 28-04-2016 20:25:00 8.7 C 63 % 2.06 C
Sensor: Nr:Datum:Temp:Feuchte:Taupunkt:
Aussen-T/F 2551 28-04-2016 20:30:00 8.5 C 66 % 2.52 C
2552 28-04-2016 20:35:00 8.2 C 67 % 2.45 C
2553 28-04-2016 20:40:00 7.9 C 69 % 2.57 C
2554 28-04-2016 20:45:00 7.7 C 70 % 2.58 C
2555 28-04-2016 20:50:00 7.5 C 70 % 2.39 C
2556 28-04-2016 20:55:00 7.3 C 72 % 2.6 C
2557 28-04-2016 21:00:00 7.2 C 71 % 2.3 C
2558 28-04-2016 21:05:00 7.2 C 70 % 2.11 C
2559 28-04-2016 21:10:00 7.4 C 71 % 2.5 C
2560 28-04-2016 21:15:00 7.4 C 71 % 2.5 C
2561 28-04-2016 21:20:00 7.4 C 72 % 2.69 C
2562 28-04-2016 21:25:00 7.4 C 73 % 2.89 C
2563 28-04-2016 21:30:00 7.3 C 72 % 2.6 C
2564 28-04-2016 21:35:00 7.2 C 73 % 2.69 C
2565 28-04-2016 21:40:00 7.1 C 73 % 2.6 C
2566 28-04-2016 21:45:00 6.9 C 74 % 2.6 C
2567 28-04-2016 21:50:00 6.8 C 75 % 2.69 C
2568 28-04-2016 21:55:00 6.7 C 76 % 2.78 C
2569 28-04-2016 22:00:00 6.7 C 77 % 2.96 C
2570 28-04-2016 22:05:00 6.7 C 78 % 3.14 C
2571 28-04-2016 22:10:00 6.6 C 78 % 3.05 C
2572 28-04-2016 22:15:00 6.6 C 78 % 3.05 C
2573 28-04-2016 22:20:00 6.6 C 78 % 3.05 C
2574 28-04-2016 22:25:00 6.5 C 78 % 2.95 C
2575 28-04-2016 22:30:00 6.4 C 78 % 2.85 C
Sensor: Nr:Datum:Temp:Feuchte:Taupunkt:
Aussen-T/F 2576 28-04-2016 22:35:00 6.4 C 78 % 2.85 C
2577 28-04-2016 22:40:00 6.3 C 79 % 2.93 C
2578 28-04-2016 22:45:00 6.1 C 79 % 2.74 C
2579 28-04-2016 22:50:00 5.9 C 79 % 2.54 C
2580 28-04-2016 22:55:00 5.7 C 80 % 2.53 C
2581 28-04-2016 23:00:00 5.5 C 80 % 2.33 C
2582 28-04-2016 23:05:00 5.3 C 80 % 2.14 C
2583 28-04-2016 23:10:00 5.2 C 81 % 2.21 C
2584 28-04-2016 23:15:00 5 C 82 % 2.19 C
2585 28-04-2016 23:20:00 4.9 C 82 % 2.09 C
2586 28-04-2016 23:25:00 5 C 83 % 2.36 C
2587 28-04-2016 23:30:00 5 C 84 % 2.53 C
2588 28-04-2016 23:35:00 5.1 C 83 % 2.46 C
2589 28-04-2016 23:40:00 5.1 C 84 % 2.63 C
2590 28-04-2016 23:45:00 5.2 C 84 % 2.72 C
2591 28-04-2016 23:50:00 5.2 C 84 % 2.72 C
2592 28-04-2016 23:55:00 5.1 C 84 % 2.63 C
2593 29-04-2016 00:00:00 5.2 C 84 % 2.72 C
2594 29-04-2016 00:05:00 5.1 C 83 % 2.46 C
2595 29-04-2016 00:10:00 4.9 C 83 % 2.26 C
2596 29-04-2016 00:15:00 4.7 C 83 % 2.07 C
2597 29-04-2016 00:20:00 4.4 C 83 % 1.77 C
2598 29-04-2016 00:25:00 4.2 C 83 % 1.58 C
2599 29-04-2016 00:30:00 4.1 C 84 % 1.65 C
2600 29-04-2016 00:35:00 3.9 C 84 % 1.45 C
Sensor: Nr:Datum:Temp:Feuchte:Taupunkt:
Aussen-T/F 2601 29-04-2016 00:40:00 3.9 C 84 % 1.45 C
2602 29-04-2016 00:45:00 3.8 C 84 % 1.35 C
2603 29-04-2016 00:50:00 3.7 C 84 % 1.25 C
2604 29-04-2016 00:55:00 3.6 C 85 % 1.32 C
2605 29-04-2016 01:00:00 3.5 C 85 % 1.22 C
2606 29-04-2016 01:05:00 3.4 C 86 % 1.29 C
2607 29-04-2016 01:10:00 3.3 C 86 % 1.19 C
2608 29-04-2016 01:15:00 3.3 C 87 % 1.35 C
2609 29-04-2016 01:20:00 3.3 C 86 % 1.19 C
2610 29-04-2016 01:25:00 3.2 C 87 % 1.25 C
2611 29-04-2016 01:30:00 3.2 C 87 % 1.25 C
2612 29-04-2016 01:35:00 3.1 C 87 % 1.15 C
2613 29-04-2016 01:40:00 3 C 87 % 1.05 C
2614 29-04-2016 01:45:00 2.9 C 87 % 0.96 C
2615 29-04-2016 01:50:00 2.8 C 87 % 0.86 C
2616 29-04-2016 01:55:00 2.7 C 87 % 0.76 C
2617 29-04-2016 02:00:00 2.6 C 88 % 0.82 C
2618 29-04-2016 02:05:00 2.5 C 88 % 0.72 C
2619 29-04-2016 02:10:00 2.4 C 88 % 0.62 C
2620 29-04-2016 02:15:00 2.3 C 88 % 0.52 C
2621 29-04-2016 02:20:00 2.2 C 89 % 0.58 C
2622 29-04-2016 02:25:00 2.1 C 89 % 0.48 C
2623 29-04-2016 02:30:00 2.1 C 89 % 0.48 C
2624 29-04-2016 02:35:00 1.9 C 89 % 0.28 C
2625 29-04-2016 02:40:00 1.8 C 89 % 0.19 C
Sensor: Nr:Datum:Temp:Feuchte:Taupunkt:
Aussen-T/F 2626 29-04-2016 02:45:00 1.8 C 90 % 0.34 C
2627 29-04-2016 02:50:00 1.8 C 90 % 0.34 C
2628 29-04-2016 02:55:00 1.8 C 90 % 0.34 C
2629 29-04-2016 03:00:00 1.8 C 90 % 0.34 C
2630 29-04-2016 03:05:00 1.8 C 90 % 0.34 C
2631 29-04-2016 03:10:00 1.7 C 90 % 0.24 C
2632 29-04-2016 03:15:00 1.7 C 90 % 0.24 C
2633 29-04-2016 03:20:00 1.6 C 90 % 0.14 C
2634 29-04-2016 03:25:00 1.6 C 90 % 0.14 C
2635 29-04-2016 03:30:00 1.6 C 91 % 0.29 C
2636 29-04-2016 03:35:00 1.6 C 91 % 0.29 C
2637 29-04-2016 03:40:00 1.6 C 91 % 0.29 C
2638 29-04-2016 03:45:00 1.6 C 91 % 0.29 C
2639 29-04-2016 03:50:00 1.6 C 91 % 0.29 C
2640 29-04-2016 03:55:00 1.6 C 92 % 0.44 C
2641 29-04-2016 04:00:00 1.6 C 92 % 0.44 C
2642 29-04-2016 04:05:00 1.6 C 91 % 0.29 C
2643 29-04-2016 04:10:00 1.6 C 92 % 0.44 C
2644 29-04-2016 04:15:00 1.6 C 92 % 0.44 C
2645 29-04-2016 04:20:00 1.6 C 92 % 0.44 C
2646 29-04-2016 04:25:00 1.6 C 92 % 0.44 C
2647 29-04-2016 04:30:00 1.6 C 92 % 0.44 C
2648 29-04-2016 04:35:00 1.5 C 92 % 0.35 C
2649 29-04-2016 04:40:00 1.5 C 92 % 0.35 C
2650 29-04-2016 04:45:00 1.4 C 92 % 0.25 C
Sensor: Nr:Datum:Temp:Feuchte:Taupunkt:
Aussen-T/F 2651 29-04-2016 04:50:00 1.5 C 92 % 0.35 C
2652 29-04-2016 04:55:00 1.6 C 92 % 0.44 C
2653 29-04-2016 05:00:00 1.6 C 92 % 0.44 C
2654 29-04-2016 05:05:00 1.6 C 92 % 0.44 C
2655 29-04-2016 05:10:00 1.6 C 92 % 0.44 C
2656 29-04-2016 05:15:00 1.5 C 92 % 0.35 C
2657 29-04-2016 05:20:00 1.5 C 92 % 0.35 C
2658 29-04-2016 05:25:00 1.6 C 92 % 0.44 C
2659 29-04-2016 05:30:00 1.6 C 92 % 0.44 C
2660 29-04-2016 05:35:00 1.7 C 93 % 0.69 C
2661 29-04-2016 05:40:00 1.7 C 93 % 0.69 C
2662 29-04-2016 05:45:00 1.7 C 93 % 0.69 C
2663 29-04-2016 05:50:00 1.7 C 93 % 0.69 C
2664 29-04-2016 05:55:00 1.8 C 93 % 0.79 C
2665 29-04-2016 06:00:00 1.8 C 93 % 0.79 C
2666 29-04-2016 06:05:00 1.8 C 93 % 0.79 C
2667 29-04-2016 06:10:00 1.8 C 93 % 0.79 C
2668 29-04-2016 06:15:00 1.8 C 93 % 0.79 C
2669 29-04-2016 06:20:00 1.8 C 93 % 0.79 C
2670 29-04-2016 06:25:00 1.9 C 93 % 0.89 C
2671 29-04-2016 06:30:00 1.9 C 93 % 0.89 C
2672 29-04-2016 06:35:00 1.9 C 93 % 0.89 C
2673 29-04-2016 06:40:00 2 C 93 % 0.99 C
2674 29-04-2016 06:45:00 2.1 C 93 % 1.09 C
2675 29-04-2016 06:50:00 2.2 C 93 % 1.19 C
Sensor: Nr:Datum:Temp:Feuchte:Taupunkt:
Aussen-T/F 2676 29-04-2016 06:55:00 2.2 C 93 % 1.19 C
2677 29-04-2016 07:00:00 2.3 C 93 % 1.29 C
2678 29-04-2016 07:05:00 2.4 C 93 % 1.39 C
2679 29-04-2016 07:10:00 2.5 C 93 % 1.49 C
2680 29-04-2016 07:15:00 2.6 C 93 % 1.59 C
2681 29-04-2016 07:20:00 2.7 C 93 % 1.68 C
2682 29-04-2016 07:25:00 2.8 C 92 % 1.63 C
2683 29-04-2016 07:30:00 2.9 C 92 % 1.73 C
2684 29-04-2016 07:35:00 2.9 C 92 % 1.73 C
2685 29-04-2016 07:40:00 3.1 C 92 % 1.93 C
2686 29-04-2016 07:45:00 3.2 C 92 % 2.03 C
2687 29-04-2016 07:50:00 3.3 C 92 % 2.13 C
2688 29-04-2016 07:55:00 3.4 C 92 % 2.23 C
2689 29-04-2016 08:00:00 3.6 C 92 % 2.42 C
2690 29-04-2016 08:05:00 3.7 C 91 % 2.37 C
2691 29-04-2016 08:10:00 3.8 C 91 % 2.47 C
2692 29-04-2016 08:15:00 3.9 C 90 % 2.41 C
2693 29-04-2016 08:20:00 4.1 C 89 % 2.45 C
2694 29-04-2016 08:25:00 4.2 C 88 % 2.39 C
2695 29-04-2016 08:30:00 4.3 C 88 % 2.49 C
2696 29-04-2016 08:35:00 4.4 C 87 % 2.43 C
2697 29-04-2016 08:40:00 4.6 C 87 % 2.63 C
2698 29-04-2016 08:45:00 4.7 C 86 % 2.56 C
2699 29-04-2016 08:50:00 4.8 C 86 % 2.66 C
2700 29-04-2016 08:55:00 4.9 C 85 % 2.6 C
Sensor: Nr:Datum:Temp:Feuchte:Taupunkt:
Aussen-T/F 2701 29-04-2016 09:00:00 5 C 85 % 2.69 C
2702 29-04-2016 09:05:00 5.1 C 84 % 2.63 C
2703 29-04-2016 09:10:00 5.3 C 84 % 2.82 C
2704 29-04-2016 09:15:00 5.4 C 83 % 2.75 C
2705 29-04-2016 09:20:00 5.6 C 83 % 2.95 C
2706 29-04-2016 09:25:00 5.8 C 82 % 2.97 C
2707 29-04-2016 09:30:00 5.9 C 81 % 2.9 C
2708 29-04-2016 09:35:00 6.2 C 81 % 3.19 C
2709 29-04-2016 09:40:00 6.4 C 80 % 3.21 C
2710 29-04-2016 09:45:00 6.7 C 81 % 3.68 C
2711 29-04-2016 09:50:00 6.9 C 79 % 3.52 C
2712 29-04-2016 09:55:00 7.1 C 79 % 3.71 C
2713 29-04-2016 10:00:00 7.3 C 79 % 3.91 C
2714 29-04-2016 10:05:00 7.4 C 77 % 3.64 C
2715 29-04-2016 10:10:00 7.6 C 78 % 4.02 C
2716 29-04-2016 10:15:00 7.7 C 79 % 4.3 C
2717 29-04-2016 10:20:00 7.7 C 78 % 4.11 C
2718 29-04-2016 10:25:00 7.9 C 77 % 4.12 C
2719 29-04-2016 10:30:00 8.2 C 79 % 4.78 C
2720 29-04-2016 10:35:00 8.5 C 71 % 3.55 C
2721 29-04-2016 10:40:00 9.2 C 67 % 3.4 C
2722 29-04-2016 10:45:00 9.9 C 61 % 2.74 C
2723 29-04-2016 10:50:00 10.3 C 59 % 2.65 C
2724 29-04-2016 10:55:00 10.6 C 60 % 3.17 C
2725 29-04-2016 11:00:00 10.9 C 56 % 2.48 C
Sensor: Nr:Datum:Temp:Feuchte:Taupunkt:
Aussen-T/F 2726 29-04-2016 11:05:00 11.1 C 55 % 2.41 C
2727 29-04-2016 11:10:00 11.2 C 54 % 2.25 C
2728 29-04-2016 11:15:00 11.3 C 55 % 2.6 C
2729 29-04-2016 11:20:00 11.3 C 51 % 1.54 C
2730 29-04-2016 11:25:00 11.3 C 53 % 2.08 C
2731 29-04-2016 11:30:00 11.3 C 51 % 1.54 C
2732 29-04-2016 11:35:00 11.3 C 52 % 1.81 C
2733 29-04-2016 11:40:00 11.3 C 50 % 1.27 C
2734 29-04-2016 11:45:00 11.3 C 49 % 0.99 C
2735 29-04-2016 11:50:00 11.3 C 49 % 0.99 C
2736 29-04-2016 11:55:00 11.4 C 49 % 1.08 C
2737 29-04-2016 12:00:00 11.4 C 48 % 0.79 C
2738 29-04-2016 12:05:00 11.4 C 47 % 0.5 C
2739 29-04-2016 12:10:00 11.7 C 49 % 1.36 C
2740 29-04-2016 12:15:00 11.9 C 46 % 0.66 C
2741 29-04-2016 12:20:00 12 C 47 % 1.05 C
2742 29-04-2016 12:25:00 11.8 C 46 % 0.57 C
2743 29-04-2016 12:30:00 11.8 C 47 % 0.87 C
2744 29-04-2016 12:35:00 11.8 C 48 % 1.16 C
2745 29-04-2016 12:40:00 11.9 C 46 % 0.66 C
2746 29-04-2016 12:45:00 12 C 46 % 0.75 C
2747 29-04-2016 12:50:00 12.2 C 46 % 0.94 C
2748 29-04-2016 12:55:00 12.4 C 45 % 0.81 C
2749 29-04-2016 13:00:00 12.7 C 45 % 1.09 C
2750 29-04-2016 13:05:00 12.8 C 44 % 0.87 C
Sensor: Nr:Datum:Temp:Feuchte:Taupunkt:
Aussen-T/F 2751 29-04-2016 13:10:00 12.9 C 44 % 0.96 C
2752 29-04-2016 13:15:00 12.9 C 42 % 0.31 C
2753 29-04-2016 13:20:00 12.9 C 43 % 0.64 C
2754 29-04-2016 13:25:00 13.2 C 44 % 1.23 C
2755 29-04-2016 13:30:00 13.2 C 43 % 0.91 C
2756 29-04-2016 13:35:00 13.1 C 43 % 0.82 C
2757 29-04-2016 13:40:00 13.1 C 44 % 1.14 C
2758 29-04-2016 13:45:00 13.1 C 43 % 0.82 C
2759 29-04-2016 13:50:00 12.9 C 44 % 0.96 C
2760 29-04-2016 13:55:00 13 C 43 % 0.73 C
2761 29-04-2016 14:00:00 13 C 43 % 0.73 C
2762 29-04-2016 14:05:00 13 C 45 % 1.36 C
2763 29-04-2016 14:10:00 13.1 C 44 % 1.14 C
2764 29-04-2016 14:15:00 13.1 C 43 % 0.82 C
2765 29-04-2016 14:20:00 13.2 C 45 % 1.54 C
2766 29-04-2016 14:25:00 13.2 C 42 % 0.59 C
2767 29-04-2016 14:30:00 13.1 C 43 % 0.82 C
2768 29-04-2016 14:35:00 13 C 44 % 1.05 C
2769 29-04-2016 14:40:00 13 C 44 % 1.05 C
2770 29-04-2016 14:45:00 13.1 C 44 % 1.14 C
2771 29-04-2016 14:50:00 13.1 C 46 % 1.76 C
2772 29-04-2016 14:55:00 13.2 C 43 % 0.91 C
2773 29-04-2016 15:00:00 13.3 C 44 % 1.32 C
2774 29-04-2016 15:05:00 13.4 C 45 % 1.72 C
2775 29-04-2016 15:10:00 13.4 C 44 % 1.41 C
Sensor: Nr:Datum:Temp:Feuchte:Taupunkt:
Aussen-T/F 2776 29-04-2016 15:15:00 13.5 C 44 % 1.5 C
2777 29-04-2016 15:20:00 13.5 C 43 % 1.18 C
2778 29-04-2016 15:25:00 13.3 C 43 % 1 C
2779 29-04-2016 15:30:00 13.2 C 46 % 1.85 C
2780 29-04-2016 15:35:00 13.2 C 45 % 1.54 C
2781 29-04-2016 15:40:00 13.1 C 45 % 1.45 C
2782 29-04-2016 15:45:00 13.1 C 47 % 2.06 C
2783 29-04-2016 15:50:00 13 C 46 % 1.67 C
2784 29-04-2016 15:55:00 13 C 46 % 1.67 C
2785 29-04-2016 16:00:00 13.1 C 46 % 1.76 C
2786 29-04-2016 16:05:00 13.2 C 45 % 1.54 C
2787 29-04-2016 16:10:00 13.3 C 44 % 1.32 C
2788 29-04-2016 16:15:00 13.3 C 45 % 1.63 C
2789 29-04-2016 16:20:00 13.3 C 45 % 1.63 C
2790 29-04-2016 16:25:00 13.4 C 45 % 1.72 C
2791 29-04-2016 16:30:00 13.5 C 44 % 1.5 C
2792 29-04-2016 16:35:00 13.5 C 45 % 1.81 C
2793 29-04-2016 16:40:00 13.4 C 44 % 1.41 C
2794 29-04-2016 16:45:00 13.4 C 43 % 1.09 C
2795 29-04-2016 16:50:00 13.3 C 44 % 1.32 C
2796 29-04-2016 16:55:00 13.3 C 45 % 1.63 C
2797 29-04-2016 17:00:00 13.4 C 45 % 1.72 C
2798 29-04-2016 17:05:00 13.6 C 46 % 2.21 C
2799 29-04-2016 17:10:00 13.7 C 45 % 2 C
2800 29-04-2016 17:15:00 13.7 C 44 % 1.68 C
Sensor: Nr:Datum:Temp:Feuchte:Taupunkt:
Aussen-T/F 2801 29-04-2016 17:20:00 13.7 C 44 % 1.68 C
2802 29-04-2016 17:25:00 13.6 C 44 % 1.59 C
2803 29-04-2016 17:30:00 13.6 C 44 % 1.59 C
2804 29-04-2016 17:35:00 13.6 C 44 % 1.59 C
2805 29-04-2016 17:40:00 13.6 C 44 % 1.59 C
2806 29-04-2016 17:45:00 13.6 C 45 % 1.91 C
2807 29-04-2016 17:50:00 13.6 C 45 % 1.91 C
2808 29-04-2016 17:55:00 13.9 C 47 % 2.79 C
2809 29-04-2016 18:00:00 14.3 C 44 % 2.23 C
2810 29-04-2016 18:05:00 14.7 C 43 % 2.27 C
2811 29-04-2016 18:10:00 15 C 43 % 2.54 C
2812 29-04-2016 18:15:00 15 C 43 % 2.54 C
2813 29-04-2016 18:20:00 15.2 C 42 % 2.39 C
2814 29-04-2016 18:25:00 15.3 C 41 % 2.14 C
2815 29-04-2016 18:30:00 15.1 C 42 % 2.3 C
2816 29-04-2016 18:35:00 15 C 41 % 1.87 C
2817 29-04-2016 18:40:00 15.1 C 41 % 1.96 C
2818 29-04-2016 18:45:00 15.2 C 42 % 2.39 C
2819 29-04-2016 18:50:00 15.1 C 42 % 2.3 C
2820 29-04-2016 18:55:00 14.8 C 42 % 2.03 C
2821 29-04-2016 19:00:00 14.6 C 43 % 2.18 C
2822 29-04-2016 19:05:00 14.4 C 43 % 2 C
2823 29-04-2016 19:10:00 14.2 C 44 % 2.14 C
2824 29-04-2016 19:15:00 14.1 C 45 % 2.36 C
2825 29-04-2016 19:20:00 13.9 C 46 % 2.49 C
Sensor: Nr:Datum:Temp:Feuchte:Taupunkt:
Aussen-T/F 2826 29-04-2016 19:25:00 13.7 C 45 % 2 C
2827 29-04-2016 19:30:00 13.5 C 46 % 2.12 C
2828 29-04-2016 19:35:00 13.3 C 48 % 2.54 C
2829 29-04-2016 19:40:00 13.1 C 48 % 2.35 C
2830 29-04-2016 19:45:00 12.8 C 49 % 2.37 C
2831 29-04-2016 19:50:00 12.7 C 52 % 3.11 C
2832 29-04-2016 19:55:00 12.5 C 53 % 3.19 C
2833 29-04-2016 20:00:00 12.3 C 56 % 3.79 C
2834 29-04-2016 20:05:00 12.1 C 57 % 3.85 C
2835 29-04-2016 20:10:00 11.8 C 58 % 3.82 C
2836 29-04-2016 20:15:00 11.5 C 60 % 4.02 C
2837 29-04-2016 20:20:00 11.3 C 61 % 4.06 C
2838 29-04-2016 20:25:00 11 C 62 % 4.01 C
2839 29-04-2016 20:30:00 10.7 C 62 % 3.73 C
2840 29-04-2016 20:35:00 10.4 C 64 % 3.89 C
2841 29-04-2016 20:40:00 10.2 C 65 % 3.92 C
2842 29-04-2016 20:45:00 9.9 C 64 % 3.42 C
2843 29-04-2016 20:50:00 9.7 C 66 % 3.67 C
2844 29-04-2016 20:55:00 9.5 C 67 % 3.69 C
2845 29-04-2016 21:00:00 9.3 C 67 % 3.5 C
2846 29-04-2016 21:05:00 9.2 C 69 % 3.82 C
2847 29-04-2016 21:10:00 8.9 C 70 % 3.74 C
2848 29-04-2016 21:15:00 8.8 C 70 % 3.64 C
2849 29-04-2016 21:20:00 8.6 C 71 % 3.65 C
2850 29-04-2016 21:25:00 8.4 C 72 % 3.65 C
Sensor: Nr:Datum:Temp:Feuchte:Taupunkt:
Aussen-T/F 2851 29-04-2016 21:30:00 8.3 C 72 % 3.56 C
2852 29-04-2016 21:35:00 8.2 C 72 % 3.46 C
2853 29-04-2016 21:40:00 8.1 C 73 % 3.56 C
2854 29-04-2016 21:45:00 7.9 C 74 % 3.56 C
2855 29-04-2016 21:50:00 7.8 C 74 % 3.46 C
2856 29-04-2016 21:55:00 7.7 C 74 % 3.37 C
2857 29-04-2016 22:00:00 7.7 C 74 % 3.37 C
2858 29-04-2016 22:05:00 7.7 C 75 % 3.56 C
2859 29-04-2016 22:10:00 7.6 C 75 % 3.46 C
2860 29-04-2016 22:15:00 7.6 C 75 % 3.46 C
2861 29-04-2016 22:20:00 7.5 C 76 % 3.55 C
2862 29-04-2016 22:25:00 7.4 C 76 % 3.45 C
2863 29-04-2016 22:30:00 7.4 C 76 % 3.45 C
2864 29-04-2016 22:35:00 7.3 C 76 % 3.36 C
2865 29-04-2016 22:40:00 7.2 C 76 % 3.26 C
2866 29-04-2016 22:45:00 7.2 C 76 % 3.26 C
2867 29-04-2016 22:50:00 7.1 C 76 % 3.16 C
2868 29-04-2016 22:55:00 7.1 C 77 % 3.35 C
2869 29-04-2016 23:00:00 7 C 76 % 3.07 C
2870 29-04-2016 23:05:00 6.9 C 77 % 3.16 C
2871 29-04-2016 23:10:00 6.9 C 77 % 3.16 C
2872 29-04-2016 23:15:00 6.8 C 77 % 3.06 C
2873 29-04-2016 23:20:00 6.7 C 78 % 3.14 C
2874 29-04-2016 23:25:00 6.7 C 78 % 3.14 C
2875 29-04-2016 23:30:00 6.6 C 78 % 3.05 C
Sensor: Nr:Datum:Temp:Feuchte:Taupunkt:
Aussen-T/F 2876 29-04-2016 23:35:00 6.5 C 79 % 3.13 C
2877 29-04-2016 23:40:00 6.4 C 79 % 3.03 C
2878 29-04-2016 23:45:00 6.3 C 80 % 3.11 C
2879 29-04-2016 23:50:00 6.2 C 80 % 3.01 C
2880 29-04-2016 23:55:00 6.2 C 81 % 3.19 C
2881 30-04-2016 00:00:00 6.1 C 82 % 3.26 C
2882 30-04-2016 00:05:00 6.1 C 82 % 3.26 C
2883 30-04-2016 00:10:00 6.1 C 82 % 3.26 C
2884 30-04-2016 00:15:00 6.1 C 82 % 3.26 C
2885 30-04-2016 00:20:00 6.2 C 81 % 3.19 C
2886 30-04-2016 00:25:00 6.3 C 81 % 3.29 C
2887 30-04-2016 00:30:00 6.3 C 81 % 3.29 C
2888 30-04-2016 00:35:00 6.4 C 81 % 3.38 C
2889 30-04-2016 00:40:00 6.5 C 79 % 3.13 C
2890 30-04-2016 00:45:00 6.6 C 79 % 3.23 C
2891 30-04-2016 00:50:00 6.6 C 78 % 3.05 C
2892 30-04-2016 00:55:00 6.6 C 79 % 3.23 C
2893 30-04-2016 01:00:00 6.6 C 79 % 3.23 C
2894 30-04-2016 01:05:00 6.4 C 79 % 3.03 C
2895 30-04-2016 01:10:00 6.2 C 80 % 3.01 C
2896 30-04-2016 01:15:00 6 C 81 % 2.99 C
2897 30-04-2016 01:20:00 5.9 C 81 % 2.9 C
2898 30-04-2016 01:25:00 5.8 C 82 % 2.97 C
2899 30-04-2016 01:30:00 5.7 C 82 % 2.87 C
2900 30-04-2016 01:35:00 5.7 C 82 % 2.87 C
Sensor: Nr:Datum:Temp:Feuchte:Taupunkt:
Aussen-T/F 2901 30-04-2016 01:40:00 5.6 C 82 % 2.78 C
2902 30-04-2016 01:45:00 5.6 C 82 % 2.78 C
2903 30-04-2016 01:50:00 5.6 C 82 % 2.78 C
2904 30-04-2016 01:55:00 5.5 C 82 % 2.68 C
2905 30-04-2016 02:00:00 5.4 C 82 % 2.58 C
2906 30-04-2016 02:05:00 5.4 C 82 % 2.58 C
2907 30-04-2016 02:10:00 5.3 C 82 % 2.48 C
2908 30-04-2016 02:15:00 5.3 C 83 % 2.65 C
2909 30-04-2016 02:20:00 5.3 C 83 % 2.65 C
2910 30-04-2016 02:25:00 5.2 C 83 % 2.56 C
2911 30-04-2016 02:30:00 5.2 C 83 % 2.56 C
2912 30-04-2016 02:35:00 5.1 C 84 % 2.63 C
2913 30-04-2016 02:40:00 5.1 C 85 % 2.79 C
2914 30-04-2016 02:45:00 4.9 C 85 % 2.6 C
2915 30-04-2016 02:50:00 4.9 C 85 % 2.6 C
2916 30-04-2016 02:55:00 4.8 C 85 % 2.5 C
2917 30-04-2016 03:00:00 4.8 C 85 % 2.5 C
2918 30-04-2016 03:05:00 4.7 C 85 % 2.4 C
2919 30-04-2016 03:10:00 4.7 C 86 % 2.56 C
2920 30-04-2016 03:15:00 4.7 C 86 % 2.56 C
2921 30-04-2016 03:20:00 4.6 C 86 % 2.47 C
2922 30-04-2016 03:25:00 4.6 C 86 % 2.47 C
2923 30-04-2016 03:30:00 4.5 C 86 % 2.37 C
2924 30-04-2016 03:35:00 4.5 C 86 % 2.37 C
2925 30-04-2016 03:40:00 4.5 C 86 % 2.37 C
Sensor: Nr:Datum:Temp:Feuchte:Taupunkt:
Aussen-T/F 2926 30-04-2016 03:45:00 4.4 C 86 % 2.27 C
2927 30-04-2016 03:50:00 4.3 C 86 % 2.17 C
2928 30-04-2016 03:55:00 4.3 C 86 % 2.17 C
2929 30-04-2016 04:00:00 4.3 C 86 % 2.17 C
2930 30-04-2016 04:05:00 4.2 C 86 % 2.07 C
2931 30-04-2016 04:10:00 4.1 C 87 % 2.14 C
2932 30-04-2016 04:15:00 4.1 C 87 % 2.14 C
2933 30-04-2016 04:20:00 4 C 88 % 2.2 C
2934 30-04-2016 04:25:00 4 C 88 % 2.2 C
2935 30-04-2016 04:30:00 3.9 C 88 % 2.1 C
2936 30-04-2016 04:35:00 3.9 C 88 % 2.1 C
2937 30-04-2016 04:40:00 3.9 C 88 % 2.1 C
2938 30-04-2016 04:45:00 3.8 C 89 % 2.16 C
2939 30-04-2016 04:50:00 3.8 C 89 % 2.16 C
2940 30-04-2016 04:55:00 3.8 C 89 % 2.16 C
2941 30-04-2016 05:00:00 3.8 C 90 % 2.31 C
2942 30-04-2016 05:05:00 3.7 C 89 % 2.06 C
2943 30-04-2016 05:10:00 3.7 C 89 % 2.06 C
2944 30-04-2016 05:15:00 3.6 C 89 % 1.96 C
2945 30-04-2016 05:20:00 3.6 C 90 % 2.12 C
2946 30-04-2016 05:25:00 3.5 C 90 % 2.02 C
2947 30-04-2016 05:30:00 3.4 C 90 % 1.92 C
2948 30-04-2016 05:35:00 3.3 C 90 % 1.82 C
2949 30-04-2016 05:40:00 3.3 C 90 % 1.82 C
2950 30-04-2016 05:45:00 3.3 C 91 % 1.98 C
Sensor: Nr:Datum:Temp:Feuchte:Taupunkt:
Aussen-T/F 2951 30-04-2016 05:50:00 3.3 C 91 % 1.98 C
2952 30-04-2016 05:55:00 3.3 C 91 % 1.98 C
2953 30-04-2016 06:00:00 3.3 C 91 % 1.98 C
2954 30-04-2016 06:05:00 3.3 C 91 % 1.98 C
2955 30-04-2016 06:10:00 3.2 C 91 % 1.88 C
2956 30-04-2016 06:15:00 3.2 C 91 % 1.88 C
2957 30-04-2016 06:20:00 3.2 C 91 % 1.88 C
2958 30-04-2016 06:25:00 3.2 C 92 % 2.03 C
2959 30-04-2016 06:30:00 3.3 C 92 % 2.13 C
2960 30-04-2016 06:35:00 3.3 C 92 % 2.13 C
2961 30-04-2016 06:40:00 3.4 C 92 % 2.23 C
2962 30-04-2016 06:45:00 3.4 C 92 % 2.23 C
2963 30-04-2016 06:50:00 3.4 C 92 % 2.23 C
2964 30-04-2016 06:55:00 3.6 C 92 % 2.42 C
2965 30-04-2016 07:00:00 3.6 C 92 % 2.42 C
2966 30-04-2016 07:05:00 3.7 C 92 % 2.52 C
2967 30-04-2016 07:10:00 3.9 C 92 % 2.72 C
2968 30-04-2016 07:15:00 4.1 C 92 % 2.92 C
2969 30-04-2016 07:20:00 4.2 C 92 % 3.02 C
2970 30-04-2016 07:25:00 4.3 C 92 % 3.12 C
2971 30-04-2016 07:30:00 4.4 C 91 % 3.06 C
2972 30-04-2016 07:35:00 4.6 C 91 % 3.26 C
2973 30-04-2016 07:40:00 4.7 C 90 % 3.2 C
2974 30-04-2016 07:45:00 4.8 C 90 % 3.3 C
2975 30-04-2016 07:50:00 4.9 C 90 % 3.4 C
Sensor: Nr:Datum:Temp:Feuchte:Taupunkt:
Aussen-T/F 2976 30-04-2016 07:55:00 5.1 C 89 % 3.44 C
2977 30-04-2016 08:00:00 5.2 C 90 % 3.7 C
2978 30-04-2016 08:05:00 5.3 C 89 % 3.64 C
2979 30-04-2016 08:10:00 5.4 C 88 % 3.58 C
2980 30-04-2016 08:15:00 5.6 C 87 % 3.61 C
2981 30-04-2016 08:20:00 5.7 C 87 % 3.71 C
2982 30-04-2016 08:25:00 5.7 C 87 % 3.71 C
2983 30-04-2016 08:30:00 5.8 C 87 % 3.81 C
2984 30-04-2016 08:35:00 5.9 C 86 % 3.74 C
2985 30-04-2016 08:40:00 5.9 C 86 % 3.74 C
2986 30-04-2016 08:45:00 6 C 86 % 3.84 C
2987 30-04-2016 08:50:00 6.1 C 86 % 3.94 C
2988 30-04-2016 08:55:00 6.2 C 86 % 4.04 C
2989 30-04-2016 09:00:00 6.3 C 85 % 3.97 C
2990 30-04-2016 09:05:00 6.4 C 85 % 4.07 C
2991 30-04-2016 09:10:00 6.7 C 84 % 4.19 C
2992 30-04-2016 09:15:00 6.9 C 83 % 4.22 C
2993 30-04-2016 09:20:00 7.1 C 83 % 4.41 C
2994 30-04-2016 09:25:00 7.4 C 82 % 4.53 C
2995 30-04-2016 09:30:00 7.8 C 81 % 4.75 C
2996 30-04-2016 09:35:00 8.2 C 79 % 4.78 C
2997 30-04-2016 09:40:00 8.5 C 77 % 4.71 C
2998 30-04-2016 09:45:00 8.7 C 76 % 4.71 C
2999 30-04-2016 09:50:00 8.8 C 76 % 4.81 C
3000 30-04-2016 09:55:00 8.9 C 76 % 4.91 C
Sensor: Nr:Datum:Temp:Feuchte:Taupunkt:
Aussen-T/F 3001 30-04-2016 10:00:00 9.1 C 76 % 5.1 C
3002 30-04-2016 10:05:00 9.2 C 77 % 5.38 C
3003 30-04-2016 10:10:00 9.3 C 76 % 5.29 C
3004 30-04-2016 10:15:00 9.4 C 76 % 5.39 C
3005 30-04-2016 10:20:00 9.6 C 75 % 5.39 C
3006 30-04-2016 10:25:00 9.8 C 73 % 5.2 C
3007 30-04-2016 10:30:00 9.7 C 73 % 5.1 C
3008 30-04-2016 10:35:00 9.7 C 74 % 5.3 C
3009 30-04-2016 10:40:00 9.7 C 74 % 5.3 C
3010 30-04-2016 10:45:00 9.6 C 73 % 5.01 C
3011 30-04-2016 10:50:00 9.5 C 74 % 5.1 C
3012 30-04-2016 10:55:00 9.6 C 73 % 5.01 C
3013 30-04-2016 11:00:00 9.6 C 74 % 5.2 C
3014 30-04-2016 11:05:00 9.6 C 74 % 5.2 C
3015 30-04-2016 11:10:00 9.6 C 75 % 5.39 C
3016 30-04-2016 11:15:00 9.7 C 76 % 5.68 C
3017 30-04-2016 11:20:00 9.8 C 77 % 5.97 C
3018 30-04-2016 11:25:00 9.8 C 77 % 5.97 C
3019 30-04-2016 11:30:00 9.9 C 77 % 6.06 C
3020 30-04-2016 11:35:00 10.1 C 77 % 6.26 C
3021 30-04-2016 11:40:00 10.3 C 76 % 6.26 C
3022 30-04-2016 11:45:00 10.6 C 74 % 6.17 C
3023 30-04-2016 11:50:00 10.8 C 75 % 6.55 C
3024 30-04-2016 11:55:00 10.9 C 74 % 6.45 C
3025 30-04-2016 12:00:00 10.9 C 74 % 6.45 C
Sensor: Nr:Datum:Temp:Feuchte:Taupunkt:
Aussen-T/F 3026 30-04-2016 12:05:00 11 C 73 % 6.35 C
3027 30-04-2016 12:10:00 10.9 C 73 % 6.26 C
3028 30-04-2016 12:15:00 10.9 C 74 % 6.45 C
3029 30-04-2016 12:20:00 10.9 C 74 % 6.45 C
3030 30-04-2016 12:25:00 10.9 C 75 % 6.65 C
3031 30-04-2016 12:30:00 11.1 C 74 % 6.65 C
3032 30-04-2016 12:35:00 11.1 C 75 % 6.84 C
3033 30-04-2016 12:40:00 11.2 C 75 % 6.94 C
3034 30-04-2016 12:45:00 11.3 C 75 % 7.04 C
3035 30-04-2016 12:50:00 11.3 C 75 % 7.04 C
3036 30-04-2016 12:55:00 11.4 C 75 % 7.13 C
3037 30-04-2016 13:00:00 11.6 C 74 % 7.13 C
3038 30-04-2016 13:05:00 11.6 C 74 % 7.13 C
3039 30-04-2016 13:10:00 11.5 C 74 % 7.03 C
3040 30-04-2016 13:15:00 11.4 C 74 % 6.94 C
3041 30-04-2016 13:20:00 11.3 C 74 % 6.84 C
3042 30-04-2016 13:25:00 11.3 C 75 % 7.04 C
3043 30-04-2016 13:30:00 11.3 C 75 % 7.04 C
3044 30-04-2016 13:35:00 11.2 C 75 % 6.94 C
3045 30-04-2016 13:40:00 11.1 C 76 % 7.04 C
3046 30-04-2016 13:45:00 11.2 C 77 % 7.32 C
3047 30-04-2016 13:50:00 11.1 C 77 % 7.23 C
3048 30-04-2016 13:55:00 10.9 C 78 % 7.22 C
3049 30-04-2016 14:00:00 10.8 C 80 % 7.49 C
3050 30-04-2016 14:05:00 10.7 C 81 % 7.58 C
Sensor: Nr:Datum:Temp:Feuchte:Taupunkt:
Aussen-T/F 3051 30-04-2016 14:10:00 10.7 C 81 % 7.58 C
3052 30-04-2016 14:15:00 10.5 C 79 % 7.02 C
3053 30-04-2016 14:20:00 10.3 C 79 % 6.82 C
3054 30-04-2016 14:25:00 10.3 C 80 % 7.01 C
3055 30-04-2016 14:30:00 10.3 C 80 % 7.01 C
3056 30-04-2016 14:35:00 10.2 C 81 % 7.09 C
3057 30-04-2016 14:40:00 10.2 C 81 % 7.09 C
3058 30-04-2016 14:45:00 10.1 C 82 % 7.17 C
3059 30-04-2016 14:50:00 9.9 C 83 % 7.15 C
3060 30-04-2016 14:55:00 9.8 C 83 % 7.05 C
3061 30-04-2016 15:00:00 9.8 C 85 % 7.4 C
3062 30-04-2016 15:05:00 9.8 C 86 % 7.57 C
3063 30-04-2016 15:10:00 9.8 C 87 % 7.74 C
3064 30-04-2016 15:15:00 9.8 C 88 % 7.91 C
3065 30-04-2016 15:20:00 9.7 C 88 % 7.81 C
3066 30-04-2016 15:25:00 9.6 C 89 % 7.88 C
3067 30-04-2016 15:30:00 9.5 C 89 % 7.78 C
3068 30-04-2016 15:35:00 9.4 C 88 % 7.52 C
3069 30-04-2016 15:40:00 9.4 C 88 % 7.52 C
3070 30-04-2016 15:45:00 9.4 C 88 % 7.52 C
3071 30-04-2016 15:50:00 9.7 C 89 % 7.98 C
3072 30-04-2016 15:55:00 9.8 C 89 % 8.08 C
3073 30-04-2016 16:00:00 9.9 C 87 % 7.84 C
3074 30-04-2016 16:05:00 10 C 88 % 8.11 C
3075 30-04-2016 16:10:00 10.1 C 88 % 8.21 C
Sensor: Nr:Datum:Temp:Feuchte:Taupunkt:
Aussen-T/F 3076 30-04-2016 16:15:00 10.3 C 89 % 8.57 C
3077 30-04-2016 16:20:00 10.4 C 86 % 8.16 C
3078 30-04-2016 16:25:00 10.6 C 86 % 8.36 C
3079 30-04-2016 16:30:00 10.7 C 85 % 8.28 C
3080 30-04-2016 16:35:00 10.6 C 84 % 8.01 C
3081 30-04-2016 16:40:00 10.6 C 83 % 7.84 C
3082 30-04-2016 16:45:00 10.7 C 84 % 8.11 C
3083 30-04-2016 16:50:00 10.6 C 83 % 7.84 C
3084 30-04-2016 16:55:00 10.5 C 84 % 7.91 C
3085 30-04-2016 17:00:00 10.4 C 82 % 7.46 C
3086 30-04-2016 17:05:00 10.4 C 84 % 7.82 C
3087 30-04-2016 17:10:00 10.4 C 84 % 7.82 C
3088 30-04-2016 17:15:00 10.3 C 82 % 7.37 C
3089 30-04-2016 17:20:00 10.2 C 82 % 7.27 C
3090 30-04-2016 17:25:00 10.2 C 81 % 7.09 C
3091 30-04-2016 17:30:00 10.2 C 83 % 7.45 C
3092 30-04-2016 17:35:00 10.1 C 82 % 7.17 C
3093 30-04-2016 17:40:00 10.2 C 82 % 7.27 C
3094 30-04-2016 17:45:00 10.2 C 81 % 7.09 C
3095 30-04-2016 17:50:00 10.2 C 81 % 7.09 C
3096 30-04-2016 17:55:00 10.2 C 80 % 6.91 C
3097 30-04-2016 18:00:00 10.2 C 80 % 6.91 C
3098 30-04-2016 18:05:00 10.1 C 80 % 6.81 C
3099 30-04-2016 18:10:00 10.2 C 80 % 6.91 C
3100 30-04-2016 18:15:00 10.2 C 80 % 6.91 C
Sensor: Nr:Datum:Temp:Feuchte:Taupunkt:
Aussen-T/F 3101 30-04-2016 18:20:00 10.1 C 79 % 6.63 C
3102 30-04-2016 18:25:00 10.1 C 78 % 6.44 C
3103 30-04-2016 18:30:00 10.1 C 77 % 6.26 C
3104 30-04-2016 18:35:00 10.1 C 76 % 6.07 C
3105 30-04-2016 18:40:00 10 C 76 % 5.97 C
3106 30-04-2016 18:45:00 9.9 C 76 % 5.87 C
3107 30-04-2016 18:50:00 9.9 C 76 % 5.87 C
3108 30-04-2016 18:55:00 9.8 C 76 % 5.78 C
3109 30-04-2016 19:00:00 9.8 C 77 % 5.97 C
3110 30-04-2016 19:05:00 9.7 C 77 % 5.87 C
3111 30-04-2016 19:10:00 9.7 C 78 % 6.06 C
3112 30-04-2016 19:15:00 9.6 C 78 % 5.96 C
3113 30-04-2016 19:20:00 9.4 C 79 % 5.95 C
3114 30-04-2016 19:25:00 9.4 C 79 % 5.95 C
3115 30-04-2016 19:30:00 9.3 C 79 % 5.85 C
3116 30-04-2016 19:35:00 9.2 C 80 % 5.94 C
3117 30-04-2016 19:40:00 9.2 C 79 % 5.75 C
3118 30-04-2016 19:45:00 9.2 C 80 % 5.94 C
3119 30-04-2016 19:50:00 9.2 C 79 % 5.75 C
3120 30-04-2016 19:55:00 9.2 C 80 % 5.94 C
3121 30-04-2016 20:00:00 9.1 C 80 % 5.84 C
3122 30-04-2016 20:05:00 9.1 C 80 % 5.84 C
3123 30-04-2016 20:10:00 9.1 C 80 % 5.84 C
3124 30-04-2016 20:15:00 9.1 C 80 % 5.84 C
3125 30-04-2016 20:20:00 9 C 81 % 5.92 C
Sensor: Nr:Datum:Temp:Feuchte:Taupunkt:
Aussen-T/F 3126 30-04-2016 20:25:00 9 C 81 % 5.92 C
3127 30-04-2016 20:30:00 8.9 C 81 % 5.82 C
3128 30-04-2016 20:35:00 8.9 C 81 % 5.82 C
3129 30-04-2016 20:40:00 8.8 C 82 % 5.9 C
3130 30-04-2016 20:45:00 8.8 C 82 % 5.9 C
3131 30-04-2016 20:50:00 8.8 C 83 % 6.08 C
3132 30-04-2016 20:55:00 8.7 C 83 % 5.98 C
3133 30-04-2016 21:00:00 8.6 C 83 % 5.88 C
3134 30-04-2016 21:05:00 8.6 C 84 % 6.05 C
3135 30-04-2016 21:10:00 8.5 C 84 % 5.96 C
3136 30-04-2016 21:15:00 8.4 C 84 % 5.86 C
3137 30-04-2016 21:20:00 8.4 C 85 % 6.03 C
3138 30-04-2016 21:25:00 8.4 C 85 % 6.03 C
3139 30-04-2016 21:30:00 8.4 C 85 % 6.03 C
3140 30-04-2016 21:35:00 8.3 C 85 % 5.93 C
3141 30-04-2016 21:40:00 8.3 C 86 % 6.1 C
3142 30-04-2016 21:45:00 8.3 C 86 % 6.1 C
3143 30-04-2016 21:50:00 8.2 C 87 % 6.17 C
3144 30-04-2016 21:55:00 8.2 C 88 % 6.33 C
3145 30-04-2016 22:00:00 8.1 C 88 % 6.24 C
3146 30-04-2016 22:05:00 8 C 89 % 6.3 C
3147 30-04-2016 22:10:00 7.9 C 89 % 6.2 C
3148 30-04-2016 22:15:00 7.8 C 90 % 6.27 C
3149 30-04-2016 22:20:00 7.8 C 90 % 6.27 C
3150 30-04-2016 22:25:00 7.7 C 90 % 6.17 C
Sensor: Nr:Datum:Temp:Feuchte:Taupunkt:
Aussen-T/F 3151 30-04-2016 22:30:00 7.7 C 90 % 6.17 C
3152 30-04-2016 22:35:00 7.6 C 91 % 6.23 C
3153 30-04-2016 22:40:00 7.6 C 91 % 6.23 C
3154 30-04-2016 22:45:00 7.6 C 91 % 6.23 C
3155 30-04-2016 22:50:00 7.6 C 91 % 6.23 C
3156 30-04-2016 22:55:00 7.4 C 91 % 6.03 C
3157 30-04-2016 23:00:00 7.4 C 92 % 6.19 C
3158 30-04-2016 23:05:00 7.4 C 92 % 6.19 C
3159 30-04-2016 23:10:00 7.4 C 92 % 6.19 C
3160 30-04-2016 23:15:00 7.4 C 92 % 6.19 C
3161 30-04-2016 23:20:00 7.3 C 93 % 6.25 C
3162 30-04-2016 23:25:00 7.3 C 93 % 6.25 C
3163 30-04-2016 23:30:00 7.3 C 93 % 6.25 C
3164 30-04-2016 23:35:00 7.3 C 93 % 6.25 C
3165 30-04-2016 23:40:00 7.3 C 93 % 6.25 C
3166 30-04-2016 23:45:00 7.3 C 93 % 6.25 C
3167 30-04-2016 23:50:00 7.2 C 93 % 6.15 C
3168 30-04-2016 23:55:00 7.2 C 93 % 6.15 C
3169 01-05-2016 00:00:00 7.2 C 93 % 6.15 C
3170 01-05-2016 00:05:00 7.2 C 92 % 5.99 C
3171 01-05-2016 00:10:00 7.2 C 92 % 5.99 C
3172 01-05-2016 00:15:00 7.2 C 92 % 5.99 C
3173 01-05-2016 00:20:00 7.1 C 91 % 5.73 C
3174 01-05-2016 00:25:00 7.2 C 91 % 5.83 C
3175 01-05-2016 00:30:00 7.2 C 91 % 5.83 C
Sensor: Nr:Datum:Temp:Feuchte:Taupunkt:
Aussen-T/F 3176 01-05-2016 00:35:00 7.1 C 91 % 5.73 C
3177 01-05-2016 00:40:00 7.1 C 91 % 5.73 C
3178 01-05-2016 00:45:00 7.1 C 91 % 5.73 C
3179 01-05-2016 00:50:00 7.1 C 91 % 5.73 C
3180 01-05-2016 00:55:00 7.1 C 91 % 5.73 C
3181 01-05-2016 01:00:00 7.1 C 91 % 5.73 C
3182 01-05-2016 01:05:00 7.1 C 91 % 5.73 C
3183 01-05-2016 01:10:00 7.1 C 91 % 5.73 C
3184 01-05-2016 01:15:00 7.1 C 91 % 5.73 C
3185 01-05-2016 01:20:00 7.1 C 91 % 5.73 C
3186 01-05-2016 01:25:00 7 C 91 % 5.63 C
3187 01-05-2016 01:30:00 7 C 91 % 5.63 C
3188 01-05-2016 01:35:00 7.1 C 91 % 5.73 C
3189 01-05-2016 01:40:00 7.1 C 91 % 5.73 C
3190 01-05-2016 01:45:00 7 C 91 % 5.63 C
3191 01-05-2016 01:50:00 7 C 91 % 5.63 C
3192 01-05-2016 01:55:00 7 C 92 % 5.79 C
3193 01-05-2016 02:00:00 6.9 C 92 % 5.69 C
3194 01-05-2016 02:05:00 6.9 C 92 % 5.69 C
3195 01-05-2016 02:10:00 6.9 C 92 % 5.69 C
3196 01-05-2016 02:15:00 6.8 C 93 % 5.75 C
3197 01-05-2016 02:20:00 6.8 C 93 % 5.75 C
3198 01-05-2016 02:25:00 6.8 C 93 % 5.75 C
3199 01-05-2016 02:30:00 6.7 C 93 % 5.65 C
3200 01-05-2016 02:35:00 6.7 C 93 % 5.65 C
Sensor: Nr:Datum:Temp:Feuchte:Taupunkt:
Aussen-T/F 3201 01-05-2016 02:40:00 6.7 C 93 % 5.65 C
3202 01-05-2016 02:45:00 6.7 C 93 % 5.65 C
3203 01-05-2016 02:50:00 6.7 C 94 % 5.8 C
3204 01-05-2016 02:55:00 6.7 C 94 % 5.8 C
3205 01-05-2016 03:00:00 6.6 C 94 % 5.71 C
3206 01-05-2016 03:05:00 6.6 C 94 % 5.71 C
3207 01-05-2016 03:10:00 6.6 C 94 % 5.71 C
3208 01-05-2016 03:15:00 6.6 C 94 % 5.71 C
3209 01-05-2016 03:20:00 6.6 C 94 % 5.71 C
3210 01-05-2016 03:25:00 6.6 C 94 % 5.71 C
3211 01-05-2016 03:30:00 6.6 C 94 % 5.71 C
3212 01-05-2016 03:35:00 6.6 C 94 % 5.71 C
3213 01-05-2016 03:40:00 6.6 C 94 % 5.71 C
3214 01-05-2016 03:45:00 6.6 C 94 % 5.71 C
3215 01-05-2016 03:50:00 6.6 C 94 % 5.71 C
3216 01-05-2016 03:55:00 6.6 C 95 % 5.86 C
3217 01-05-2016 04:00:00 6.6 C 95 % 5.86 C
3218 01-05-2016 04:05:00 6.6 C 95 % 5.86 C
3219 01-05-2016 04:10:00 6.6 C 95 % 5.86 C
3220 01-05-2016 04:15:00 6.5 C 95 % 5.76 C
3221 01-05-2016 04:20:00 6.5 C 95 % 5.76 C
3222 01-05-2016 04:25:00 6.5 C 95 % 5.76 C
3223 01-05-2016 04:30:00 6.5 C 95 % 5.76 C
3224 01-05-2016 04:35:00 6.5 C 95 % 5.76 C
3225 01-05-2016 04:40:00 6.5 C 95 % 5.76 C
Sensor: Nr:Datum:Temp:Feuchte:Taupunkt:
Aussen-T/F 3226 01-05-2016 04:45:00 6.5 C 95 % 5.76 C
3227 01-05-2016 04:50:00 6.5 C 95 % 5.76 C
3228 01-05-2016 04:55:00 6.5 C 95 % 5.76 C
3229 01-05-2016 05:00:00 6.5 C 95 % 5.76 C
3230 01-05-2016 05:05:00 6.5 C 94 % 5.61 C
3231 01-05-2016 05:10:00 6.5 C 95 % 5.76 C
3232 01-05-2016 05:15:00 6.5 C 94 % 5.61 C
3233 01-05-2016 05:20:00 6.5 C 95 % 5.76 C
3234 01-05-2016 05:25:00 6.5 C 94 % 5.61 C
3235 01-05-2016 05:30:00 6.5 C 94 % 5.61 C
3236 01-05-2016 05:35:00 6.5 C 94 % 5.61 C
3237 01-05-2016 05:40:00 6.5 C 94 % 5.61 C
3238 01-05-2016 05:45:00 6.5 C 94 % 5.61 C
3239 01-05-2016 05:50:00 6.5 C 94 % 5.61 C
3240 01-05-2016 05:55:00 6.5 C 94 % 5.61 C
3241 01-05-2016 06:00:00 6.4 C 93 % 5.35 C
3242 01-05-2016 06:05:00 6.4 C 93 % 5.35 C
3243 01-05-2016 06:10:00 6.4 C 93 % 5.35 C
3244 01-05-2016 06:15:00 6.4 C 93 % 5.35 C
3245 01-05-2016 06:20:00 6.4 C 93 % 5.35 C
3246 01-05-2016 06:25:00 6.4 C 93 % 5.35 C
3247 01-05-2016 06:30:00 6.3 C 93 % 5.25 C
3248 01-05-2016 06:35:00 6.3 C 93 % 5.25 C
3249 01-05-2016 06:40:00 6.3 C 93 % 5.25 C
3250 01-05-2016 06:45:00 6.3 C 92 % 5.1 C
Sensor: Nr:Datum:Temp:Feuchte:Taupunkt:
Aussen-T/F 3251 01-05-2016 06:50:00 6.3 C 92 % 5.1 C
3252 01-05-2016 06:55:00 6.3 C 92 % 5.1 C
3253 01-05-2016 07:00:00 6.3 C 92 % 5.1 C
3254 01-05-2016 07:05:00 6.3 C 92 % 5.1 C
3255 01-05-2016 07:10:00 6.3 C 92 % 5.1 C
3256 01-05-2016 07:15:00 6.3 C 92 % 5.1 C
3257 01-05-2016 07:20:00 6.3 C 92 % 5.1 C
3258 01-05-2016 07:25:00 6.2 C 91 % 4.84 C
3259 01-05-2016 07:30:00 6.3 C 91 % 4.94 C
3260 01-05-2016 07:35:00 6.3 C 91 % 4.94 C
3261 01-05-2016 07:40:00 6.3 C 92 % 5.1 C
3262 01-05-2016 07:45:00 6.3 C 92 % 5.1 C
3263 01-05-2016 07:50:00 6.3 C 92 % 5.1 C
3264 01-05-2016 07:55:00 6.3 C 92 % 5.1 C
3265 01-05-2016 08:00:00 6.3 C 92 % 5.1 C
3266 01-05-2016 08:05:00 6.3 C 92 % 5.1 C
3267 01-05-2016 08:10:00 6.3 C 92 % 5.1 C
3268 01-05-2016 08:15:00 6.3 C 91 % 4.94 C
3269 01-05-2016 08:20:00 6.3 C 91 % 4.94 C
3270 01-05-2016 08:25:00 6.3 C 91 % 4.94 C
3271 01-05-2016 08:30:00 6.3 C 91 % 4.94 C
3272 01-05-2016 08:35:00 6.4 C 91 % 5.04 C
3273 01-05-2016 08:40:00 6.4 C 91 % 5.04 C
3274 01-05-2016 08:45:00 6.5 C 91 % 5.14 C
3275 01-05-2016 08:50:00 6.6 C 91 % 5.24 C
Sensor: Nr:Datum:Temp:Feuchte:Taupunkt:
Aussen-T/F 3276 01-05-2016 08:55:00 6.6 C 91 % 5.24 C
3277 01-05-2016 09:00:00 6.6 C 91 % 5.24 C
3278 01-05-2016 09:05:00 6.6 C 91 % 5.24 C
3279 01-05-2016 09:10:00 6.7 C 91 % 5.34 C
3280 01-05-2016 09:15:00 6.7 C 91 % 5.34 C
3281 01-05-2016 09:20:00 6.7 C 90 % 5.18 C
3282 01-05-2016 09:25:00 6.8 C 90 % 5.28 C
3283 01-05-2016 09:30:00 6.8 C 90 % 5.28 C
3284 01-05-2016 09:35:00 6.9 C 90 % 5.38 C
3285 01-05-2016 09:40:00 6.9 C 89 % 5.22 C
3286 01-05-2016 09:45:00 7 C 90 % 5.48 C
3287 01-05-2016 09:50:00 7.1 C 89 % 5.41 C
3288 01-05-2016 09:55:00 7.1 C 89 % 5.41 C
3289 01-05-2016 10:00:00 7.2 C 90 % 5.67 C
3290 01-05-2016 10:05:00 7.2 C 89 % 5.51 C
3291 01-05-2016 10:10:00 7.3 C 89 % 5.61 C
3292 01-05-2016 10:15:00 7.3 C 89 % 5.61 C
3293 01-05-2016 10:20:00 7.4 C 89 % 5.71 C
3294 01-05-2016 10:25:00 7.4 C 88 % 5.55 C
3295 01-05-2016 10:30:00 7.5 C 88 % 5.64 C
3296 01-05-2016 10:35:00 7.6 C 88 % 5.74 C
3297 01-05-2016 10:40:00 7.6 C 88 % 5.74 C
3298 01-05-2016 10:45:00 7.7 C 88 % 5.84 C
3299 01-05-2016 10:50:00 7.7 C 88 % 5.84 C
3300 01-05-2016 10:55:00 7.8 C 88 % 5.94 C
Sensor: Nr:Datum:Temp:Feuchte:Taupunkt:
Aussen-T/F 3301 01-05-2016 11:00:00 7.9 C 88 % 6.04 C
3302 01-05-2016 11:05:00 8 C 88 % 6.14 C
3303 01-05-2016 11:10:00 8.1 C 88 % 6.24 C
3304 01-05-2016 11:15:00 8.2 C 88 % 6.33 C
3305 01-05-2016 11:20:00 8.3 C 88 % 6.43 C
3306 01-05-2016 11:25:00 8.4 C 88 % 6.53 C
3307 01-05-2016 11:30:00 8.6 C 88 % 6.73 C
3308 01-05-2016 11:35:00 8.8 C 87 % 6.76 C
3309 01-05-2016 11:40:00 8.9 C 87 % 6.86 C
3310 01-05-2016 11:45:00 9.1 C 86 % 6.89 C
3311 01-05-2016 11:50:00 9.2 C 86 % 6.98 C
3312 01-05-2016 11:55:00 9.3 C 86 % 7.08 C
3313 01-05-2016 12:00:00 9.3 C 86 % 7.08 C
3314 01-05-2016 12:05:00 9.4 C 86 % 7.18 C
3315 01-05-2016 12:10:00 9.4 C 86 % 7.18 C
3316 01-05-2016 12:15:00 9.4 C 86 % 7.18 C
3317 01-05-2016 12:20:00 9.5 C 86 % 7.28 C
3318 01-05-2016 12:25:00 9.6 C 86 % 7.38 C
3319 01-05-2016 12:30:00 9.8 C 87 % 7.74 C
3320 01-05-2016 12:35:00 9.9 C 86 % 7.67 C
3321 01-05-2016 12:40:00 10.1 C 86 % 7.87 C
3322 01-05-2016 12:45:00 10.3 C 86 % 8.06 C
3323 01-05-2016 12:50:00 10.4 C 84 % 7.82 C
3324 01-05-2016 12:55:00 10.6 C 84 % 8.01 C
3325 01-05-2016 13:00:00 10.7 C 83 % 7.93 C
Sensor: Nr:Datum:Temp:Feuchte:Taupunkt:
Aussen-T/F 3326 01-05-2016 13:05:00 10.9 C 83 % 8.13 C
3327 01-05-2016 13:10:00 11 C 82 % 8.05 C
3328 01-05-2016 13:15:00 11.1 C 82 % 8.15 C
3329 01-05-2016 13:20:00 11.1 C 82 % 8.15 C
3330 01-05-2016 13:25:00 11.2 C 82 % 8.25 C
3331 01-05-2016 13:30:00 11.3 C 81 % 8.16 C
3332 01-05-2016 13:35:00 11.4 C 80 % 8.08 C
3333 01-05-2016 13:40:00 11.6 C 81 % 8.45 C
3334 01-05-2016 13:45:00 11.7 C 81 % 8.55 C
3335 01-05-2016 13:50:00 11.9 C 81 % 8.75 C
3336 01-05-2016 13:55:00 12.2 C 79 % 8.67 C
3337 01-05-2016 14:00:00 12.4 C 79 % 8.86 C
3338 01-05-2016 14:05:00 12.8 C 76 % 8.68 C
3339 01-05-2016 14:10:00 13 C 77 % 9.07 C
3340 01-05-2016 14:15:00 13.2 C 74 % 8.67 C
3341 01-05-2016 14:20:00 13.2 C 74 % 8.67 C
3342 01-05-2016 14:25:00 13.2 C 74 % 8.67 C
3343 01-05-2016 14:30:00 13.2 C 73 % 8.47 C
3344 01-05-2016 14:35:00 13.2 C 73 % 8.47 C
3345 01-05-2016 14:40:00 13.5 C 72 % 8.56 C
3346 01-05-2016 14:45:00 13.8 C 70 % 8.43 C
3347 01-05-2016 14:50:00 13.9 C 68 % 8.1 C
3348 01-05-2016 14:55:00 14 C 68 % 8.19 C
3349 01-05-2016 15:00:00 14.1 C 68 % 8.29 C
3350 01-05-2016 15:05:00 14.2 C 69 % 8.6 C
Sensor: Nr:Datum:Temp:Feuchte:Taupunkt:
Aussen-T/F 3351 01-05-2016 15:10:00 14.3 C 69 % 8.7 C
3352 01-05-2016 15:15:00 14.3 C 68 % 8.48 C
3353 01-05-2016 15:20:00 14.3 C 69 % 8.7 C
3354 01-05-2016 15:25:00 14.5 C 66 % 8.23 C
3355 01-05-2016 15:30:00 14.4 C 67 % 8.36 C
3356 01-05-2016 15:35:00 14.5 C 66 % 8.23 C
3357 01-05-2016 15:40:00 14.6 C 67 % 8.55 C
3358 01-05-2016 15:45:00 14.9 C 66 % 8.61 C
3359 01-05-2016 15:50:00 15.1 C 66 % 8.8 C
3360 01-05-2016 15:55:00 15.3 C 66 % 8.99 C
3361 01-05-2016 16:00:00 15.3 C 66 % 8.99 C
3362 01-05-2016 16:05:00 15.2 C 63 % 8.21 C
3363 01-05-2016 16:10:00 15.1 C 64 % 8.35 C
3364 01-05-2016 16:15:00 15.1 C 65 % 8.58 C
3365 01-05-2016 16:20:00 15.1 C 64 % 8.35 C
3366 01-05-2016 16:25:00 15.3 C 64 % 8.54 C
3367 01-05-2016 16:30:00 15.3 C 64 % 8.54 C
3368 01-05-2016 16:35:00 15.4 C 63 % 8.4 C
3369 01-05-2016 16:40:00 15.5 C 63 % 8.49 C
3370 01-05-2016 16:45:00 15.7 C 64 % 8.92 C
3371 01-05-2016 16:50:00 15.6 C 62 % 8.35 C
3372 01-05-2016 16:55:00 15.6 C 62 % 8.35 C
3373 01-05-2016 17:00:00 15.6 C 63 % 8.59 C
3374 01-05-2016 17:05:00 15.6 C 62 % 8.35 C
3375 01-05-2016 17:10:00 15.7 C 62 % 8.45 C
Sensor: Nr:Datum:Temp:Feuchte:Taupunkt:
Aussen-T/F 3376 01-05-2016 17:15:00 16 C 62 % 8.73 C
3377 01-05-2016 17:20:00 16.1 C 60 % 8.34 C
3378 01-05-2016 17:25:00 15.9 C 59 % 7.91 C
3379 01-05-2016 17:30:00 15.8 C 60 % 8.06 C
3380 01-05-2016 17:35:00 15.7 C 61 % 8.21 C
3381 01-05-2016 17:40:00 15.8 C 62 % 8.54 C
3382 01-05-2016 17:45:00 15.8 C 61 % 8.3 C
3383 01-05-2016 17:50:00 15.8 C 61 % 8.3 C
3384 01-05-2016 17:55:00 15.8 C 61 % 8.3 C
3385 01-05-2016 18:00:00 15.8 C 60 % 8.06 C
3386 01-05-2016 18:05:00 15.7 C 61 % 8.21 C
3387 01-05-2016 18:10:00 15.7 C 60 % 7.97 C
3388 01-05-2016 18:15:00 15.7 C 60 % 7.97 C
3389 01-05-2016 18:20:00 15.6 C 61 % 8.11 C
3390 01-05-2016 18:25:00 15.7 C 61 % 8.21 C
3391 01-05-2016 18:30:00 15.8 C 61 % 8.3 C
3392 01-05-2016 18:35:00 15.9 C 60 % 8.15 C
3393 01-05-2016 18:40:00 16 C 60 % 8.25 C
3394 01-05-2016 18:45:00 16.3 C 60 % 8.53 C
3395 01-05-2016 18:50:00 16.6 C 59 % 8.56 C
3396 01-05-2016 18:55:00 16.8 C 60 % 9 C
3397 01-05-2016 19:00:00 17.1 C 59 % 9.03 C
3398 01-05-2016 19:05:00 17.2 C 58 % 8.87 C
3399 01-05-2016 19:10:00 16.8 C 57 % 8.24 C
3400 01-05-2016 19:15:00 16.5 C 58 % 8.22 C
Sensor: Nr:Datum:Temp:Feuchte:Taupunkt:
Aussen-T/F 3401 01-05-2016 19:20:00 16.3 C 57 % 7.77 C
3402 01-05-2016 19:25:00 16.3 C 58 % 8.03 C
3403 01-05-2016 19:30:00 16.3 C 57 % 7.77 C
3404 01-05-2016 19:35:00 16.2 C 58 % 7.94 C
3405 01-05-2016 19:40:00 16.1 C 59 % 8.09 C
3406 01-05-2016 19:45:00 16 C 59 % 8 C
3407 01-05-2016 19:50:00 15.9 C 60 % 8.15 C
3408 01-05-2016 19:55:00 15.8 C 59 % 7.81 C
3409 01-05-2016 20:00:00 15.7 C 59 % 7.72 C
3410 01-05-2016 20:05:00 15.6 C 61 % 8.11 C
3411 01-05-2016 20:10:00 15.4 C 61 % 7.93 C
3412 01-05-2016 20:15:00 15.3 C 62 % 8.07 C
3413 01-05-2016 20:20:00 15.2 C 62 % 7.98 C
3414 01-05-2016 20:25:00 15.1 C 62 % 7.88 C
3415 01-05-2016 20:30:00 14.8 C 63 % 7.83 C
3416 01-05-2016 20:35:00 14.6 C 65 % 8.1 C
3417 01-05-2016 20:40:00 14.3 C 66 % 8.04 C
3418 01-05-2016 20:45:00 13.9 C 69 % 8.31 C
3419 01-05-2016 20:50:00 13.6 C 70 % 8.24 C
3420 01-05-2016 20:55:00 13.2 C 72 % 8.27 C
3421 01-05-2016 21:00:00 12.8 C 75 % 8.48 C
3422 01-05-2016 21:05:00 12.3 C 76 % 8.2 C
3423 01-05-2016 21:10:00 12 C 77 % 8.1 C
3424 01-05-2016 21:15:00 11.7 C 79 % 8.18 C
3425 01-05-2016 21:20:00 11.5 C 79 % 7.99 C
Sensor: Nr:Datum:Temp:Feuchte:Taupunkt:
Aussen-T/F 3426 01-05-2016 21:25:00 11.4 C 78 % 7.71 C
3427 01-05-2016 21:30:00 11.4 C 79 % 7.89 C
3428 01-05-2016 21:35:00 11.6 C 78 % 7.9 C
3429 01-05-2016 21:40:00 11.6 C 79 % 8.09 C
3430 01-05-2016 21:45:00 11.5 C 78 % 7.8 C
3431 01-05-2016 21:50:00 11.5 C 78 % 7.8 C
3432 01-05-2016 21:55:00 11.5 C 79 % 7.99 C
3433 01-05-2016 22:00:00 11.4 C 79 % 7.89 C
3434 01-05-2016 22:05:00 11.4 C 78 % 7.71 C
3435 01-05-2016 22:10:00 11.4 C 79 % 7.89 C
3436 01-05-2016 22:15:00 11.3 C 79 % 7.8 C
3437 01-05-2016 22:20:00 11.4 C 78 % 7.71 C
3438 01-05-2016 22:25:00 11.6 C 77 % 7.71 C
3439 01-05-2016 22:30:00 11.6 C 77 % 7.71 C
3440 01-05-2016 22:35:00 11.4 C 78 % 7.71 C
3441 01-05-2016 22:40:00 11.3 C 79 % 7.8 C
3442 01-05-2016 22:45:00 11 C 80 % 7.69 C
3443 01-05-2016 22:50:00 10.8 C 81 % 7.67 C
3444 01-05-2016 22:55:00 10.8 C 81 % 7.67 C
3445 01-05-2016 23:00:00 10.7 C 82 % 7.76 C
3446 01-05-2016 23:05:00 10.4 C 82 % 7.46 C
3447 01-05-2016 23:10:00 10.2 C 83 % 7.45 C
3448 01-05-2016 23:15:00 10 C 84 % 7.43 C
3449 01-05-2016 23:20:00 9.8 C 85 % 7.4 C
3450 01-05-2016 23:25:00 9.8 C 85 % 7.4 C
Sensor: Nr:Datum:Temp:Feuchte:Taupunkt:
Aussen-T/F 3451 01-05-2016 23:30:00 9.7 C 85 % 7.3 C
3452 01-05-2016 23:35:00 9.7 C 85 % 7.3 C
3453 01-05-2016 23:40:00 9.5 C 86 % 7.28 C
3454 01-05-2016 23:45:00 9.4 C 86 % 7.18 C
3455 01-05-2016 23:50:00 9.3 C 86 % 7.08 C
3456 01-05-2016 23:55:00 9.2 C 87 % 7.15 C
3457 02-05-2016 00:00:00 9.1 C 87 % 7.05 C
3458 02-05-2016 00:05:00 9.1 C 87 % 7.05 C
3459 02-05-2016 00:10:00 8.9 C 88 % 7.02 C
3460 02-05-2016 00:15:00 8.9 C 88 % 7.02 C
3461 02-05-2016 00:20:00 8.9 C 88 % 7.02 C
3462 02-05-2016 00:25:00 9 C 87 % 6.96 C
3463 02-05-2016 00:30:00 8.9 C 87 % 6.86 C
3464 02-05-2016 00:35:00 8.8 C 88 % 6.93 C
3465 02-05-2016 00:40:00 8.7 C 88 % 6.83 C
3466 02-05-2016 00:45:00 8.6 C 88 % 6.73 C
3467 02-05-2016 00:50:00 8.6 C 89 % 6.89 C
3468 02-05-2016 00:55:00 8.6 C 88 % 6.73 C
3469 02-05-2016 01:00:00 8.6 C 88 % 6.73 C
3470 02-05-2016 01:05:00 8.6 C 88 % 6.73 C
3471 02-05-2016 01:10:00 8.6 C 88 % 6.73 C
3472 02-05-2016 01:15:00 8.5 C 88 % 6.63 C
3473 02-05-2016 01:20:00 8.4 C 88 % 6.53 C
3474 02-05-2016 01:25:00 8.3 C 88 % 6.43 C
3475 02-05-2016 01:30:00 8.3 C 89 % 6.6 C
Sensor: Nr:Datum:Temp:Feuchte:Taupunkt:
Aussen-T/F 3476 02-05-2016 01:35:00 8.2 C 89 % 6.5 C
3477 02-05-2016 01:40:00 8.2 C 90 % 6.66 C
3478 02-05-2016 01:45:00 8.1 C 89 % 6.4 C
3479 02-05-2016 01:50:00 8 C 89 % 6.3 C
3480 02-05-2016 01:55:00 8 C 90 % 6.46 C
3481 02-05-2016 02:00:00 7.9 C 90 % 6.36 C
3482 02-05-2016 02:05:00 7.9 C 90 % 6.36 C
3483 02-05-2016 02:10:00 7.8 C 90 % 6.27 C
3484 02-05-2016 02:15:00 7.8 C 90 % 6.27 C
3485 02-05-2016 02:20:00 7.7 C 90 % 6.17 C
3486 02-05-2016 02:25:00 7.7 C 90 % 6.17 C
3487 02-05-2016 02:30:00 7.6 C 91 % 6.23 C
3488 02-05-2016 02:35:00 7.6 C 91 % 6.23 C
3489 02-05-2016 02:40:00 7.4 C 90 % 5.87 C
3490 02-05-2016 02:45:00 7.3 C 91 % 5.93 C
3491 02-05-2016 02:50:00 7.3 C 91 % 5.93 C
3492 02-05-2016 02:55:00 7.2 C 91 % 5.83 C
3493 02-05-2016 03:00:00 7.2 C 91 % 5.83 C
3494 02-05-2016 03:05:00 7.1 C 91 % 5.73 C
3495 02-05-2016 03:10:00 7 C 91 % 5.63 C
3496 02-05-2016 03:15:00 6.8 C 90 % 5.28 C
3497 02-05-2016 03:20:00 6.6 C 91 % 5.24 C
3498 02-05-2016 03:25:00 6.5 C 91 % 5.14 C
3499 02-05-2016 03:30:00 6.4 C 91 % 5.04 C
3500 02-05-2016 03:35:00 6.2 C 91 % 4.84 C
Sensor: Nr:Datum:Temp:Feuchte:Taupunkt:
Aussen-T/F 3501 02-05-2016 03:40:00 6.1 C 92 % 4.9 C
3502 02-05-2016 03:45:00 5.9 C 92 % 4.7 C
3503 02-05-2016 03:50:00 5.9 C 92 % 4.7 C
3504 02-05-2016 03:55:00 5.8 C 92 % 4.6 C
3505 02-05-2016 04:00:00 5.7 C 93 % 4.66 C
3506 02-05-2016 04:05:00 5.7 C 93 % 4.66 C
3507 02-05-2016 04:10:00 5.6 C 93 % 4.56 C
3508 02-05-2016 04:15:00 5.5 C 93 % 4.46 C
3509 02-05-2016 04:20:00 5.4 C 93 % 4.36 C
3510 02-05-2016 04:25:00 5.3 C 93 % 4.26 C
3511 02-05-2016 04:30:00 5.2 C 93 % 4.16 C
3512 02-05-2016 04:35:00 5.1 C 93 % 4.06 C
3513 02-05-2016 04:40:00 5.1 C 93 % 4.06 C
3514 02-05-2016 04:45:00 4.9 C 93 % 3.87 C
3515 02-05-2016 04:50:00 4.9 C 94 % 4.02 C
3516 02-05-2016 04:55:00 4.8 C 93 % 3.77 C
3517 02-05-2016 05:00:00 4.7 C 94 % 3.82 C
3518 02-05-2016 05:05:00 4.7 C 94 % 3.82 C
3519 02-05-2016 05:10:00 4.6 C 94 % 3.72 C
3520 02-05-2016 05:15:00 4.6 C 94 % 3.72 C
3521 02-05-2016 05:20:00 4.6 C 94 % 3.72 C
3522 02-05-2016 05:25:00 4.6 C 94 % 3.72 C
3523 02-05-2016 05:30:00 4.5 C 94 % 3.62 C
3524 02-05-2016 05:35:00 4.4 C 94 % 3.52 C
3525 02-05-2016 05:40:00 4.3 C 94 % 3.42 C
Sensor: Nr:Datum:Temp:Feuchte:Taupunkt:
Aussen-T/F 3526 02-05-2016 05:45:00 4.3 C 94 % 3.42 C
3527 02-05-2016 05:50:00 4.2 C 94 % 3.32 C
3528 02-05-2016 05:55:00 4.2 C 94 % 3.32 C
3529 02-05-2016 06:00:00 4.2 C 95 % 3.47 C
3530 02-05-2016 06:05:00 4.2 C 94 % 3.32 C
3531 02-05-2016 06:10:00 4.1 C 95 % 3.37 C
3532 02-05-2016 06:15:00 4.1 C 95 % 3.37 C
3533 02-05-2016 06:20:00 4 C 95 % 3.27 C
3534 02-05-2016 06:25:00 4 C 95 % 3.27 C
3535 02-05-2016 06:30:00 4 C 95 % 3.27 C
3536 02-05-2016 06:35:00 3.9 C 95 % 3.17 C
3537 02-05-2016 06:40:00 3.9 C 95 % 3.17 C
3538 02-05-2016 06:45:00 3.9 C 95 % 3.17 C
3539 02-05-2016 06:50:00 3.9 C 95 % 3.17 C
3540 02-05-2016 06:55:00 3.9 C 95 % 3.17 C
3541 02-05-2016 07:00:00 4 C 95 % 3.27 C
3542 02-05-2016 07:05:00 4.1 C 95 % 3.37 C
3543 02-05-2016 07:10:00 4.2 C 95 % 3.47 C
3544 02-05-2016 07:15:00 4.2 C 95 % 3.47 C
3545 02-05-2016 07:20:00 4.3 C 95 % 3.57 C
3546 02-05-2016 07:25:00 4.4 C 95 % 3.67 C
3547 02-05-2016 07:30:00 4.5 C 96 % 3.92 C
3548 02-05-2016 07:35:00 4.6 C 96 % 4.02 C
3549 02-05-2016 07:40:00 4.7 C 96 % 4.12 C
3550 02-05-2016 07:45:00 4.7 C 96 % 4.12 C
Sensor: Nr:Datum:Temp:Feuchte:Taupunkt:
Aussen-T/F 3551 02-05-2016 07:50:00 4.8 C 96 % 4.22 C
3552 02-05-2016 07:55:00 4.8 C 96 % 4.22 C
3553 02-05-2016 08:00:00 4.9 C 96 % 4.32 C
3554 02-05-2016 08:05:00 5 C 96 % 4.42 C
3555 02-05-2016 08:10:00 5.1 C 96 % 4.52 C
3556 02-05-2016 08:15:00 5.1 C 96 % 4.52 C
3557 02-05-2016 08:20:00 5.2 C 96 % 4.62 C
3558 02-05-2016 08:25:00 5.2 C 96 % 4.62 C
3559 02-05-2016 08:30:00 5.3 C 96 % 4.72 C
3560 02-05-2016 08:35:00 5.4 C 96 % 4.81 C
3561 02-05-2016 08:40:00 5.5 C 96 % 4.91 C
3562 02-05-2016 08:45:00 5.6 C 96 % 5.01 C
3563 02-05-2016 08:50:00 5.7 C 96 % 5.11 C
3564 02-05-2016 08:55:00 5.8 C 96 % 5.21 C
3565 02-05-2016 09:00:00 5.8 C 96 % 5.21 C
3566 02-05-2016 09:05:00 5.9 C 96 % 5.31 C
3567 02-05-2016 09:10:00 5.9 C 96 % 5.31 C
3568 02-05-2016 09:15:00 6.1 C 96 % 5.51 C
3569 02-05-2016 09:20:00 6.2 C 96 % 5.61 C
3570 02-05-2016 09:25:00 6.3 C 96 % 5.71 C
3571 02-05-2016 09:30:00 6.3 C 96 % 5.71 C
3572 02-05-2016 09:35:00 6.5 C 96 % 5.91 C
3573 02-05-2016 09:40:00 6.7 C 97 % 6.26 C
3574 02-05-2016 09:45:00 6.8 C 96 % 6.21 C
3575 02-05-2016 09:50:00 7 C 97 % 6.56 C
Sensor: Nr:Datum:Temp:Feuchte:Taupunkt:
Aussen-T/F 3576 02-05-2016 09:55:00 7.2 C 97 % 6.76 C
3577 02-05-2016 10:00:00 7.4 C 97 % 6.96 C
3578 02-05-2016 10:05:00 7.6 C 97 % 7.16 C
3579 02-05-2016 10:10:00 7.8 C 97 % 7.35 C
3580 02-05-2016 10:15:00 8.1 C 97 % 7.65 C
3581 02-05-2016 10:20:00 8.3 C 97 % 7.85 C
3582 02-05-2016 10:25:00 8.6 C 97 % 8.15 C
3583 02-05-2016 10:30:00 8.8 C 97 % 8.35 C
3584 02-05-2016 10:35:00 9 C 96 % 8.4 C
3585 02-05-2016 10:40:00 9.2 C 96 % 8.6 C
3586 02-05-2016 10:45:00 9.4 C 95 % 8.64 C
3587 02-05-2016 10:50:00 9.7 C 93 % 8.62 C
3588 02-05-2016 10:55:00 10.2 C 91 % 8.8 C
3589 02-05-2016 11:00:00 10.6 C 88 % 8.7 C
3590 02-05-2016 11:05:00 11 C 87 % 8.92 C
3591 02-05-2016 11:10:00 11.3 C 85 % 8.87 C
3592 02-05-2016 11:15:00 11.6 C 83 % 8.81 C
3593 02-05-2016 11:20:00 11.9 C 81 % 8.75 C
3594 02-05-2016 11:25:00 12.2 C 82 % 9.22 C
3595 02-05-2016 11:30:00 12.5 C 80 % 9.15 C
3596 02-05-2016 11:35:00 12.8 C 80 % 9.44 C
3597 02-05-2016 11:40:00 13.1 C 80 % 9.73 C
3598 02-05-2016 11:45:00 13.3 C 78 % 9.55 C
3599 02-05-2016 11:50:00 13.6 C 77 % 9.65 C
3600 02-05-2016 11:55:00 13.8 C 75 % 9.45 C
Sensor: Nr:Datum:Temp:Feuchte:Taupunkt:
Aussen-T/F 3601 02-05-2016 12:00:00 14.2 C 71 % 9.02 C
3602 02-05-2016 12:05:00 14.6 C 72 % 9.61 C
3603 02-05-2016 12:10:00 14.8 C 67 % 8.74 C
3604 02-05-2016 12:15:00 15.2 C 65 % 8.67 C
3605 02-05-2016 12:20:00 15.5 C 61 % 8.02 C
3606 02-05-2016 12:25:00 15.7 C 59 % 7.72 C
3607 02-05-2016 12:30:00 15.8 C 57 % 7.31 C
3608 02-05-2016 12:35:00 15.9 C 57 % 7.4 C
3609 02-05-2016 12:40:00 15.9 C 54 % 6.61 C
3610 02-05-2016 12:45:00 16 C 53 % 6.44 C
3611 02-05-2016 12:50:00 16.1 C 55 % 7.07 C
3612 02-05-2016 12:55:00 16.2 C 53 % 6.62 C
3613 02-05-2016 13:00:00 16.5 C 53 % 6.9 C
3614 02-05-2016 13:05:00 16.7 C 53 % 7.08 C
3615 02-05-2016 13:10:00 16.7 C 54 % 7.36 C
3616 02-05-2016 13:15:00 16.7 C 53 % 7.08 C
3617 02-05-2016 13:20:00 16.9 C 49 % 6.13 C
3618 02-05-2016 13:25:00 17.1 C 49 % 6.31 C
3619 02-05-2016 13:30:00 17.3 C 48 % 6.2 C
3620 02-05-2016 13:35:00 17.3 C 48 % 6.2 C
3621 02-05-2016 13:40:00 17.3 C 47 % 5.89 C
3622 02-05-2016 13:45:00 17.4 C 47 % 5.98 C
3623 02-05-2016 13:50:00 17.5 C 46 % 5.76 C
3624 02-05-2016 13:55:00 17.6 C 46 % 5.86 C
3625 02-05-2016 14:00:00 17.6 C 46 % 5.86 C
Sensor: Nr:Datum:Temp:Feuchte:Taupunkt:
Aussen-T/F 3626 02-05-2016 14:05:00 17.6 C 48 % 6.47 C
3627 02-05-2016 14:10:00 17.5 C 47 % 6.07 C
3628 02-05-2016 14:15:00 17.4 C 47 % 5.98 C
3629 02-05-2016 14:20:00 17.6 C 48 % 6.47 C
3630 02-05-2016 14:25:00 17.6 C 46 % 5.86 C
3631 02-05-2016 14:30:00 17.8 C 48 % 6.65 C
3632 02-05-2016 14:35:00 18.1 C 46 % 6.31 C
3633 02-05-2016 14:40:00 18.2 C 45 % 6.08 C
3634 02-05-2016 14:45:00 18.3 C 44 % 5.85 C
3635 02-05-2016 14:50:00 18.3 C 44 % 5.85 C
3636 02-05-2016 14:55:00 18.6 C 46 % 6.77 C
3637 02-05-2016 15:00:00 18.7 C 42 % 5.54 C
3638 02-05-2016 15:05:00 18.7 C 45 % 6.54 C
3639 02-05-2016 15:10:00 18.9 C 43 % 6.06 C
3640 02-05-2016 15:15:00 19 C 43 % 6.15 C
3641 02-05-2016 15:20:00 19.2 C 44 % 6.66 C
3642 02-05-2016 15:25:00 19.4 C 42 % 6.17 C
3643 02-05-2016 15:30:00 19.7 C 43 % 6.78 C
3644 02-05-2016 15:35:00 20.1 C 41 % 6.45 C
3645 02-05-2016 15:40:00 20.4 C 41 % 6.72 C
3646 02-05-2016 15:45:00 20.8 C 44 % 8.11 C
3647 02-05-2016 15:50:00 20.8 C 39 % 6.35 C
3648 02-05-2016 15:55:00 20.6 C 38 % 5.8 C
3649 02-05-2016 16:00:00 20.6 C 38 % 5.8 C
3650 02-05-2016 16:05:00 20.5 C 42 % 7.16 C
Sensor: Nr:Datum:Temp:Feuchte:Taupunkt:
Aussen-T/F 3651 02-05-2016 16:10:00 20.6 C 39 % 6.17 C
3652 02-05-2016 16:15:00 20.8 C 39 % 6.35 C
3653 02-05-2016 16:20:00 21.2 C 40 % 7.08 C
3654 02-05-2016 16:25:00 21.6 C 43 % 8.49 C
3655 02-05-2016 16:30:00 21.9 C 40 % 7.7 C
3656 02-05-2016 16:35:00 22.2 C 36 % 6.43 C
3657 02-05-2016 16:40:00 22.3 C 38 % 7.31 C
3658 02-05-2016 16:45:00 22.3 C 39 % 7.69 C
3659 02-05-2016 16:50:00 22.3 C 39 % 7.69 C
3660 02-05-2016 16:55:00 22.4 C 42 % 8.87 C
3661 02-05-2016 17:00:00 22.7 C 38 % 7.66 C
3662 02-05-2016 17:05:00 22.7 C 35 % 6.46 C
3663 02-05-2016 17:10:00 22.6 C 37 % 7.18 C
3664 02-05-2016 17:15:00 22.4 C 39 % 7.78 C
3665 02-05-2016 17:20:00 22.4 C 37 % 7.01 C
3666 02-05-2016 17:25:00 22.4 C 39 % 7.78 C
3667 02-05-2016 17:30:00 22.4 C 38 % 7.4 C
3668 02-05-2016 17:35:00 22.5 C 40 % 8.24 C
3669 02-05-2016 17:40:00 22.6 C 38 % 7.57 C
3670 02-05-2016 17:45:00 22.7 C 41 % 8.78 C
3671 02-05-2016 17:50:00 22.7 C 37 % 7.27 C
3672 02-05-2016 17:55:00 22.6 C 36 % 6.78 C
3673 02-05-2016 18:00:00 22.3 C 36 % 6.52 C
3674 02-05-2016 18:05:00 22.3 C 36 % 6.52 C
3675 02-05-2016 18:10:00 22.2 C 36 % 6.43 C
Sensor: Nr:Datum:Temp:Feuchte:Taupunkt:
Aussen-T/F 3676 02-05-2016 18:15:00 22.3 C 37 % 6.92 C
3677 02-05-2016 18:20:00 22.3 C 38 % 7.31 C
3678 02-05-2016 18:25:00 22.4 C 36 % 6.61 C
3679 02-05-2016 18:30:00 22.5 C 38 % 7.48 C
3680 02-05-2016 18:35:00 22.8 C 36 % 6.96 C
3681 02-05-2016 18:40:00 22.8 C 35 % 6.55 C
3682 02-05-2016 18:45:00 22.8 C 36 % 6.96 C
3683 02-05-2016 18:50:00 22.6 C 35 % 6.38 C
3684 02-05-2016 18:55:00 22.2 C 36 % 6.43 C
3685 02-05-2016 19:00:00 22 C 36 % 6.26 C
3686 02-05-2016 19:05:00 21.9 C 35 % 5.76 C
3687 02-05-2016 19:10:00 21.9 C 37 % 6.56 C
3688 02-05-2016 19:15:00 21.8 C 37 % 6.48 C
3689 02-05-2016 19:20:00 21.6 C 40 % 7.43 C
3690 02-05-2016 19:25:00 21.3 C 45 % 8.89 C
3691 02-05-2016 19:30:00 20.9 C 48 % 9.49 C
3692 02-05-2016 19:35:00 20.4 C 51 % 9.93 C
3693 02-05-2016 19:40:00 19.8 C 53 % 9.95 C
3694 02-05-2016 19:45:00 19.1 C 55 % 9.86 C
3695 02-05-2016 19:50:00 18.3 C 58 % 9.9 C
3696 02-05-2016 19:55:00 17.5 C 60 % 9.66 C
3697 02-05-2016 20:00:00 16.8 C 61 % 9.24 C
3698 02-05-2016 20:05:00 16.3 C 61 % 8.77 C
3699 02-05-2016 20:10:00 15.9 C 63 % 8.87 C
3700 02-05-2016 20:15:00 15.7 C 64 % 8.92 C
Sensor: Nr:Datum:Temp:Feuchte:Taupunkt:
Aussen-T/F 3701 02-05-2016 20:20:00 15.3 C 64 % 8.54 C
3702 02-05-2016 20:25:00 15.1 C 65 % 8.58 C
3703 02-05-2016 20:30:00 14.9 C 67 % 8.83 C
3704 02-05-2016 20:35:00 14.7 C 67 % 8.64 C
3705 02-05-2016 20:40:00 14.4 C 69 % 8.79 C
3706 02-05-2016 20:45:00 14.2 C 68 % 8.39 C
3707 02-05-2016 20:50:00 13.9 C 69 % 8.31 C
3708 02-05-2016 20:55:00 13.8 C 69 % 8.22 C
3709 02-05-2016 21:00:00 13.6 C 70 % 8.24 C
3710 02-05-2016 21:05:00 13.3 C 70 % 7.95 C
3711 02-05-2016 21:10:00 13.2 C 72 % 8.27 C
3712 02-05-2016 21:15:00 12.9 C 73 % 8.18 C
3713 02-05-2016 21:20:00 12.8 C 73 % 8.09 C
3714 02-05-2016 21:25:00 12.7 C 73 % 7.99 C
3715 02-05-2016 21:30:00 12.5 C 74 % 8 C
3716 02-05-2016 21:35:00 12.3 C 75 % 8 C
3717 02-05-2016 21:40:00 12.2 C 75 % 7.91 C
3718 02-05-2016 21:45:00 12 C 75 % 7.71 C
3719 02-05-2016 21:50:00 11.9 C 75 % 7.62 C
3720 02-05-2016 21:55:00 11.9 C 75 % 7.62 C
3721 02-05-2016 22:00:00 11.8 C 75 % 7.52 C
3722 02-05-2016 22:05:00 11.7 C 75 % 7.42 C
3723 02-05-2016 22:10:00 11.6 C 76 % 7.52 C
3724 02-05-2016 22:15:00 11.4 C 76 % 7.33 C
3725 02-05-2016 22:20:00 11.4 C 74 % 6.94 C
Sensor: Nr:Datum:Temp:Feuchte:Taupunkt:
Aussen-T/F 3726 02-05-2016 22:25:00 11.3 C 75 % 7.04 C
3727 02-05-2016 22:30:00 11.3 C 76 % 7.23 C
3728 02-05-2016 22:35:00 11.3 C 76 % 7.23 C
3729 02-05-2016 22:40:00 11.4 C 76 % 7.33 C
3730 02-05-2016 22:45:00 11.4 C 76 % 7.33 C
3731 02-05-2016 22:50:00 11.4 C 78 % 7.71 C
3732 02-05-2016 22:55:00 11.4 C 78 % 7.71 C
3733 02-05-2016 23:00:00 11.4 C 78 % 7.71 C
3734 02-05-2016 23:05:00 11.4 C 79 % 7.89 C
3735 02-05-2016 23:10:00 11.3 C 80 % 7.98 C
3736 02-05-2016 23:15:00 11.3 C 79 % 7.8 C
3737 02-05-2016 23:20:00 11.2 C 79 % 7.7 C
3738 02-05-2016 23:25:00 11.2 C 80 % 7.88 C
3739 02-05-2016 23:30:00 11.1 C 81 % 7.97 C
3740 02-05-2016 23:35:00 10.9 C 81 % 7.77 C
3741 02-05-2016 23:40:00 10.8 C 82 % 7.85 C
3742 02-05-2016 23:45:00 10.7 C 82 % 7.76 C
3743 02-05-2016 23:50:00 10.6 C 82 % 7.66 C
3744 02-05-2016 23:55:00 10.4 C 83 % 7.64 C
3745 03-05-2016 00:00:00 10.3 C 83 % 7.54 C
3746 03-05-2016 00:05:00 10.2 C 83 % 7.45 C
3747 03-05-2016 00:10:00 10.1 C 84 % 7.52 C
3748 03-05-2016 00:15:00 9.9 C 85 % 7.5 C
3749 03-05-2016 00:20:00 9.8 C 85 % 7.4 C
3750 03-05-2016 00:25:00 9.8 C 86 % 7.57 C
Sensor: Nr:Datum:Temp:Feuchte:Taupunkt:
Aussen-T/F 3751 03-05-2016 00:30:00 9.7 C 86 % 7.47 C
3752 03-05-2016 00:35:00 9.7 C 86 % 7.47 C
3753 03-05-2016 00:40:00 9.7 C 86 % 7.47 C
3754 03-05-2016 00:45:00 9.6 C 87 % 7.55 C
3755 03-05-2016 00:50:00 9.5 C 87 % 7.45 C
3756 03-05-2016 00:55:00 9.5 C 87 % 7.45 C
3757 03-05-2016 01:00:00 9.4 C 87 % 7.35 C
3758 03-05-2016 01:05:00 9.4 C 87 % 7.35 C
3759 03-05-2016 01:10:00 9.3 C 87 % 7.25 C
3760 03-05-2016 01:15:00 9.3 C 88 % 7.42 C
3761 03-05-2016 01:20:00 9.2 C 88 % 7.32 C
3762 03-05-2016 01:25:00 9.2 C 88 % 7.32 C
3763 03-05-2016 01:30:00 9.2 C 88 % 7.32 C
3764 03-05-2016 01:35:00 9.1 C 88 % 7.22 C
3765 03-05-2016 01:40:00 9.1 C 89 % 7.39 C
3766 03-05-2016 01:45:00 9.1 C 89 % 7.39 C
3767 03-05-2016 01:50:00 9.1 C 89 % 7.39 C
3768 03-05-2016 01:55:00 9 C 89 % 7.29 C
3769 03-05-2016 02:00:00 8.9 C 88 % 7.02 C
3770 03-05-2016 02:05:00 8.9 C 89 % 7.19 C
3771 03-05-2016 02:10:00 8.8 C 89 % 7.09 C
3772 03-05-2016 02:15:00 8.8 C 89 % 7.09 C
3773 03-05-2016 02:20:00 8.7 C 89 % 6.99 C
3774 03-05-2016 02:25:00 8.7 C 89 % 6.99 C
3775 03-05-2016 02:30:00 8.7 C 90 % 7.15 C
Sensor: Nr:Datum:Temp:Feuchte:Taupunkt:
Aussen-T/F 3776 03-05-2016 02:35:00 8.7 C 90 % 7.15 C
3777 03-05-2016 02:40:00 8.7 C 90 % 7.15 C
3778 03-05-2016 02:45:00 8.6 C 90 % 7.06 C
3779 03-05-2016 02:50:00 8.6 C 90 % 7.06 C
3780 03-05-2016 02:55:00 8.6 C 90 % 7.06 C
3781 03-05-2016 03:00:00 8.6 C 90 % 7.06 C
3782 03-05-2016 03:05:00 8.5 C 90 % 6.96 C
3783 03-05-2016 03:10:00 8.4 C 90 % 6.86 C
3784 03-05-2016 03:15:00 8.4 C 91 % 7.02 C
3785 03-05-2016 03:20:00 8.4 C 91 % 7.02 C
3786 03-05-2016 03:25:00 8.4 C 91 % 7.02 C
3787 03-05-2016 03:30:00 8.4 C 91 % 7.02 C
3788 03-05-2016 03:35:00 8.4 C 91 % 7.02 C
3789 03-05-2016 03:40:00 8.4 C 91 % 7.02 C
3790 03-05-2016 03:45:00 8.4 C 91 % 7.02 C
3791 03-05-2016 03:50:00 8.4 C 91 % 7.02 C
3792 03-05-2016 03:55:00 8.4 C 91 % 7.02 C
3793 03-05-2016 04:00:00 8.4 C 91 % 7.02 C
3794 03-05-2016 04:05:00 8.4 C 91 % 7.02 C
3795 03-05-2016 04:10:00 8.4 C 91 % 7.02 C
3796 03-05-2016 04:15:00 8.4 C 91 % 7.02 C
3797 03-05-2016 04:20:00 8.3 C 91 % 6.92 C
3798 03-05-2016 04:25:00 8.3 C 91 % 6.92 C
3799 03-05-2016 04:30:00 8.3 C 91 % 6.92 C
3800 03-05-2016 04:35:00 8.3 C 91 % 6.92 C
Sensor: Nr:Datum:Temp:Feuchte:Taupunkt:
Aussen-T/F 3801 03-05-2016 04:40:00 8.3 C 91 % 6.92 C
3802 03-05-2016 04:45:00 8.3 C 91 % 6.92 C
3803 03-05-2016 04:50:00 8.3 C 91 % 6.92 C
3804 03-05-2016 04:55:00 8.3 C 91 % 6.92 C
3805 03-05-2016 05:00:00 8.3 C 91 % 6.92 C
3806 03-05-2016 05:05:00 8.2 C 91 % 6.82 C
3807 03-05-2016 05:10:00 8.2 C 91 % 6.82 C
3808 03-05-2016 05:15:00 8.2 C 91 % 6.82 C
3809 03-05-2016 05:20:00 8.2 C 91 % 6.82 C
3810 03-05-2016 05:25:00 8.1 C 91 % 6.72 C
3811 03-05-2016 05:30:00 8.1 C 91 % 6.72 C
3812 03-05-2016 05:35:00 8.1 C 91 % 6.72 C
3813 03-05-2016 05:40:00 8.2 C 91 % 6.82 C
3814 03-05-2016 05:45:00 8.2 C 91 % 6.82 C
3815 03-05-2016 05:50:00 8.2 C 91 % 6.82 C
3816 03-05-2016 05:55:00 8.3 C 91 % 6.92 C
3817 03-05-2016 06:00:00 8.3 C 91 % 6.92 C
3818 03-05-2016 06:05:00 8.4 C 91 % 7.02 C
3819 03-05-2016 06:10:00 8.4 C 91 % 7.02 C
3820 03-05-2016 06:15:00 8.4 C 91 % 7.02 C
3821 03-05-2016 06:20:00 8.4 C 91 % 7.02 C
3822 03-05-2016 06:25:00 8.5 C 91 % 7.12 C
3823 03-05-2016 06:30:00 8.6 C 91 % 7.22 C
3824 03-05-2016 06:35:00 8.6 C 90 % 7.06 C
3825 03-05-2016 06:40:00 8.6 C 90 % 7.06 C
Sensor: Nr:Datum:Temp:Feuchte:Taupunkt:
Aussen-T/F 3826 03-05-2016 06:45:00 8.6 C 90 % 7.06 C
3827 03-05-2016 06:50:00 8.7 C 90 % 7.15 C
3828 03-05-2016 06:55:00 8.7 C 90 % 7.15 C
3829 03-05-2016 07:00:00 8.7 C 90 % 7.15 C
3830 03-05-2016 07:05:00 8.8 C 90 % 7.25 C
3831 03-05-2016 07:10:00 8.8 C 90 % 7.25 C
3832 03-05-2016 07:15:00 8.9 C 90 % 7.35 C
3833 03-05-2016 07:20:00 8.9 C 90 % 7.35 C
3834 03-05-2016 07:25:00 9.1 C 90 % 7.55 C
3835 03-05-2016 07:30:00 9.2 C 90 % 7.65 C
3836 03-05-2016 07:35:00 9.3 C 90 % 7.75 C
3837 03-05-2016 07:40:00 9.4 C 90 % 7.85 C
3838 03-05-2016 07:45:00 9.6 C 90 % 8.04 C
3839 03-05-2016 07:50:00 9.6 C 90 % 8.04 C
3840 03-05-2016 07:55:00 9.6 C 90 % 8.04 C
3841 03-05-2016 08:00:00 9.6 C 91 % 8.21 C
3842 03-05-2016 08:05:00 9.6 C 91 % 8.21 C
3843 03-05-2016 08:10:00 9.6 C 91 % 8.21 C
3844 03-05-2016 08:15:00 9.6 C 92 % 8.37 C
3845 03-05-2016 08:20:00 9.6 C 92 % 8.37 C
3846 03-05-2016 08:25:00 9.6 C 92 % 8.37 C
3847 03-05-2016 08:30:00 9.6 C 92 % 8.37 C
3848 03-05-2016 08:35:00 9.6 C 92 % 8.37 C
3849 03-05-2016 08:40:00 9.4 C 92 % 8.17 C
3850 03-05-2016 08:45:00 9.4 C 92 % 8.17 C
Sensor: Nr:Datum:Temp:Feuchte:Taupunkt:
Aussen-T/F 3851 03-05-2016 08:50:00 9.4 C 92 % 8.17 C
3852 03-05-2016 08:55:00 9.4 C 92 % 8.17 C
3853 03-05-2016 09:00:00 9.4 C 93 % 8.33 C
3854 03-05-2016 09:05:00 9.4 C 93 % 8.33 C
3855 03-05-2016 09:10:00 9.4 C 93 % 8.33 C
3856 03-05-2016 09:15:00 9.4 C 93 % 8.33 C
3857 03-05-2016 09:20:00 9.4 C 93 % 8.33 C
3858 03-05-2016 09:25:00 9.5 C 93 % 8.43 C
3859 03-05-2016 09:30:00 9.6 C 93 % 8.53 C
3860 03-05-2016 09:35:00 9.6 C 93 % 8.53 C
3861 03-05-2016 09:40:00 9.6 C 93 % 8.53 C
3862 03-05-2016 09:45:00 9.6 C 93 % 8.53 C
3863 03-05-2016 09:50:00 9.6 C 92 % 8.37 C
3864 03-05-2016 09:55:00 9.7 C 92 % 8.46 C
3865 03-05-2016 10:00:00 9.8 C 92 % 8.56 C
3866 03-05-2016 10:05:00 9.8 C 92 % 8.56 C
3867 03-05-2016 10:10:00 9.9 C 92 % 8.66 C
3868 03-05-2016 10:15:00 9.9 C 91 % 8.5 C
3869 03-05-2016 10:20:00 9.9 C 91 % 8.5 C
3870 03-05-2016 10:25:00 9.9 C 91 % 8.5 C
3871 03-05-2016 10:30:00 10 C 91 % 8.6 C
3872 03-05-2016 10:35:00 10.1 C 91 % 8.7 C
3873 03-05-2016 10:40:00 10.3 C 89 % 8.57 C
3874 03-05-2016 10:45:00 10.4 C 89 % 8.67 C
3875 03-05-2016 10:50:00 10.6 C 88 % 8.7 C
Sensor: Nr:Datum:Temp:Feuchte:Taupunkt:
Aussen-T/F 3876 03-05-2016 10:55:00 10.7 C 86 % 8.46 C
3877 03-05-2016 11:00:00 10.8 C 86 % 8.56 C
3878 03-05-2016 11:05:00 10.9 C 84 % 8.31 C
3879 03-05-2016 11:10:00 10.9 C 84 % 8.31 C
3880 03-05-2016 11:15:00 11.1 C 83 % 8.33 C
3881 03-05-2016 11:20:00 11.3 C 85 % 8.87 C
3882 03-05-2016 11:25:00 11.7 C 81 % 8.55 C
3883 03-05-2016 11:30:00 11.8 C 80 % 8.47 C
3884 03-05-2016 11:35:00 11.8 C 79 % 8.28 C
3885 03-05-2016 11:40:00 11.8 C 80 % 8.47 C
3886 03-05-2016 11:45:00 11.8 C 80 % 8.47 C
3887 03-05-2016 11:50:00 11.7 C 79 % 8.18 C
3888 03-05-2016 11:55:00 11.7 C 78 % 8 C
3889 03-05-2016 12:00:00 11.8 C 77 % 7.9 C
3890 03-05-2016 12:05:00 11.9 C 76 % 7.81 C
3891 03-05-2016 12:10:00 12.1 C 76 % 8 C
3892 03-05-2016 12:15:00 12.1 C 77 % 8.2 C
3893 03-05-2016 12:20:00 12.2 C 76 % 8.1 C
3894 03-05-2016 12:25:00 12.2 C 75 % 7.91 C
3895 03-05-2016 12:30:00 12.3 C 75 % 8 C
3896 03-05-2016 12:35:00 12.4 C 73 % 7.7 C
3897 03-05-2016 12:40:00 12.6 C 70 % 7.28 C
3898 03-05-2016 12:45:00 12.7 C 70 % 7.38 C
3899 03-05-2016 12:50:00 12.6 C 69 % 7.07 C
3900 03-05-2016 12:55:00 12.6 C 67 % 6.64 C
Sensor: Nr:Datum:Temp:Feuchte:Taupunkt:
Aussen-T/F 3901